<?xml version="1.0" encoding="UTF-8" standalone="no" ?>
<gpx xmlns="http://www.topografix.com/GPX/1/1" xmlns:xsi="http://www.w3.org/2001/XMLSchema-instance" xsi:schemaLocation="http://www.topografix.com/GPX/1/1 http://www.topografix.com/GPX/1/1/gpx.xsd" version="1.1" creator="VisuGPX - https://www.visugpx.com">
  <metadata>
    <name>tour du parmelan</name>
    <desc><![CDATA[tour du parmelan 
depuis la fin de la route goudronnée d'aviernoz]]></desc>
  </metadata>
  <trk>
    <name><![CDATA[Tracé 14 juin 2018 17:32:20]]></name>
    <trkseg>
      <trkpt lat="45.97432" lon="6.24077">
        <ele>1114.03692548</ele>
        <time>2018-06-14T15:32:20Z</time>
      </trkpt>
      <trkpt lat="45.97432" lon="6.24077">
        <ele>1114.03692548</ele>
        <time>2018-06-14T15:32:24Z</time>
      </trkpt>
      <trkpt lat="45.97418" lon="6.24061">
        <ele>1145.03756216</ele>
        <time>2018-06-14T15:32:26Z</time>
      </trkpt>
      <trkpt lat="45.97418" lon="6.24061">
        <ele>1145.03756216</ele>
        <time>2018-06-14T15:32:27Z</time>
      </trkpt>
      <trkpt lat="45.97428" lon="6.24081">
        <ele>1133.03675516</ele>
        <time>2018-06-14T15:37:03Z</time>
      </trkpt>
      <trkpt lat="45.97419" lon="6.2407">
        <ele>1152.03718692</ele>
        <time>2018-06-14T15:37:07Z</time>
      </trkpt>
      <trkpt lat="45.97383" lon="6.24096">
        <ele>1153.03617204</ele>
        <time>2018-06-14T15:37:36Z</time>
      </trkpt>
      <trkpt lat="45.97396" lon="6.24073">
        <ele>1152.03709772</ele>
        <time>2018-06-14T15:37:41Z</time>
      </trkpt>
      <trkpt lat="45.97386" lon="6.24071">
        <ele>1138.03717208</ele>
        <time>2018-06-14T15:37:46Z</time>
      </trkpt>
      <trkpt lat="45.97379" lon="6.24067">
        <ele>1137.03730744</ele>
        <time>2018-06-14T15:37:53Z</time>
      </trkpt>
      <trkpt lat="45.97372" lon="6.24062">
        <ele>1139.03752596</ele>
        <time>2018-06-14T15:37:58Z</time>
      </trkpt>
      <trkpt lat="45.97364" lon="6.24056">
        <ele>1139.03774228</ele>
        <time>2018-06-14T15:38:03Z</time>
      </trkpt>
      <trkpt lat="45.97357" lon="6.2405">
        <ele>1139.03800964</ele>
        <time>2018-06-14T15:38:08Z</time>
      </trkpt>
      <trkpt lat="45.9735" lon="6.24042">
        <ele>1141.03834008</ele>
        <time>2018-06-14T15:38:14Z</time>
      </trkpt>
      <trkpt lat="45.9734" lon="6.24035">
        <ele>1140.03861932</ele>
        <time>2018-06-14T15:38:19Z</time>
      </trkpt>
      <trkpt lat="45.97335" lon="6.24026">
        <ele>1141.03894304</ele>
        <time>2018-06-14T15:38:25Z</time>
      </trkpt>
      <trkpt lat="45.97326" lon="6.24022">
        <ele>1141.03911108</ele>
        <time>2018-06-14T15:38:29Z</time>
      </trkpt>
      <trkpt lat="45.97317" lon="6.24017">
        <ele>1138.03932512</ele>
        <time>2018-06-14T15:38:34Z</time>
      </trkpt>
      <trkpt lat="45.9731" lon="6.2401">
        <ele>1140.0395894</ele>
        <time>2018-06-14T15:38:39Z</time>
      </trkpt>
      <trkpt lat="45.97304" lon="6.24003">
        <ele>1141.03988104</ele>
        <time>2018-06-14T15:38:44Z</time>
      </trkpt>
      <trkpt lat="45.97297" lon="6.23999">
        <ele>1141.0400404</ele>
        <time>2018-06-14T15:38:48Z</time>
      </trkpt>
      <trkpt lat="45.97287" lon="6.23992">
        <ele>1139.04031112</ele>
        <time>2018-06-14T15:38:53Z</time>
      </trkpt>
      <trkpt lat="45.97292" lon="6.24003">
        <ele>1145.03989296</ele>
        <time>2018-06-14T15:39:03Z</time>
      </trkpt>
      <trkpt lat="45.97298" lon="6.24011">
        <ele>1148.03956848</ele>
        <time>2018-06-14T15:39:09Z</time>
      </trkpt>
      <trkpt lat="45.97306" lon="6.24015">
        <ele>1157.03938288</ele>
        <time>2018-06-14T15:39:20Z</time>
      </trkpt>
      <trkpt lat="45.97309" lon="6.24026">
        <ele>1158.03897156</ele>
        <time>2018-06-14T15:39:26Z</time>
      </trkpt>
      <trkpt lat="45.97313" lon="6.24036">
        <ele>1159.038569</ele>
        <time>2018-06-14T15:39:31Z</time>
      </trkpt>
      <trkpt lat="45.97318" lon="6.24046">
        <ele>1157.038145</ele>
        <time>2018-06-14T15:39:36Z</time>
      </trkpt>
      <trkpt lat="45.97321" lon="6.24056">
        <ele>1158.03777064</ele>
        <time>2018-06-14T15:39:43Z</time>
      </trkpt>
      <trkpt lat="45.97327" lon="6.24064">
        <ele>1162.03744944</ele>
        <time>2018-06-14T15:39:48Z</time>
      </trkpt>
      <trkpt lat="45.9733" lon="6.24075">
        <ele>1164.03701116</ele>
        <time>2018-06-14T15:39:56Z</time>
      </trkpt>
      <trkpt lat="45.97335" lon="6.2409">
        <ele>1165.03640316</ele>
        <time>2018-06-14T15:40:01Z</time>
      </trkpt>
      <trkpt lat="45.97341" lon="6.24099">
        <ele>1168.03605788</ele>
        <time>2018-06-14T15:40:06Z</time>
      </trkpt>
      <trkpt lat="45.97346" lon="6.24108">
        <ele>1169.03567548</ele>
        <time>2018-06-14T15:40:12Z</time>
      </trkpt>
      <trkpt lat="45.97352" lon="6.24117">
        <ele>1176.03532356</ele>
        <time>2018-06-14T15:40:23Z</time>
      </trkpt>
      <trkpt lat="45.97359" lon="6.24124">
        <ele>1182.03502888</ele>
        <time>2018-06-14T15:40:31Z</time>
      </trkpt>
      <trkpt lat="45.97362" lon="6.24135">
        <ele>1182.034583</ele>
        <time>2018-06-14T15:40:37Z</time>
      </trkpt>
      <trkpt lat="45.97367" lon="6.24146">
        <ele>1182.03416832</ele>
        <time>2018-06-14T15:40:45Z</time>
      </trkpt>
      <trkpt lat="45.97371" lon="6.24155">
        <ele>1180.03381</ele>
        <time>2018-06-14T15:40:50Z</time>
      </trkpt>
      <trkpt lat="45.97378" lon="6.24165">
        <ele>1182.03342108</ele>
        <time>2018-06-14T15:40:54Z</time>
      </trkpt>
      <trkpt lat="45.97382" lon="6.24181">
        <ele>1177.0327622</ele>
        <time>2018-06-14T15:40:59Z</time>
      </trkpt>
      <trkpt lat="45.97388" lon="6.2419">
        <ele>1180.03238828</ele>
        <time>2018-06-14T15:41:06Z</time>
      </trkpt>
      <trkpt lat="45.97392" lon="6.24201">
        <ele>1182.03195652</ele>
        <time>2018-06-14T15:41:12Z</time>
      </trkpt>
      <trkpt lat="45.97397" lon="6.24211">
        <ele>1190.03157604</ele>
        <time>2018-06-14T15:41:20Z</time>
      </trkpt>
      <trkpt lat="45.97404" lon="6.24218">
        <ele>1193.03129744</ele>
        <time>2018-06-14T15:41:25Z</time>
      </trkpt>
      <trkpt lat="45.9741" lon="6.24228">
        <ele>1192.03088596</ele>
        <time>2018-06-14T15:41:29Z</time>
      </trkpt>
      <trkpt lat="45.97413" lon="6.24239">
        <ele>1193.03045692</ele>
        <time>2018-06-14T15:41:35Z</time>
      </trkpt>
      <trkpt lat="45.97417" lon="6.24249">
        <ele>1193.0300326</ele>
        <time>2018-06-14T15:41:41Z</time>
      </trkpt>
      <trkpt lat="45.97421" lon="6.24258">
        <ele>1193.02966716</ele>
        <time>2018-06-14T15:41:47Z</time>
      </trkpt>
      <trkpt lat="45.97424" lon="6.24266">
        <ele>1193.02935368</ele>
        <time>2018-06-14T15:41:53Z</time>
      </trkpt>
      <trkpt lat="45.97429" lon="6.24281">
        <ele>1193.02874424</ele>
        <time>2018-06-14T15:41:58Z</time>
      </trkpt>
      <trkpt lat="45.97431" lon="6.24291">
        <ele>1194.02836704</ele>
        <time>2018-06-14T15:42:03Z</time>
      </trkpt>
      <trkpt lat="45.97436" lon="6.24303">
        <ele>1195.02788708</ele>
        <time>2018-06-14T15:42:08Z</time>
      </trkpt>
      <trkpt lat="45.9744" lon="6.24314">
        <ele>1199.0274394</ele>
        <time>2018-06-14T15:42:15Z</time>
      </trkpt>
      <trkpt lat="45.97444" lon="6.24325">
        <ele>1200.0270026</ele>
        <time>2018-06-14T15:42:21Z</time>
      </trkpt>
      <trkpt lat="45.97448" lon="6.24335">
        <ele>1205.02661728</ele>
        <time>2018-06-14T15:42:28Z</time>
      </trkpt>
      <trkpt lat="45.97451" lon="6.24346">
        <ele>1204.026146</ele>
        <time>2018-06-14T15:42:34Z</time>
      </trkpt>
      <trkpt lat="45.97443" lon="6.24351">
        <ele>1204.02596252</ele>
        <time>2018-06-14T15:42:45Z</time>
      </trkpt>
      <trkpt lat="45.97435" lon="6.24348">
        <ele>1204.0260826</ele>
        <time>2018-06-14T15:42:52Z</time>
      </trkpt>
      <trkpt lat="45.9743" lon="6.2434">
        <ele>1210.02641196</ele>
        <time>2018-06-14T15:43:01Z</time>
      </trkpt>
      <trkpt lat="45.97424" lon="6.24333">
        <ele>1209.02668012</ele>
        <time>2018-06-14T15:43:05Z</time>
      </trkpt>
      <trkpt lat="45.97419" lon="6.24323">
        <ele>1214.02707068</ele>
        <time>2018-06-14T15:43:13Z</time>
      </trkpt>
      <trkpt lat="45.97415" lon="6.24315">
        <ele>1216.02741588</ele>
        <time>2018-06-14T15:43:19Z</time>
      </trkpt>
      <trkpt lat="45.97409" lon="6.24307">
        <ele>1220.02772584</ele>
        <time>2018-06-14T15:43:25Z</time>
      </trkpt>
      <trkpt lat="45.97401" lon="6.24301">
        <ele>1220.02797192</ele>
        <time>2018-06-14T15:43:30Z</time>
      </trkpt>
      <trkpt lat="45.97395" lon="6.24294">
        <ele>1220.02825392</ele>
        <time>2018-06-14T15:43:36Z</time>
      </trkpt>
      <trkpt lat="45.97388" lon="6.24285">
        <ele>1219.02861524</ele>
        <time>2018-06-14T15:43:42Z</time>
      </trkpt>
      <trkpt lat="45.97381" lon="6.24279">
        <ele>1217.02882608</ele>
        <time>2018-06-14T15:43:49Z</time>
      </trkpt>
      <trkpt lat="45.97373" lon="6.24274">
        <ele>1218.0290294</ele>
        <time>2018-06-14T15:43:54Z</time>
      </trkpt>
      <trkpt lat="45.97364" lon="6.24271">
        <ele>1218.02917968</ele>
        <time>2018-06-14T15:43:58Z</time>
      </trkpt>
      <trkpt lat="45.97356" lon="6.24266">
        <ele>1217.02935504</ele>
        <time>2018-06-14T15:44:04Z</time>
      </trkpt>
      <trkpt lat="45.97349" lon="6.24258">
        <ele>1222.02967436</ele>
        <time>2018-06-14T15:44:10Z</time>
      </trkpt>
      <trkpt lat="45.97342" lon="6.24253">
        <ele>1227.02987904</ele>
        <time>2018-06-14T15:44:17Z</time>
      </trkpt>
      <trkpt lat="45.97334" lon="6.24249">
        <ele>1225.03005104</ele>
        <time>2018-06-14T15:44:23Z</time>
      </trkpt>
      <trkpt lat="45.97323" lon="6.24245">
        <ele>1223.03018552</ele>
        <time>2018-06-14T15:44:28Z</time>
      </trkpt>
      <trkpt lat="45.97316" lon="6.24241">
        <ele>1224.03036668</ele>
        <time>2018-06-14T15:44:32Z</time>
      </trkpt>
      <trkpt lat="45.97309" lon="6.24235">
        <ele>1227.03060496</ele>
        <time>2018-06-14T15:44:37Z</time>
      </trkpt>
      <trkpt lat="45.97301" lon="6.24233">
        <ele>1228.03066232</ele>
        <time>2018-06-14T15:44:45Z</time>
      </trkpt>
      <trkpt lat="45.97293" lon="6.24228">
        <ele>1232.03088056</ele>
        <time>2018-06-14T15:44:54Z</time>
      </trkpt>
      <trkpt lat="45.97285" lon="6.24224">
        <ele>1233.03103796</ele>
        <time>2018-06-14T15:44:59Z</time>
      </trkpt>
      <trkpt lat="45.9728" lon="6.24216">
        <ele>1241.03134704</ele>
        <time>2018-06-14T15:45:06Z</time>
      </trkpt>
      <trkpt lat="45.97274" lon="6.24212">
        <ele>1241.03152836</ele>
        <time>2018-06-14T15:45:12Z</time>
      </trkpt>
      <trkpt lat="45.97263" lon="6.24207">
        <ele>1239.03172236</ele>
        <time>2018-06-14T15:45:17Z</time>
      </trkpt>
      <trkpt lat="45.97256" lon="6.242">
        <ele>1240.0319984</ele>
        <time>2018-06-14T15:45:24Z</time>
      </trkpt>
      <trkpt lat="45.97248" lon="6.24195">
        <ele>1240.03220996</ele>
        <time>2018-06-14T15:45:30Z</time>
      </trkpt>
      <trkpt lat="45.9724" lon="6.24191">
        <ele>1240.03236276</ele>
        <time>2018-06-14T15:45:35Z</time>
      </trkpt>
      <trkpt lat="45.97234" lon="6.24188">
        <ele>1240.03246756</ele>
        <time>2018-06-14T15:45:40Z</time>
      </trkpt>
      <trkpt lat="45.97224" lon="6.24182">
        <ele>1241.03273948</ele>
        <time>2018-06-14T15:45:44Z</time>
      </trkpt>
      <trkpt lat="45.97214" lon="6.24176">
        <ele>1241.03296976</ele>
        <time>2018-06-14T15:45:49Z</time>
      </trkpt>
      <trkpt lat="45.97206" lon="6.24173">
        <ele>1243.03308256</ele>
        <time>2018-06-14T15:45:58Z</time>
      </trkpt>
      <trkpt lat="45.97198" lon="6.2417">
        <ele>1246.03319904</ele>
        <time>2018-06-14T15:46:03Z</time>
      </trkpt>
      <trkpt lat="45.97191" lon="6.24164">
        <ele>1248.03342452</ele>
        <time>2018-06-14T15:46:07Z</time>
      </trkpt>
      <trkpt lat="45.97184" lon="6.2416">
        <ele>1250.03360568</ele>
        <time>2018-06-14T15:46:14Z</time>
      </trkpt>
      <trkpt lat="45.97175" lon="6.24156">
        <ele>1252.03375196</ele>
        <time>2018-06-14T15:46:21Z</time>
      </trkpt>
      <trkpt lat="45.97168" lon="6.24149">
        <ele>1257.03406024</ele>
        <time>2018-06-14T15:46:26Z</time>
      </trkpt>
      <trkpt lat="45.97161" lon="6.24144">
        <ele>1260.03426084</ele>
        <time>2018-06-14T15:46:34Z</time>
      </trkpt>
      <trkpt lat="45.97153" lon="6.24139">
        <ele>1261.03445432</ele>
        <time>2018-06-14T15:46:41Z</time>
      </trkpt>
      <trkpt lat="45.97148" lon="6.24136">
        <ele>1263.03456784</ele>
        <time>2018-06-14T15:46:46Z</time>
      </trkpt>
      <trkpt lat="45.9714" lon="6.24133">
        <ele>1265.03468576</ele>
        <time>2018-06-14T15:46:50Z</time>
      </trkpt>
      <trkpt lat="45.97135" lon="6.24127">
        <ele>1266.03491036</ele>
        <time>2018-06-14T15:46:59Z</time>
      </trkpt>
      <trkpt lat="45.97128" lon="6.24123">
        <ele>1268.03509668</ele>
        <time>2018-06-14T15:47:03Z</time>
      </trkpt>
      <trkpt lat="45.97121" lon="6.24121">
        <ele>1267.03516284</ele>
        <time>2018-06-14T15:47:07Z</time>
      </trkpt>
      <trkpt lat="45.97114" lon="6.24117">
        <ele>1269.0353104</ele>
        <time>2018-06-14T15:47:11Z</time>
      </trkpt>
      <trkpt lat="45.97102" lon="6.24115">
        <ele>1268.03541644</ele>
        <time>2018-06-14T15:47:16Z</time>
      </trkpt>
      <trkpt lat="45.97092" lon="6.24109">
        <ele>1267.03565116</ele>
        <time>2018-06-14T15:47:21Z</time>
      </trkpt>
      <trkpt lat="45.97085" lon="6.24108">
        <ele>1268.03568948</ele>
        <time>2018-06-14T15:47:25Z</time>
      </trkpt>
      <trkpt lat="45.97076" lon="6.24104">
        <ele>1271.03585608</ele>
        <time>2018-06-14T15:47:30Z</time>
      </trkpt>
      <trkpt lat="45.97067" lon="6.24103">
        <ele>1273.0358766</ele>
        <time>2018-06-14T15:47:35Z</time>
      </trkpt>
      <trkpt lat="45.97059" lon="6.24106">
        <ele>1272.03577716</ele>
        <time>2018-06-14T15:47:40Z</time>
      </trkpt>
      <trkpt lat="45.97051" lon="6.24106">
        <ele>1272.03574576</ele>
        <time>2018-06-14T15:47:45Z</time>
      </trkpt>
      <trkpt lat="45.97043" lon="6.24108">
        <ele>1274.03567952</ele>
        <time>2018-06-14T15:47:51Z</time>
      </trkpt>
      <trkpt lat="45.97034" lon="6.24105">
        <ele>1274.03579164</ele>
        <time>2018-06-14T15:47:57Z</time>
      </trkpt>
      <trkpt lat="45.97026" lon="6.24102">
        <ele>1275.03590876</ele>
        <time>2018-06-14T15:48:03Z</time>
      </trkpt>
      <trkpt lat="45.97018" lon="6.24092">
        <ele>1278.03633912</ele>
        <time>2018-06-14T15:48:08Z</time>
      </trkpt>
      <trkpt lat="45.97012" lon="6.24087">
        <ele>1278.03653908</ele>
        <time>2018-06-14T15:48:15Z</time>
      </trkpt>
      <trkpt lat="45.97005" lon="6.24081">
        <ele>1279.03674404</ele>
        <time>2018-06-14T15:48:20Z</time>
      </trkpt>
      <trkpt lat="45.96998" lon="6.24076">
        <ele>1281.0369756</ele>
        <time>2018-06-14T15:48:26Z</time>
      </trkpt>
      <trkpt lat="45.96991" lon="6.24069">
        <ele>1284.03723116</ele>
        <time>2018-06-14T15:48:34Z</time>
      </trkpt>
      <trkpt lat="45.96984" lon="6.24064">
        <ele>1286.03745124</ele>
        <time>2018-06-14T15:48:38Z</time>
      </trkpt>
      <trkpt lat="45.96975" lon="6.2406">
        <ele>1288.03760884</ele>
        <time>2018-06-14T15:48:43Z</time>
      </trkpt>
      <trkpt lat="45.96967" lon="6.24059">
        <ele>1288.03763656</ele>
        <time>2018-06-14T15:48:50Z</time>
      </trkpt>
      <trkpt lat="45.96959" lon="6.24053">
        <ele>1292.03787844</ele>
        <time>2018-06-14T15:48:55Z</time>
      </trkpt>
      <trkpt lat="45.96953" lon="6.24048">
        <ele>1296.03807604</ele>
        <time>2018-06-14T15:49:02Z</time>
      </trkpt>
      <trkpt lat="45.96942" lon="6.24043">
        <ele>1296.03827684</ele>
        <time>2018-06-14T15:49:07Z</time>
      </trkpt>
      <trkpt lat="45.96944" lon="6.24054">
        <ele>1292.0378304</ele>
        <time>2018-06-14T15:49:15Z</time>
      </trkpt>
      <trkpt lat="45.96949" lon="6.24064">
        <ele>1296.03744892</ele>
        <time>2018-06-14T15:49:24Z</time>
      </trkpt>
      <trkpt lat="45.96952" lon="6.24075">
        <ele>1297.03701112</ele>
        <time>2018-06-14T15:49:31Z</time>
      </trkpt>
      <trkpt lat="45.96957" lon="6.24083">
        <ele>1301.03666628</ele>
        <time>2018-06-14T15:49:39Z</time>
      </trkpt>
      <trkpt lat="45.96964" lon="6.24091">
        <ele>1303.03637104</ele>
        <time>2018-06-14T15:49:46Z</time>
      </trkpt>
      <trkpt lat="45.9697" lon="6.24099">
        <ele>1304.03604456</ele>
        <time>2018-06-14T15:49:52Z</time>
      </trkpt>
      <trkpt lat="45.96976" lon="6.24107">
        <ele>1310.03573168</ele>
        <time>2018-06-14T15:49:58Z</time>
      </trkpt>
      <trkpt lat="45.96982" lon="6.24116">
        <ele>1312.03537388</ele>
        <time>2018-06-14T15:50:03Z</time>
      </trkpt>
      <trkpt lat="45.96985" lon="6.24128">
        <ele>1315.03489756</ele>
        <time>2018-06-14T15:50:10Z</time>
      </trkpt>
      <trkpt lat="45.96989" lon="6.24138">
        <ele>1317.0344632</ele>
        <time>2018-06-14T15:50:16Z</time>
      </trkpt>
      <trkpt lat="45.9699" lon="6.2415">
        <ele>1314.03398812</ele>
        <time>2018-06-14T15:50:23Z</time>
      </trkpt>
      <trkpt lat="45.96983" lon="6.24147">
        <ele>1317.034113</ele>
        <time>2018-06-14T15:50:32Z</time>
      </trkpt>
      <trkpt lat="45.96978" lon="6.24139">
        <ele>1315.0344358</ele>
        <time>2018-06-14T15:50:37Z</time>
      </trkpt>
      <trkpt lat="45.96971" lon="6.24133">
        <ele>1317.03466468</ele>
        <time>2018-06-14T15:50:43Z</time>
      </trkpt>
      <trkpt lat="45.96965" lon="6.24127">
        <ele>1321.03492416</ele>
        <time>2018-06-14T15:50:51Z</time>
      </trkpt>
      <trkpt lat="45.96956" lon="6.24123">
        <ele>1322.03509668</ele>
        <time>2018-06-14T15:50:56Z</time>
      </trkpt>
      <trkpt lat="45.96949" lon="6.24115">
        <ele>1330.03539708</ele>
        <time>2018-06-14T15:51:11Z</time>
      </trkpt>
      <trkpt lat="45.96937" lon="6.24107">
        <ele>1328.03571992</ele>
        <time>2018-06-14T15:51:16Z</time>
      </trkpt>
      <trkpt lat="45.9693" lon="6.24101">
        <ele>1328.0359432</ele>
        <time>2018-06-14T15:51:21Z</time>
      </trkpt>
      <trkpt lat="45.96932" lon="6.24114">
        <ele>1340.03545528</ele>
        <time>2018-06-14T15:51:46Z</time>
      </trkpt>
      <trkpt lat="45.96935" lon="6.24125">
        <ele>1340.03501364</ele>
        <time>2018-06-14T15:51:52Z</time>
      </trkpt>
      <trkpt lat="45.96939" lon="6.24135">
        <ele>1340.03461016</ele>
        <time>2018-06-14T15:51:58Z</time>
      </trkpt>
      <trkpt lat="45.96944" lon="6.24144">
        <ele>1342.03424076</ele>
        <time>2018-06-14T15:52:05Z</time>
      </trkpt>
      <trkpt lat="45.9695" lon="6.24152">
        <ele>1345.0339206</ele>
        <time>2018-06-14T15:52:10Z</time>
      </trkpt>
      <trkpt lat="45.96956" lon="6.24162">
        <ele>1349.03354192</ele>
        <time>2018-06-14T15:52:16Z</time>
      </trkpt>
      <trkpt lat="45.96953" lon="6.24174">
        <ele>1347.03305552</ele>
        <time>2018-06-14T15:52:29Z</time>
      </trkpt>
      <trkpt lat="45.96945" lon="6.24173">
        <ele>1348.0330946</ele>
        <time>2018-06-14T15:52:39Z</time>
      </trkpt>
      <trkpt lat="45.96938" lon="6.24166">
        <ele>1351.03335388</ele>
        <time>2018-06-14T15:52:48Z</time>
      </trkpt>
      <trkpt lat="45.9693" lon="6.24161">
        <ele>1354.0335448</ele>
        <time>2018-06-14T15:52:55Z</time>
      </trkpt>
      <trkpt lat="45.96921" lon="6.24159">
        <ele>1355.03362256</ele>
        <time>2018-06-14T15:53:00Z</time>
      </trkpt>
      <trkpt lat="45.96915" lon="6.24153">
        <ele>1357.03389928</ele>
        <time>2018-06-14T15:53:06Z</time>
      </trkpt>
      <trkpt lat="45.9691" lon="6.24145">
        <ele>1362.03420868</ele>
        <time>2018-06-14T15:53:11Z</time>
      </trkpt>
      <trkpt lat="45.96912" lon="6.24157">
        <ele>1371.03372256</ele>
        <time>2018-06-14T15:53:33Z</time>
      </trkpt>
      <trkpt lat="45.96915" lon="6.24169">
        <ele>1369.03326008</ele>
        <time>2018-06-14T15:53:39Z</time>
      </trkpt>
      <trkpt lat="45.96918" lon="6.24179">
        <ele>1371.03285476</ele>
        <time>2018-06-14T15:53:45Z</time>
      </trkpt>
      <trkpt lat="45.96922" lon="6.24191">
        <ele>1371.03238076</ele>
        <time>2018-06-14T15:53:50Z</time>
      </trkpt>
      <trkpt lat="45.96926" lon="6.24199">
        <ele>1374.032041</ele>
        <time>2018-06-14T15:53:56Z</time>
      </trkpt>
      <trkpt lat="45.96932" lon="6.24209">
        <ele>1376.03165748</ele>
        <time>2018-06-14T15:54:03Z</time>
      </trkpt>
      <trkpt lat="45.96937" lon="6.24218">
        <ele>1377.0312658</ele>
        <time>2018-06-14T15:54:09Z</time>
      </trkpt>
      <trkpt lat="45.9694" lon="6.24229">
        <ele>1320.03085592</ele>
        <time>2018-06-14T15:54:17Z</time>
      </trkpt>
      <trkpt lat="45.96943" lon="6.2424">
        <ele>1367.03039932</ele>
        <time>2018-06-14T15:54:23Z</time>
      </trkpt>
      <trkpt lat="45.96949" lon="6.24248">
        <ele>1376.03007224</ele>
        <time>2018-06-14T15:54:30Z</time>
      </trkpt>
      <trkpt lat="45.96954" lon="6.24258">
        <ele>1379.02968768</ele>
        <time>2018-06-14T15:54:36Z</time>
      </trkpt>
      <trkpt lat="45.96962" lon="6.24264">
        <ele>1384.02946084</ele>
        <time>2018-06-14T15:54:45Z</time>
      </trkpt>
      <trkpt lat="45.9697" lon="6.24267">
        <ele>1389.02930968</ele>
        <time>2018-06-14T15:54:52Z</time>
      </trkpt>
      <trkpt lat="45.96978" lon="6.24272">
        <ele>1393.02912344</ele>
        <time>2018-06-14T15:54:59Z</time>
      </trkpt>
      <trkpt lat="45.96984" lon="6.2428">
        <ele>1393.02880772</ele>
        <time>2018-06-14T15:55:05Z</time>
      </trkpt>
      <trkpt lat="45.96991" lon="6.24287">
        <ele>1392.02853208</ele>
        <time>2018-06-14T15:55:10Z</time>
      </trkpt>
      <trkpt lat="45.96984" lon="6.24294">
        <ele>1397.0282388</ele>
        <time>2018-06-14T15:55:32Z</time>
      </trkpt>
      <trkpt lat="45.96976" lon="6.24299">
        <ele>1401.02805556</ele>
        <time>2018-06-14T15:55:41Z</time>
      </trkpt>
      <trkpt lat="45.96967" lon="6.243">
        <ele>1402.02798532</ele>
        <time>2018-06-14T15:55:49Z</time>
      </trkpt>
      <trkpt lat="45.96959" lon="6.24298">
        <ele>1404.0280792</ele>
        <time>2018-06-14T15:55:54Z</time>
      </trkpt>
      <trkpt lat="45.96953" lon="6.24299">
        <ele>1405.0280574</ele>
        <time>2018-06-14T15:55:58Z</time>
      </trkpt>
      <trkpt lat="45.96944" lon="6.24294">
        <ele>1406.02823508</ele>
        <time>2018-06-14T15:56:03Z</time>
      </trkpt>
      <trkpt lat="45.96936" lon="6.24296">
        <ele>1406.02817212</ele>
        <time>2018-06-14T15:56:08Z</time>
      </trkpt>
      <trkpt lat="45.96928" lon="6.24291">
        <ele>1410.0283466</ele>
        <time>2018-06-14T15:56:15Z</time>
      </trkpt>
      <trkpt lat="45.9692" lon="6.24288">
        <ele>1408.0284656</ele>
        <time>2018-06-14T15:56:25Z</time>
      </trkpt>
      <trkpt lat="45.96913" lon="6.24282">
        <ele>1415.02873152</ele>
        <time>2018-06-14T15:56:38Z</time>
      </trkpt>
      <trkpt lat="45.96907" lon="6.24273">
        <ele>1420.02909492</ele>
        <time>2018-06-14T15:56:44Z</time>
      </trkpt>
      <trkpt lat="45.96895" lon="6.24258">
        <ele>1422.02966736</ele>
        <time>2018-06-14T15:56:48Z</time>
      </trkpt>
      <trkpt lat="45.9689" lon="6.24249">
        <ele>1424.03006016</ele>
        <time>2018-06-14T15:56:54Z</time>
      </trkpt>
      <trkpt lat="45.96878" lon="6.24246">
        <ele>1422.03017244</ele>
        <time>2018-06-14T15:56:58Z</time>
      </trkpt>
      <trkpt lat="45.96875" lon="6.24244">
        <ele>1421.03024148</ele>
        <time>2018-06-14T15:57:00Z</time>
      </trkpt>
      <trkpt lat="45.9686" lon="6.24293">
        <ele>1421.02828088</ele>
        <time>2018-06-14T15:57:31Z</time>
      </trkpt>
      <trkpt lat="45.96872" lon="6.24283">
        <ele>1430.02869776</ele>
        <time>2018-06-14T15:57:35Z</time>
      </trkpt>
      <trkpt lat="45.9688" lon="6.24289">
        <ele>1432.02842836</ele>
        <time>2018-06-14T15:57:45Z</time>
      </trkpt>
      <trkpt lat="45.96885" lon="6.243">
        <ele>1435.02801828</ele>
        <time>2018-06-14T15:57:53Z</time>
      </trkpt>
      <trkpt lat="45.9689" lon="6.24306">
        <ele>1437.02775256</ele>
        <time>2018-06-14T15:58:02Z</time>
      </trkpt>
      <trkpt lat="45.96894" lon="6.24318">
        <ele>1437.02727144</ele>
        <time>2018-06-14T15:58:07Z</time>
      </trkpt>
      <trkpt lat="45.96897" lon="6.24329">
        <ele>1439.02683584</ele>
        <time>2018-06-14T15:58:15Z</time>
      </trkpt>
      <trkpt lat="45.96903" lon="6.24338">
        <ele>1439.02647748</ele>
        <time>2018-06-14T15:58:22Z</time>
      </trkpt>
      <trkpt lat="45.96908" lon="6.24346">
        <ele>1440.02614964</ele>
        <time>2018-06-14T15:58:28Z</time>
      </trkpt>
      <trkpt lat="45.96915" lon="6.24352">
        <ele>1440.02593008</ele>
        <time>2018-06-14T15:58:34Z</time>
      </trkpt>
      <trkpt lat="45.96923" lon="6.24356">
        <ele>1442.02577496</ele>
        <time>2018-06-14T15:58:39Z</time>
      </trkpt>
      <trkpt lat="45.96931" lon="6.24359">
        <ele>1444.02562412</ele>
        <time>2018-06-14T15:58:45Z</time>
      </trkpt>
      <trkpt lat="45.96939" lon="6.24364">
        <ele>1445.02544856</ele>
        <time>2018-06-14T15:58:50Z</time>
      </trkpt>
      <trkpt lat="45.96947" lon="6.24369">
        <ele>1447.0252414</ele>
        <time>2018-06-14T15:58:56Z</time>
      </trkpt>
      <trkpt lat="45.96942" lon="6.2438">
        <ele>1449.02481148</ele>
        <time>2018-06-14T15:59:11Z</time>
      </trkpt>
      <trkpt lat="45.96934" lon="6.24382">
        <ele>1454.02472428</ele>
        <time>2018-06-14T15:59:23Z</time>
      </trkpt>
      <trkpt lat="45.96925" lon="6.2438">
        <ele>1457.02481552</ele>
        <time>2018-06-14T15:59:32Z</time>
      </trkpt>
      <trkpt lat="45.96918" lon="6.24382">
        <ele>1459.0247316</ele>
        <time>2018-06-14T15:59:39Z</time>
      </trkpt>
      <trkpt lat="45.96918" lon="6.24394">
        <ele>1458.02422784</ele>
        <time>2018-06-14T15:59:54Z</time>
      </trkpt>
      <trkpt lat="45.96923" lon="6.24404">
        <ele>1457.02385544</ele>
        <time>2018-06-14T16:00:03Z</time>
      </trkpt>
      <trkpt lat="45.96931" lon="6.24408">
        <ele>1461.02366812</ele>
        <time>2018-06-14T16:00:11Z</time>
      </trkpt>
      <trkpt lat="45.96937" lon="6.24418">
        <ele>1466.02327496</ele>
        <time>2018-06-14T16:00:20Z</time>
      </trkpt>
      <trkpt lat="45.96932" lon="6.24428">
        <ele>1480.02288504</ele>
        <time>2018-06-14T16:00:48Z</time>
      </trkpt>
      <trkpt lat="45.96924" lon="6.24431">
        <ele>1482.0227742</ele>
        <time>2018-06-14T16:00:58Z</time>
      </trkpt>
      <trkpt lat="45.96923" lon="6.24443">
        <ele>1483.02228964</ele>
        <time>2018-06-14T16:01:15Z</time>
      </trkpt>
      <trkpt lat="45.96928" lon="6.24452">
        <ele>1486.02191484</ele>
        <time>2018-06-14T16:01:23Z</time>
      </trkpt>
      <trkpt lat="45.96934" lon="6.24459">
        <ele>1489.02163024</ele>
        <time>2018-06-14T16:01:29Z</time>
      </trkpt>
      <trkpt lat="45.96941" lon="6.24468">
        <ele>1491.02128184</ele>
        <time>2018-06-14T16:01:35Z</time>
      </trkpt>
      <trkpt lat="45.96946" lon="6.24476">
        <ele>1493.0209628</ele>
        <time>2018-06-14T16:01:42Z</time>
      </trkpt>
      <trkpt lat="45.96951" lon="6.24484">
        <ele>1495.02064108</ele>
        <time>2018-06-14T16:01:49Z</time>
      </trkpt>
      <trkpt lat="45.96957" lon="6.24493">
        <ele>1497.02028076</ele>
        <time>2018-06-14T16:01:55Z</time>
      </trkpt>
      <trkpt lat="45.96963" lon="6.24501">
        <ele>1497.01994984</ele>
        <time>2018-06-14T16:02:00Z</time>
      </trkpt>
      <trkpt lat="45.96969" lon="6.24509">
        <ele>1499.01966176</ele>
        <time>2018-06-14T16:02:06Z</time>
      </trkpt>
      <trkpt lat="45.96974" lon="6.24519">
        <ele>1501.01925272</ele>
        <time>2018-06-14T16:02:12Z</time>
      </trkpt>
      <trkpt lat="45.96978" lon="6.24529">
        <ele>1502.01884748</ele>
        <time>2018-06-14T16:02:18Z</time>
      </trkpt>
      <trkpt lat="45.96982" lon="6.24541">
        <ele>1501.01837396</ele>
        <time>2018-06-14T16:02:23Z</time>
      </trkpt>
      <trkpt lat="45.96984" lon="6.24553">
        <ele>1505.01789428</ele>
        <time>2018-06-14T16:02:32Z</time>
      </trkpt>
      <trkpt lat="45.96987" lon="6.24564">
        <ele>1506.01744692</ele>
        <time>2018-06-14T16:02:37Z</time>
      </trkpt>
      <trkpt lat="45.9699" lon="6.24576">
        <ele>1507.01695284</ele>
        <time>2018-06-14T16:02:43Z</time>
      </trkpt>
      <trkpt lat="45.96993" lon="6.24588">
        <ele>1508.01649676</ele>
        <time>2018-06-14T16:02:49Z</time>
      </trkpt>
      <trkpt lat="45.96996" lon="6.24598">
        <ele>1510.016083</ele>
        <time>2018-06-14T16:02:55Z</time>
      </trkpt>
      <trkpt lat="45.97" lon="6.24609">
        <ele>1510.01562996</ele>
        <time>2018-06-14T16:03:00Z</time>
      </trkpt>
      <trkpt lat="45.97004" lon="6.24619">
        <ele>1511.01524476</ele>
        <time>2018-06-14T16:03:05Z</time>
      </trkpt>
      <trkpt lat="45.9701" lon="6.24628">
        <ele>1517.01489432</ele>
        <time>2018-06-14T16:03:14Z</time>
      </trkpt>
      <trkpt lat="45.97013" lon="6.24637">
        <ele>1518.01453848</ele>
        <time>2018-06-14T16:03:21Z</time>
      </trkpt>
      <trkpt lat="45.97018" lon="6.24648">
        <ele>1517.01408604</ele>
        <time>2018-06-14T16:03:25Z</time>
      </trkpt>
      <trkpt lat="45.9702" lon="6.24659">
        <ele>1520.01365576</ele>
        <time>2018-06-14T16:03:31Z</time>
      </trkpt>
      <trkpt lat="45.97023" lon="6.2467">
        <ele>1520.01319776</ele>
        <time>2018-06-14T16:03:36Z</time>
      </trkpt>
      <trkpt lat="45.97027" lon="6.24683">
        <ele>1521.0126942</ele>
        <time>2018-06-14T16:03:41Z</time>
      </trkpt>
      <trkpt lat="45.97031" lon="6.24691">
        <ele>1522.0123446</ele>
        <time>2018-06-14T16:03:46Z</time>
      </trkpt>
      <trkpt lat="45.97037" lon="6.247">
        <ele>1522.01200672</ele>
        <time>2018-06-14T16:03:51Z</time>
      </trkpt>
      <trkpt lat="45.97039" lon="6.24711">
        <ele>1521.01154648</ele>
        <time>2018-06-14T16:03:55Z</time>
      </trkpt>
      <trkpt lat="45.97042" lon="6.24721">
        <ele>1526.0111482</ele>
        <time>2018-06-14T16:04:00Z</time>
      </trkpt>
      <trkpt lat="45.9704" lon="6.24732">
        <ele>1524.01071372</ele>
        <time>2018-06-14T16:04:07Z</time>
      </trkpt>
      <trkpt lat="45.97032" lon="6.24737">
        <ele>1524.01052568</ele>
        <time>2018-06-14T16:04:13Z</time>
      </trkpt>
      <trkpt lat="45.97024" lon="6.24744">
        <ele>1528.01026056</ele>
        <time>2018-06-14T16:04:23Z</time>
      </trkpt>
      <trkpt lat="45.97016" lon="6.24743">
        <ele>1531.01027004</ele>
        <time>2018-06-14T16:04:30Z</time>
      </trkpt>
      <trkpt lat="45.97008" lon="6.24744">
        <ele>1535.01025324</ele>
        <time>2018-06-14T16:04:38Z</time>
      </trkpt>
      <trkpt lat="45.96999" lon="6.24743">
        <ele>1536.01027152</ele>
        <time>2018-06-14T16:04:43Z</time>
      </trkpt>
      <trkpt lat="45.96991" lon="6.24746">
        <ele>1537.01014744</ele>
        <time>2018-06-14T16:04:50Z</time>
      </trkpt>
      <trkpt lat="45.96982" lon="6.24748">
        <ele>1539.01009784</ele>
        <time>2018-06-14T16:04:59Z</time>
      </trkpt>
      <trkpt lat="45.96974" lon="6.24745">
        <ele>1543.010206</ele>
        <time>2018-06-14T16:05:07Z</time>
      </trkpt>
      <trkpt lat="45.96968" lon="6.24738">
        <ele>1545.01048448</ele>
        <time>2018-06-14T16:05:12Z</time>
      </trkpt>
      <trkpt lat="45.96962" lon="6.2473">
        <ele>1545.01082096</ele>
        <time>2018-06-14T16:05:18Z</time>
      </trkpt>
      <trkpt lat="45.96957" lon="6.24719">
        <ele>1550.01122584</ele>
        <time>2018-06-14T16:05:25Z</time>
      </trkpt>
      <trkpt lat="45.96943" lon="6.24709">
        <ele>1548.01165692</ele>
        <time>2018-06-14T16:05:30Z</time>
      </trkpt>
      <trkpt lat="45.9693" lon="6.24698">
        <ele>1547.01208576</ele>
        <time>2018-06-14T16:05:34Z</time>
      </trkpt>
      <trkpt lat="45.9692" lon="6.24689">
        <ele>1546.01243756</ele>
        <time>2018-06-14T16:05:39Z</time>
      </trkpt>
      <trkpt lat="45.96917" lon="6.24678">
        <ele>1552.01288132</ele>
        <time>2018-06-14T16:05:49Z</time>
      </trkpt>
      <trkpt lat="45.96909" lon="6.2467">
        <ele>1550.01321576</ele>
        <time>2018-06-14T16:05:54Z</time>
      </trkpt>
      <trkpt lat="45.96902" lon="6.24663">
        <ele>1549.0134906</ele>
        <time>2018-06-14T16:05:59Z</time>
      </trkpt>
      <trkpt lat="45.96895" lon="6.24654">
        <ele>1548.01386084</ele>
        <time>2018-06-14T16:06:03Z</time>
      </trkpt>
      <trkpt lat="45.96888" lon="6.24648">
        <ele>1550.01409464</ele>
        <time>2018-06-14T16:06:07Z</time>
      </trkpt>
      <trkpt lat="45.96878" lon="6.24641">
        <ele>1551.01436168</ele>
        <time>2018-06-14T16:06:12Z</time>
      </trkpt>
      <trkpt lat="45.96868" lon="6.24637">
        <ele>1549.01453036</ele>
        <time>2018-06-14T16:06:17Z</time>
      </trkpt>
      <trkpt lat="45.96857" lon="6.24634">
        <ele>1545.01464</ele>
        <time>2018-06-14T16:06:21Z</time>
      </trkpt>
      <trkpt lat="45.96849" lon="6.2463">
        <ele>1546.01479356</ele>
        <time>2018-06-14T16:06:26Z</time>
      </trkpt>
      <trkpt lat="45.9684" lon="6.24628">
        <ele>1548.01489552</ele>
        <time>2018-06-14T16:06:31Z</time>
      </trkpt>
      <trkpt lat="45.96833" lon="6.24622">
        <ele>1548.01511072</ele>
        <time>2018-06-14T16:06:37Z</time>
      </trkpt>
      <trkpt lat="45.96825" lon="6.24617">
        <ele>1548.015302</ele>
        <time>2018-06-14T16:06:42Z</time>
      </trkpt>
      <trkpt lat="45.96818" lon="6.2461">
        <ele>1549.01560924</ele>
        <time>2018-06-14T16:06:47Z</time>
      </trkpt>
      <trkpt lat="45.96812" lon="6.24603">
        <ele>1551.0159014</ele>
        <time>2018-06-14T16:06:52Z</time>
      </trkpt>
      <trkpt lat="45.96805" lon="6.24595">
        <ele>1552.0162044</ele>
        <time>2018-06-14T16:06:57Z</time>
      </trkpt>
      <trkpt lat="45.96799" lon="6.24588">
        <ele>1556.01647524</ele>
        <time>2018-06-14T16:07:03Z</time>
      </trkpt>
      <trkpt lat="45.96797" lon="6.246">
        <ele>1560.01599288</ele>
        <time>2018-06-14T16:07:14Z</time>
      </trkpt>
      <trkpt lat="45.96798" lon="6.24612">
        <ele>1563.01553204</ele>
        <time>2018-06-14T16:07:22Z</time>
      </trkpt>
      <trkpt lat="45.96801" lon="6.24622">
        <ele>1565.01510828</ele>
        <time>2018-06-14T16:07:28Z</time>
      </trkpt>
      <trkpt lat="45.96801" lon="6.24633">
        <ele>1566.0146726</ele>
        <time>2018-06-14T16:07:33Z</time>
      </trkpt>
      <trkpt lat="45.96798" lon="6.24645">
        <ele>1567.0142116</ele>
        <time>2018-06-14T16:07:38Z</time>
      </trkpt>
      <trkpt lat="45.96791" lon="6.24647">
        <ele>1569.01413848</ele>
        <time>2018-06-14T16:07:45Z</time>
      </trkpt>
      <trkpt lat="45.96783" lon="6.24646">
        <ele>1569.01417896</ele>
        <time>2018-06-14T16:07:49Z</time>
      </trkpt>
      <trkpt lat="45.96775" lon="6.24641">
        <ele>1573.01434556</ele>
        <time>2018-06-14T16:07:57Z</time>
      </trkpt>
      <trkpt lat="45.96766" lon="6.24641">
        <ele>1572.0143538</ele>
        <time>2018-06-14T16:08:42Z</time>
      </trkpt>
      <trkpt lat="45.96759" lon="6.24648">
        <ele>1579.01406352</ele>
        <time>2018-06-14T16:10:27Z</time>
      </trkpt>
      <trkpt lat="45.96752" lon="6.24655">
        <ele>1580.01379584</ele>
        <time>2018-06-14T16:10:36Z</time>
      </trkpt>
      <trkpt lat="45.96748" lon="6.24666">
        <ele>1582.01335436</ele>
        <time>2018-06-14T16:10:45Z</time>
      </trkpt>
      <trkpt lat="45.96746" lon="6.24678">
        <ele>1582.0128918</ele>
        <time>2018-06-14T16:10:50Z</time>
      </trkpt>
      <trkpt lat="45.96741" lon="6.2469">
        <ele>1580.01238272</ele>
        <time>2018-06-14T16:10:55Z</time>
      </trkpt>
      <trkpt lat="45.96739" lon="6.24703">
        <ele>1580.01189336</ele>
        <time>2018-06-14T16:10:59Z</time>
      </trkpt>
      <trkpt lat="45.96737" lon="6.2472">
        <ele>1579.01119808</ele>
        <time>2018-06-14T16:11:04Z</time>
      </trkpt>
      <trkpt lat="45.96733" lon="6.24733">
        <ele>1579.01069172</ele>
        <time>2018-06-14T16:11:08Z</time>
      </trkpt>
      <trkpt lat="45.96726" lon="6.24745">
        <ele>1579.01021524</ele>
        <time>2018-06-14T16:11:13Z</time>
      </trkpt>
      <trkpt lat="45.96717" lon="6.24755">
        <ele>1577.0097946</ele>
        <time>2018-06-14T16:11:17Z</time>
      </trkpt>
      <trkpt lat="45.96706" lon="6.24762">
        <ele>1577.0095274</ele>
        <time>2018-06-14T16:11:22Z</time>
      </trkpt>
      <trkpt lat="45.96698" lon="6.24767">
        <ele>1577.00933616</ele>
        <time>2018-06-14T16:11:26Z</time>
      </trkpt>
      <trkpt lat="45.96689" lon="6.24774">
        <ele>1579.00904204</ele>
        <time>2018-06-14T16:11:31Z</time>
      </trkpt>
      <trkpt lat="45.96679" lon="6.24781">
        <ele>1577.00874252</ele>
        <time>2018-06-14T16:11:36Z</time>
      </trkpt>
      <trkpt lat="45.96671" lon="6.24786">
        <ele>1575.00854876</ele>
        <time>2018-06-14T16:11:41Z</time>
      </trkpt>
      <trkpt lat="45.96665" lon="6.24793">
        <ele>1573.00826572</ele>
        <time>2018-06-14T16:11:45Z</time>
      </trkpt>
      <trkpt lat="45.96662" lon="6.24804">
        <ele>1572.00782232</ele>
        <time>2018-06-14T16:11:49Z</time>
      </trkpt>
      <trkpt lat="45.96657" lon="6.24816">
        <ele>1571.00734316</ele>
        <time>2018-06-14T16:11:53Z</time>
      </trkpt>
      <trkpt lat="45.96653" lon="6.24829">
        <ele>1571.00685764</ele>
        <time>2018-06-14T16:11:57Z</time>
      </trkpt>
      <trkpt lat="45.9665" lon="6.24842">
        <ele>1570.00633812</ele>
        <time>2018-06-14T16:12:01Z</time>
      </trkpt>
      <trkpt lat="45.96647" lon="6.24856">
        <ele>1568.00578108</ele>
        <time>2018-06-14T16:12:05Z</time>
      </trkpt>
      <trkpt lat="45.96645" lon="6.24869">
        <ele>1568.00523764</ele>
        <time>2018-06-14T16:12:09Z</time>
      </trkpt>
      <trkpt lat="45.96642" lon="6.24884">
        <ele>1565.0046592</ele>
        <time>2018-06-14T16:12:13Z</time>
      </trkpt>
      <trkpt lat="45.9664" lon="6.24898">
        <ele>1564.00406332</ele>
        <time>2018-06-14T16:12:17Z</time>
      </trkpt>
      <trkpt lat="45.96641" lon="6.24913">
        <ele>1562.00346548</ele>
        <time>2018-06-14T16:12:21Z</time>
      </trkpt>
      <trkpt lat="45.96645" lon="6.24931">
        <ele>1560.00275232</ele>
        <time>2018-06-14T16:12:26Z</time>
      </trkpt>
      <trkpt lat="45.96647" lon="6.24944">
        <ele>1558.00224464</ele>
        <time>2018-06-14T16:12:30Z</time>
      </trkpt>
      <trkpt lat="45.96651" lon="6.2496">
        <ele>1557.00160556</ele>
        <time>2018-06-14T16:12:35Z</time>
      </trkpt>
      <trkpt lat="45.96647" lon="6.2497">
        <ele>1554.00119032</ele>
        <time>2018-06-14T16:12:40Z</time>
      </trkpt>
      <trkpt lat="45.9664" lon="6.24982">
        <ele>1554.00071708</ele>
        <time>2018-06-14T16:12:44Z</time>
      </trkpt>
      <trkpt lat="45.96637" lon="6.24999">
        <ele>1553.00004636</ele>
        <time>2018-06-14T16:12:49Z</time>
      </trkpt>
      <trkpt lat="45.96634" lon="6.25011">
        <ele>1553.9999408107</ele>
        <time>2018-06-14T16:12:53Z</time>
      </trkpt>
      <trkpt lat="45.96635" lon="6.25026">
        <ele>1553.9998627067</ele>
        <time>2018-06-14T16:12:58Z</time>
      </trkpt>
      <trkpt lat="45.96641" lon="6.25035">
        <ele>1552.9998144445</ele>
        <time>2018-06-14T16:13:02Z</time>
      </trkpt>
      <trkpt lat="45.96647" lon="6.25044">
        <ele>1550.9997644888</ele>
        <time>2018-06-14T16:13:06Z</time>
      </trkpt>
      <trkpt lat="45.96654" lon="6.25053">
        <ele>1550.9997143971</ele>
        <time>2018-06-14T16:13:10Z</time>
      </trkpt>
      <trkpt lat="45.96662" lon="6.25067">
        <ele>1548.9996435119</ele>
        <time>2018-06-14T16:13:15Z</time>
      </trkpt>
      <trkpt lat="45.96668" lon="6.25078">
        <ele>1547.9995859083</ele>
        <time>2018-06-14T16:13:19Z</time>
      </trkpt>
      <trkpt lat="45.96676" lon="6.25091">
        <ele>1544.9995188026</ele>
        <time>2018-06-14T16:13:24Z</time>
      </trkpt>
      <trkpt lat="45.96685" lon="6.25098">
        <ele>1543.9994785113</ele>
        <time>2018-06-14T16:13:28Z</time>
      </trkpt>
      <trkpt lat="45.96691" lon="6.25109">
        <ele>1541.9994252944</ele>
        <time>2018-06-14T16:13:32Z</time>
      </trkpt>
      <trkpt lat="45.96699" lon="6.25125">
        <ele>1539.9993406765</ele>
        <time>2018-06-14T16:13:37Z</time>
      </trkpt>
      <trkpt lat="45.96702" lon="6.25136">
        <ele>1536.9992803094</ele>
        <time>2018-06-14T16:13:41Z</time>
      </trkpt>
      <trkpt lat="45.96708" lon="6.25149">
        <ele>1536.9992158527</ele>
        <time>2018-06-14T16:13:45Z</time>
      </trkpt>
      <trkpt lat="45.96712" lon="6.25162">
        <ele>1536.9991454373</ele>
        <time>2018-06-14T16:13:49Z</time>
      </trkpt>
      <trkpt lat="45.96716" lon="6.25179">
        <ele>1536.9990590605</ele>
        <time>2018-06-14T16:13:54Z</time>
      </trkpt>
      <trkpt lat="45.96716" lon="6.25191">
        <ele>1537.9989962198</ele>
        <time>2018-06-14T16:13:59Z</time>
      </trkpt>
      <trkpt lat="45.96718" lon="6.25201">
        <ele>1536.9989439308</ele>
        <time>2018-06-14T16:14:03Z</time>
      </trkpt>
      <trkpt lat="45.96719" lon="6.25213">
        <ele>1537.9988830699</ele>
        <time>2018-06-14T16:14:07Z</time>
      </trkpt>
      <trkpt lat="45.9672" lon="6.25226">
        <ele>1538.9988166044</ele>
        <time>2018-06-14T16:14:12Z</time>
      </trkpt>
      <trkpt lat="45.9672" lon="6.25243">
        <ele>1539.9987224935</ele>
        <time>2018-06-14T16:14:17Z</time>
      </trkpt>
      <trkpt lat="45.96722" lon="6.25253">
        <ele>1538.9986746974</ele>
        <time>2018-06-14T16:14:22Z</time>
      </trkpt>
      <trkpt lat="45.96721" lon="6.25265">
        <ele>1536.9986075218</ele>
        <time>2018-06-14T16:14:27Z</time>
      </trkpt>
      <trkpt lat="45.96723" lon="6.2528">
        <ele>1533.9985347215</ele>
        <time>2018-06-14T16:14:31Z</time>
      </trkpt>
      <trkpt lat="45.96723" lon="6.25295">
        <ele>1535.99845465</ele>
        <time>2018-06-14T16:14:36Z</time>
      </trkpt>
      <trkpt lat="45.96723" lon="6.25307">
        <ele>1536.9983887948</ele>
        <time>2018-06-14T16:14:40Z</time>
      </trkpt>
      <trkpt lat="45.96722" lon="6.25321">
        <ele>1537.9983154339</ele>
        <time>2018-06-14T16:14:44Z</time>
      </trkpt>
      <trkpt lat="45.96719" lon="6.25333">
        <ele>1539.9982535609</ele>
        <time>2018-06-14T16:14:48Z</time>
      </trkpt>
      <trkpt lat="45.96718" lon="6.25345">
        <ele>1542.998189757</ele>
        <time>2018-06-14T16:14:53Z</time>
      </trkpt>
      <trkpt lat="45.96715" lon="6.25356">
        <ele>1543.9981307251</ele>
        <time>2018-06-14T16:14:57Z</time>
      </trkpt>
      <trkpt lat="45.96709" lon="6.25363">
        <ele>1543.9980893359</ele>
        <time>2018-06-14T16:15:02Z</time>
      </trkpt>
      <trkpt lat="45.96703" lon="6.25373">
        <ele>1544.9980322234</ele>
        <time>2018-06-14T16:15:08Z</time>
      </trkpt>
      <trkpt lat="45.96693" lon="6.25384">
        <ele>1543.9979702297</ele>
        <time>2018-06-14T16:15:13Z</time>
      </trkpt>
      <trkpt lat="45.96686" lon="6.25389">
        <ele>1542.9979350448</ele>
        <time>2018-06-14T16:15:17Z</time>
      </trkpt>
      <trkpt lat="45.96675" lon="6.25395">
        <ele>1540.9979005221</ele>
        <time>2018-06-14T16:15:22Z</time>
      </trkpt>
      <trkpt lat="45.96666" lon="6.25402">
        <ele>1541.9978544708</ele>
        <time>2018-06-14T16:15:27Z</time>
      </trkpt>
      <trkpt lat="45.96661" lon="6.25409">
        <ele>1543.9978141036</ele>
        <time>2018-06-14T16:15:32Z</time>
      </trkpt>
      <trkpt lat="45.9665" lon="6.25419">
        <ele>1543.9977516657</ele>
        <time>2018-06-14T16:15:37Z</time>
      </trkpt>
      <trkpt lat="45.96642" lon="6.25423">
        <ele>1541.9977246639</ele>
        <time>2018-06-14T16:15:41Z</time>
      </trkpt>
      <trkpt lat="45.96636" lon="6.25432">
        <ele>1541.9976765889</ele>
        <time>2018-06-14T16:15:45Z</time>
      </trkpt>
      <trkpt lat="45.96627" lon="6.25444">
        <ele>1542.9976017206</ele>
        <time>2018-06-14T16:15:50Z</time>
      </trkpt>
      <trkpt lat="45.96623" lon="6.25457">
        <ele>1547.997531919</ele>
        <time>2018-06-14T16:15:55Z</time>
      </trkpt>
      <trkpt lat="45.96617" lon="6.25466">
        <ele>1549.9974766508</ele>
        <time>2018-06-14T16:16:00Z</time>
      </trkpt>
      <trkpt lat="45.96609" lon="6.25472">
        <ele>1551.9974403794</ele>
        <time>2018-06-14T16:16:06Z</time>
      </trkpt>
      <trkpt lat="45.966" lon="6.25478">
        <ele>1549.9974008035</ele>
        <time>2018-06-14T16:16:11Z</time>
      </trkpt>
      <trkpt lat="45.96597" lon="6.25487">
        <ele>1550.9973472914</ele>
        <time>2018-06-14T16:16:17Z</time>
      </trkpt>
      <trkpt lat="45.96592" lon="6.25496">
        <ele>1551.9972978752</ele>
        <time>2018-06-14T16:16:22Z</time>
      </trkpt>
      <trkpt lat="45.96584" lon="6.25505">
        <ele>1550.9972399937</ele>
        <time>2018-06-14T16:16:27Z</time>
      </trkpt>
      <trkpt lat="45.96582" lon="6.25515">
        <ele>1553.9971814227</ele>
        <time>2018-06-14T16:16:32Z</time>
      </trkpt>
      <trkpt lat="45.96576" lon="6.25523">
        <ele>1555.9971351093</ele>
        <time>2018-06-14T16:16:37Z</time>
      </trkpt>
      <trkpt lat="45.96568" lon="6.25526">
        <ele>1554.9971089526</ele>
        <time>2018-06-14T16:16:42Z</time>
      </trkpt>
      <trkpt lat="45.96561" lon="6.25534">
        <ele>1553.9970640535</ele>
        <time>2018-06-14T16:16:47Z</time>
      </trkpt>
      <trkpt lat="45.96556" lon="6.25542">
        <ele>1552.9970147387</ele>
        <time>2018-06-14T16:16:51Z</time>
      </trkpt>
      <trkpt lat="45.96549" lon="6.25549">
        <ele>1552.9969663324</ele>
        <time>2018-06-14T16:16:56Z</time>
      </trkpt>
      <trkpt lat="45.96541" lon="6.25556">
        <ele>1553.9969247389</ele>
        <time>2018-06-14T16:17:02Z</time>
      </trkpt>
      <trkpt lat="45.96534" lon="6.25561">
        <ele>1553.9968905604</ele>
        <time>2018-06-14T16:17:07Z</time>
      </trkpt>
      <trkpt lat="45.96526" lon="6.25565">
        <ele>1554.9968610064</ele>
        <time>2018-06-14T16:17:12Z</time>
      </trkpt>
      <trkpt lat="45.96519" lon="6.25569">
        <ele>1554.9968284427</ele>
        <time>2018-06-14T16:17:17Z</time>
      </trkpt>
      <trkpt lat="45.96512" lon="6.25575">
        <ele>1556.9967922332</ele>
        <time>2018-06-14T16:17:23Z</time>
      </trkpt>
      <trkpt lat="45.96505" lon="6.25581">
        <ele>1556.9967536089</ele>
        <time>2018-06-14T16:17:28Z</time>
      </trkpt>
      <trkpt lat="45.96498" lon="6.25587">
        <ele>1558.9967087842</ele>
        <time>2018-06-14T16:17:35Z</time>
      </trkpt>
      <trkpt lat="45.9649" lon="6.25592">
        <ele>1564.9966765971</ele>
        <time>2018-06-14T16:17:44Z</time>
      </trkpt>
      <trkpt lat="45.96482" lon="6.25597">
        <ele>1564.9966422163</ele>
        <time>2018-06-14T16:17:50Z</time>
      </trkpt>
      <trkpt lat="45.96479" lon="6.25608">
        <ele>1569.9965737465</ele>
        <time>2018-06-14T16:17:59Z</time>
      </trkpt>
      <trkpt lat="45.96476" lon="6.25618">
        <ele>1571.996516512</ele>
        <time>2018-06-14T16:18:04Z</time>
      </trkpt>
      <trkpt lat="45.9647" lon="6.25627">
        <ele>1571.9964614124</ele>
        <time>2018-06-14T16:18:09Z</time>
      </trkpt>
      <trkpt lat="45.96464" lon="6.25637">
        <ele>1573.9963979925</ele>
        <time>2018-06-14T16:18:14Z</time>
      </trkpt>
      <trkpt lat="45.96462" lon="6.25649">
        <ele>1572.996326733</ele>
        <time>2018-06-14T16:18:18Z</time>
      </trkpt>
      <trkpt lat="45.96457" lon="6.25659">
        <ele>1572.9962668643</ele>
        <time>2018-06-14T16:18:23Z</time>
      </trkpt>
      <trkpt lat="45.96451" lon="6.25668">
        <ele>1573.9962090288</ele>
        <time>2018-06-14T16:18:29Z</time>
      </trkpt>
      <trkpt lat="45.96444" lon="6.25675">
        <ele>1578.9961620632</ele>
        <time>2018-06-14T16:18:38Z</time>
      </trkpt>
      <trkpt lat="45.96438" lon="6.25684">
        <ele>1579.9961032758</ele>
        <time>2018-06-14T16:18:44Z</time>
      </trkpt>
      <trkpt lat="45.96431" lon="6.25691">
        <ele>1580.9960525536</ele>
        <time>2018-06-14T16:18:50Z</time>
      </trkpt>
      <trkpt lat="45.96425" lon="6.25698">
        <ele>1580.9960092407</ele>
        <time>2018-06-14T16:18:54Z</time>
      </trkpt>
      <trkpt lat="45.96418" lon="6.25704">
        <ele>1580.9959657497</ele>
        <time>2018-06-14T16:18:59Z</time>
      </trkpt>
      <trkpt lat="45.9641" lon="6.25709">
        <ele>1582.995930088</ele>
        <time>2018-06-14T16:19:04Z</time>
      </trkpt>
      <trkpt lat="45.96406" lon="6.25716">
        <ele>1583.9958809078</ele>
        <time>2018-06-14T16:19:09Z</time>
      </trkpt>
      <trkpt lat="45.96398" lon="6.25723">
        <ele>1584.9958342839</ele>
        <time>2018-06-14T16:19:14Z</time>
      </trkpt>
      <trkpt lat="45.96393" lon="6.2573">
        <ele>1587.9957861533</ele>
        <time>2018-06-14T16:19:19Z</time>
      </trkpt>
      <trkpt lat="45.96387" lon="6.25739">
        <ele>1588.9957283872</ele>
        <time>2018-06-14T16:19:24Z</time>
      </trkpt>
      <trkpt lat="45.9638" lon="6.25748">
        <ele>1590.9956703399</ele>
        <time>2018-06-14T16:19:30Z</time>
      </trkpt>
      <trkpt lat="45.96373" lon="6.25753">
        <ele>1592.9956312723</ele>
        <time>2018-06-14T16:19:36Z</time>
      </trkpt>
      <trkpt lat="45.96366" lon="6.25759">
        <ele>1594.9955843776</ele>
        <time>2018-06-14T16:19:43Z</time>
      </trkpt>
      <trkpt lat="45.96359" lon="6.25765">
        <ele>1594.9955425211</ele>
        <time>2018-06-14T16:19:49Z</time>
      </trkpt>
      <trkpt lat="45.96351" lon="6.2577">
        <ele>1597.9955036506</ele>
        <time>2018-06-14T16:19:55Z</time>
      </trkpt>
      <trkpt lat="45.96344" lon="6.25773">
        <ele>1598.9954755008</ele>
        <time>2018-06-14T16:20:01Z</time>
      </trkpt>
      <trkpt lat="45.96337" lon="6.25781">
        <ele>1599.9954219669</ele>
        <time>2018-06-14T16:20:06Z</time>
      </trkpt>
      <trkpt lat="45.96331" lon="6.25788">
        <ele>1599.9953764274</ele>
        <time>2018-06-14T16:20:11Z</time>
      </trkpt>
      <trkpt lat="45.96324" lon="6.25794">
        <ele>1600.9953297744</ele>
        <time>2018-06-14T16:20:16Z</time>
      </trkpt>
      <trkpt lat="45.96315" lon="6.25797">
        <ele>1601.99530147</ele>
        <time>2018-06-14T16:20:21Z</time>
      </trkpt>
      <trkpt lat="45.96307" lon="6.258">
        <ele>1604.9952745639</ele>
        <time>2018-06-14T16:20:28Z</time>
      </trkpt>
      <trkpt lat="45.96299" lon="6.25804">
        <ele>1605.995238984</ele>
        <time>2018-06-14T16:20:34Z</time>
      </trkpt>
      <trkpt lat="45.96291" lon="6.25808">
        <ele>1606.9952065792</ele>
        <time>2018-06-14T16:20:42Z</time>
      </trkpt>
      <trkpt lat="45.96284" lon="6.25815">
        <ele>1609.9951515325</ele>
        <time>2018-06-14T16:20:50Z</time>
      </trkpt>
      <trkpt lat="45.96278" lon="6.25824">
        <ele>1611.9950926315</ele>
        <time>2018-06-14T16:20:56Z</time>
      </trkpt>
      <trkpt lat="45.96272" lon="6.25833">
        <ele>1613.9950322066</ele>
        <time>2018-06-14T16:21:02Z</time>
      </trkpt>
      <trkpt lat="45.96265" lon="6.25838">
        <ele>1615.9949898805</ele>
        <time>2018-06-14T16:21:07Z</time>
      </trkpt>
      <trkpt lat="45.96256" lon="6.25844">
        <ele>1615.9949412824</ele>
        <time>2018-06-14T16:21:12Z</time>
      </trkpt>
      <trkpt lat="45.96248" lon="6.25848">
        <ele>1616.9949112267</ele>
        <time>2018-06-14T16:21:16Z</time>
      </trkpt>
      <trkpt lat="45.96241" lon="6.25847">
        <ele>1616.9949056054</ele>
        <time>2018-06-14T16:21:20Z</time>
      </trkpt>
      <trkpt lat="45.96233" lon="6.2585">
        <ele>1617.9948780546</ele>
        <time>2018-06-14T16:21:24Z</time>
      </trkpt>
      <trkpt lat="45.96227" lon="6.25857">
        <ele>1616.9948293247</ele>
        <time>2018-06-14T16:21:29Z</time>
      </trkpt>
      <trkpt lat="45.96219" lon="6.25859">
        <ele>1613.9948031004</ele>
        <time>2018-06-14T16:21:38Z</time>
      </trkpt>
      <trkpt lat="45.96212" lon="6.25864">
        <ele>1612.9947645756</ele>
        <time>2018-06-14T16:21:45Z</time>
      </trkpt>
      <trkpt lat="45.96204" lon="6.25867">
        <ele>1614.9947357278</ele>
        <time>2018-06-14T16:21:49Z</time>
      </trkpt>
      <trkpt lat="45.96192" lon="6.25872">
        <ele>1612.9946901034</ele>
        <time>2018-06-14T16:21:54Z</time>
      </trkpt>
      <trkpt lat="45.96181" lon="6.25874">
        <ele>1612.9946600977</ele>
        <time>2018-06-14T16:21:58Z</time>
      </trkpt>
      <trkpt lat="45.96172" lon="6.25873">
        <ele>1613.9946501952</ele>
        <time>2018-06-14T16:22:02Z</time>
      </trkpt>
      <trkpt lat="45.96161" lon="6.25878">
        <ele>1613.994603913</ele>
        <time>2018-06-14T16:22:07Z</time>
      </trkpt>
      <trkpt lat="45.96152" lon="6.25883">
        <ele>1613.9945621513</ele>
        <time>2018-06-14T16:22:11Z</time>
      </trkpt>
      <trkpt lat="45.96144" lon="6.25889">
        <ele>1614.9945165697</ele>
        <time>2018-06-14T16:22:15Z</time>
      </trkpt>
      <trkpt lat="45.96134" lon="6.25896">
        <ele>1616.9944591445</ele>
        <time>2018-06-14T16:22:20Z</time>
      </trkpt>
      <trkpt lat="45.96125" lon="6.25904">
        <ele>1616.9943943215</ele>
        <time>2018-06-14T16:22:25Z</time>
      </trkpt>
      <trkpt lat="45.96118" lon="6.2591">
        <ele>1614.9943454022</ele>
        <time>2018-06-14T16:22:29Z</time>
      </trkpt>
      <trkpt lat="45.96112" lon="6.2592">
        <ele>1613.9942750009</ele>
        <time>2018-06-14T16:22:34Z</time>
      </trkpt>
      <trkpt lat="45.96108" lon="6.2593">
        <ele>1615.9942071704</ele>
        <time>2018-06-14T16:22:38Z</time>
      </trkpt>
      <trkpt lat="45.96101" lon="6.25937">
        <ele>1614.9941575504</ele>
        <time>2018-06-14T16:22:42Z</time>
      </trkpt>
      <trkpt lat="45.96093" lon="6.25945">
        <ele>1615.9940947311</ele>
        <time>2018-06-14T16:22:46Z</time>
      </trkpt>
      <trkpt lat="45.96085" lon="6.25953">
        <ele>1615.9940326121</ele>
        <time>2018-06-14T16:22:50Z</time>
      </trkpt>
      <trkpt lat="45.96077" lon="6.25962">
        <ele>1617.993959562</ele>
        <time>2018-06-14T16:22:55Z</time>
      </trkpt>
      <trkpt lat="45.96071" lon="6.25972">
        <ele>1617.9938889427</ele>
        <time>2018-06-14T16:22:59Z</time>
      </trkpt>
      <trkpt lat="45.96066" lon="6.25984">
        <ele>1617.9938091476</ele>
        <time>2018-06-14T16:23:03Z</time>
      </trkpt>
      <trkpt lat="45.96063" lon="6.25997">
        <ele>1617.9937185506</ele>
        <time>2018-06-14T16:23:08Z</time>
      </trkpt>
      <trkpt lat="45.96056" lon="6.26011">
        <ele>1618.9936225929</ele>
        <time>2018-06-14T16:23:13Z</time>
      </trkpt>
      <trkpt lat="45.96055" lon="6.26024">
        <ele>1617.9935395464</ele>
        <time>2018-06-14T16:23:17Z</time>
      </trkpt>
      <trkpt lat="45.96046" lon="6.26032">
        <ele>1615.9934738537</ele>
        <time>2018-06-14T16:23:22Z</time>
      </trkpt>
      <trkpt lat="45.96038" lon="6.26039">
        <ele>1614.9934169285</ele>
        <time>2018-06-14T16:23:26Z</time>
      </trkpt>
      <trkpt lat="45.96029" lon="6.26041">
        <ele>1613.9933875853</ele>
        <time>2018-06-14T16:23:31Z</time>
      </trkpt>
      <trkpt lat="45.96021" lon="6.26041">
        <ele>1614.9933714084</ele>
        <time>2018-06-14T16:23:36Z</time>
      </trkpt>
      <trkpt lat="45.9601" lon="6.2604">
        <ele>1613.9933611347</ele>
        <time>2018-06-14T16:23:41Z</time>
      </trkpt>
      <trkpt lat="45.95999" lon="6.26044">
        <ele>1610.9933142821</ele>
        <time>2018-06-14T16:23:46Z</time>
      </trkpt>
      <trkpt lat="45.9599" lon="6.26046">
        <ele>1611.9932871371</ele>
        <time>2018-06-14T16:23:50Z</time>
      </trkpt>
      <trkpt lat="45.95983" lon="6.26047">
        <ele>1611.993273946</ele>
        <time>2018-06-14T16:23:54Z</time>
      </trkpt>
      <trkpt lat="45.95974" lon="6.2605">
        <ele>1610.9932368507</ele>
        <time>2018-06-14T16:23:58Z</time>
      </trkpt>
      <trkpt lat="45.95971" lon="6.26059">
        <ele>1610.9931738117</ele>
        <time>2018-06-14T16:24:02Z</time>
      </trkpt>
      <trkpt lat="45.95963" lon="6.26064">
        <ele>1611.9931311669</ele>
        <time>2018-06-14T16:24:07Z</time>
      </trkpt>
      <trkpt lat="45.95957" lon="6.26072">
        <ele>1612.9930648695</ele>
        <time>2018-06-14T16:24:13Z</time>
      </trkpt>
      <trkpt lat="45.95949" lon="6.26073">
        <ele>1615.9930480543</ele>
        <time>2018-06-14T16:24:24Z</time>
      </trkpt>
      <trkpt lat="45.9594" lon="6.26075">
        <ele>1618.9930159641</ele>
        <time>2018-06-14T16:24:30Z</time>
      </trkpt>
      <trkpt lat="45.95933" lon="6.26074">
        <ele>1618.9930118151</ele>
        <time>2018-06-14T16:24:35Z</time>
      </trkpt>
      <trkpt lat="45.95925" lon="6.26076">
        <ele>1619.9929817895</ele>
        <time>2018-06-14T16:24:41Z</time>
      </trkpt>
      <trkpt lat="45.95918" lon="6.26081">
        <ele>1619.9929415201</ele>
        <time>2018-06-14T16:24:53Z</time>
      </trkpt>
      <trkpt lat="45.95915" lon="6.26091">
        <ele>1620.992868192</ele>
        <time>2018-06-14T16:24:59Z</time>
      </trkpt>
      <trkpt lat="45.95916" lon="6.26108">
        <ele>1619.9927617498</ele>
        <time>2018-06-14T16:25:04Z</time>
      </trkpt>
      <trkpt lat="45.95912" lon="6.26119">
        <ele>1618.99267987</ele>
        <time>2018-06-14T16:25:09Z</time>
      </trkpt>
      <trkpt lat="45.95906" lon="6.26128">
        <ele>1616.9926115264</ele>
        <time>2018-06-14T16:25:14Z</time>
      </trkpt>
      <trkpt lat="45.95904" lon="6.26139">
        <ele>1619.9925372542</ele>
        <time>2018-06-14T16:25:20Z</time>
      </trkpt>
      <trkpt lat="45.95904" lon="6.26153">
        <ele>1620.9924460318</ele>
        <time>2018-06-14T16:25:25Z</time>
      </trkpt>
      <trkpt lat="45.95905" lon="6.26165">
        <ele>1618.9923670075</ele>
        <time>2018-06-14T16:25:29Z</time>
      </trkpt>
      <trkpt lat="45.95904" lon="6.26179">
        <ele>1619.9922711581</ele>
        <time>2018-06-14T16:25:34Z</time>
      </trkpt>
      <trkpt lat="45.95905" lon="6.2619">
        <ele>1620.9922027357</ele>
        <time>2018-06-14T16:25:38Z</time>
      </trkpt>
      <trkpt lat="45.95904" lon="6.26202">
        <ele>1617.9921194716</ele>
        <time>2018-06-14T16:25:42Z</time>
      </trkpt>
      <trkpt lat="45.95904" lon="6.26215">
        <ele>1616.992034006</ele>
        <time>2018-06-14T16:25:47Z</time>
      </trkpt>
      <trkpt lat="45.95902" lon="6.26229">
        <ele>1615.9919437315</ele>
        <time>2018-06-14T16:25:51Z</time>
      </trkpt>
      <trkpt lat="45.959" lon="6.2624">
        <ele>1613.991866585</ele>
        <time>2018-06-14T16:25:56Z</time>
      </trkpt>
      <trkpt lat="45.95895" lon="6.2625">
        <ele>1611.9917908681</ele>
        <time>2018-06-14T16:26:00Z</time>
      </trkpt>
      <trkpt lat="45.95893" lon="6.2626">
        <ele>1611.9917216211</ele>
        <time>2018-06-14T16:26:04Z</time>
      </trkpt>
      <trkpt lat="45.95886" lon="6.26269">
        <ele>1610.9916507263</ele>
        <time>2018-06-14T16:26:08Z</time>
      </trkpt>
      <trkpt lat="45.95882" lon="6.26278">
        <ele>1608.9915765981</ele>
        <time>2018-06-14T16:26:12Z</time>
      </trkpt>
      <trkpt lat="45.95878" lon="6.2629">
        <ele>1609.9914904892</ele>
        <time>2018-06-14T16:26:17Z</time>
      </trkpt>
      <trkpt lat="45.95874" lon="6.26298">
        <ele>1608.9914332138</ele>
        <time>2018-06-14T16:26:22Z</time>
      </trkpt>
      <trkpt lat="45.95872" lon="6.26312">
        <ele>1609.9913361523</ele>
        <time>2018-06-14T16:26:26Z</time>
      </trkpt>
      <trkpt lat="45.95869" lon="6.26324">
        <ele>1607.9912499446</ele>
        <time>2018-06-14T16:26:30Z</time>
      </trkpt>
      <trkpt lat="45.9586" lon="6.26331">
        <ele>1606.9911843429</ele>
        <time>2018-06-14T16:26:35Z</time>
      </trkpt>
      <trkpt lat="45.95856" lon="6.26341">
        <ele>1609.9911056744</ele>
        <time>2018-06-14T16:26:40Z</time>
      </trkpt>
      <trkpt lat="45.95856" lon="6.26354">
        <ele>1610.9910213986</ele>
        <time>2018-06-14T16:26:45Z</time>
      </trkpt>
      <trkpt lat="45.95851" lon="6.26366">
        <ele>1610.9909320439</ele>
        <time>2018-06-14T16:26:50Z</time>
      </trkpt>
      <trkpt lat="45.95845" lon="6.26374">
        <ele>1611.9908684248</ele>
        <time>2018-06-14T16:26:54Z</time>
      </trkpt>
      <trkpt lat="45.95839" lon="6.26381">
        <ele>1613.9908051323</ele>
        <time>2018-06-14T16:26:58Z</time>
      </trkpt>
      <trkpt lat="45.9583" lon="6.26389">
        <ele>1610.9907319134</ele>
        <time>2018-06-14T16:27:02Z</time>
      </trkpt>
      <trkpt lat="45.95823" lon="6.26396">
        <ele>1612.990670345</ele>
        <time>2018-06-14T16:27:06Z</time>
      </trkpt>
      <trkpt lat="45.95816" lon="6.264">
        <ele>1611.9906238994</ele>
        <time>2018-06-14T16:27:11Z</time>
      </trkpt>
      <trkpt lat="45.95808" lon="6.26406">
        <ele>1616.9905718802</ele>
        <time>2018-06-14T16:27:18Z</time>
      </trkpt>
      <trkpt lat="45.958" lon="6.2641">
        <ele>1618.9905239496</ele>
        <time>2018-06-14T16:27:25Z</time>
      </trkpt>
      <trkpt lat="45.95792" lon="6.26414">
        <ele>1620.9904833464</ele>
        <time>2018-06-14T16:27:31Z</time>
      </trkpt>
      <trkpt lat="45.95784" lon="6.26412">
        <ele>1622.9904756484</ele>
        <time>2018-06-14T16:27:37Z</time>
      </trkpt>
      <trkpt lat="45.95776" lon="6.26409">
        <ele>1623.9904787885</ele>
        <time>2018-06-14T16:27:42Z</time>
      </trkpt>
      <trkpt lat="45.95766" lon="6.26407">
        <ele>1624.9904699862</ele>
        <time>2018-06-14T16:27:47Z</time>
      </trkpt>
      <trkpt lat="45.95756" lon="6.26404">
        <ele>1626.9904656856</ele>
        <time>2018-06-14T16:27:52Z</time>
      </trkpt>
      <trkpt lat="45.9575" lon="6.26399">
        <ele>1626.9904854906</ele>
        <time>2018-06-14T16:27:56Z</time>
      </trkpt>
      <trkpt lat="45.95741" lon="6.26395">
        <ele>1628.9904941878</ele>
        <time>2018-06-14T16:28:01Z</time>
      </trkpt>
      <trkpt lat="45.95735" lon="6.2639">
        <ele>1629.9905133339</ele>
        <time>2018-06-14T16:28:05Z</time>
      </trkpt>
      <trkpt lat="45.95725" lon="6.26382">
        <ele>1629.9905470698</ele>
        <time>2018-06-14T16:28:09Z</time>
      </trkpt>
      <trkpt lat="45.95718" lon="6.26374">
        <ele>1630.9905865509</ele>
        <time>2018-06-14T16:28:14Z</time>
      </trkpt>
      <trkpt lat="45.95714" lon="6.26359">
        <ele>1631.990678309</ele>
        <time>2018-06-14T16:28:19Z</time>
      </trkpt>
      <trkpt lat="45.95712" lon="6.26347">
        <ele>1633.9907626612</ele>
        <time>2018-06-14T16:28:24Z</time>
      </trkpt>
      <trkpt lat="45.95705" lon="6.26341">
        <ele>1631.990785864</ele>
        <time>2018-06-14T16:28:30Z</time>
      </trkpt>
      <trkpt lat="45.95695" lon="6.26336">
        <ele>1632.9907968582</ele>
        <time>2018-06-14T16:28:35Z</time>
      </trkpt>
      <trkpt lat="45.95688" lon="6.26326">
        <ele>1632.9908533953</ele>
        <time>2018-06-14T16:28:40Z</time>
      </trkpt>
      <trkpt lat="45.95684" lon="6.26316">
        <ele>1632.9909106175</ele>
        <time>2018-06-14T16:28:44Z</time>
      </trkpt>
      <trkpt lat="45.9568" lon="6.263">
        <ele>1629.9910129248</ele>
        <time>2018-06-14T16:28:49Z</time>
      </trkpt>
      <trkpt lat="45.95674" lon="6.26291">
        <ele>1630.9910635723</ele>
        <time>2018-06-14T16:28:53Z</time>
      </trkpt>
      <trkpt lat="45.95668" lon="6.26277">
        <ele>1630.9911504774</ele>
        <time>2018-06-14T16:28:58Z</time>
      </trkpt>
      <trkpt lat="45.95667" lon="6.26263">
        <ele>1629.9912436949</ele>
        <time>2018-06-14T16:29:02Z</time>
      </trkpt>
      <trkpt lat="45.95663" lon="6.26255">
        <ele>1630.9912936684</ele>
        <time>2018-06-14T16:29:06Z</time>
      </trkpt>
      <trkpt lat="45.95656" lon="6.26245">
        <ele>1630.9913493338</ele>
        <time>2018-06-14T16:29:11Z</time>
      </trkpt>
      <trkpt lat="45.9565" lon="6.26237">
        <ele>1631.9913905463</ele>
        <time>2018-06-14T16:29:16Z</time>
      </trkpt>
      <trkpt lat="45.95642" lon="6.26227">
        <ele>1630.9914439471</ele>
        <time>2018-06-14T16:29:21Z</time>
      </trkpt>
      <trkpt lat="45.95637" lon="6.26219">
        <ele>1632.9914867742</ele>
        <time>2018-06-14T16:29:25Z</time>
      </trkpt>
      <trkpt lat="45.95631" lon="6.26205">
        <ele>1630.9915794194</ele>
        <time>2018-06-14T16:29:30Z</time>
      </trkpt>
      <trkpt lat="45.95621" lon="6.26194">
        <ele>1626.991636047</ele>
        <time>2018-06-14T16:29:35Z</time>
      </trkpt>
      <trkpt lat="45.95615" lon="6.26184">
        <ele>1626.9916929449</ele>
        <time>2018-06-14T16:29:39Z</time>
      </trkpt>
      <trkpt lat="45.95617" lon="6.26171">
        <ele>1626.9917860947</ele>
        <time>2018-06-14T16:29:43Z</time>
      </trkpt>
      <trkpt lat="45.95613" lon="6.26161">
        <ele>1627.9918515574</ele>
        <time>2018-06-14T16:29:48Z</time>
      </trkpt>
      <trkpt lat="45.95613" lon="6.26149">
        <ele>1629.991937064</ele>
        <time>2018-06-14T16:29:55Z</time>
      </trkpt>
      <trkpt lat="45.95615" lon="6.26137">
        <ele>1630.9920210905</ele>
        <time>2018-06-14T16:30:02Z</time>
      </trkpt>
      <trkpt lat="45.95618" lon="6.26127">
        <ele>1631.9920979601</ele>
        <time>2018-06-14T16:30:07Z</time>
      </trkpt>
      <trkpt lat="45.95618" lon="6.26115">
        <ele>1633.9921808577</ele>
        <time>2018-06-14T16:30:17Z</time>
      </trkpt>
      <trkpt lat="45.95615" lon="6.26105">
        <ele>1633.9922436984</ele>
        <time>2018-06-14T16:30:23Z</time>
      </trkpt>
      <trkpt lat="45.95617" lon="6.26095">
        <ele>1634.9923190963</ele>
        <time>2018-06-14T16:30:28Z</time>
      </trkpt>
      <trkpt lat="45.95612" lon="6.26084">
        <ele>1636.9923871072</ele>
        <time>2018-06-14T16:30:35Z</time>
      </trkpt>
      <trkpt lat="45.95613" lon="6.26072">
        <ele>1634.9924777737</ele>
        <time>2018-06-14T16:30:40Z</time>
      </trkpt>
      <trkpt lat="45.9561" lon="6.26061">
        <ele>1635.9925481527</ele>
        <time>2018-06-14T16:30:47Z</time>
      </trkpt>
      <trkpt lat="45.95608" lon="6.26048">
        <ele>1636.9926338844</ele>
        <time>2018-06-14T16:30:53Z</time>
      </trkpt>
      <trkpt lat="45.95606" lon="6.26036">
        <ele>1635.9927147451</ele>
        <time>2018-06-14T16:30:58Z</time>
      </trkpt>
      <trkpt lat="45.95606" lon="6.26024">
        <ele>1637.9928033346</ele>
        <time>2018-06-14T16:31:05Z</time>
      </trkpt>
      <trkpt lat="45.9561" lon="6.26012">
        <ele>1635.9928897943</ele>
        <time>2018-06-14T16:31:10Z</time>
      </trkpt>
      <trkpt lat="45.95612" lon="6.26">
        <ele>1636.9929787985</ele>
        <time>2018-06-14T16:31:17Z</time>
      </trkpt>
      <trkpt lat="45.95611" lon="6.25987">
        <ele>1635.9930671834</ele>
        <time>2018-06-14T16:31:23Z</time>
      </trkpt>
      <trkpt lat="45.95616" lon="6.25976">
        <ele>1637.9931511132</ele>
        <time>2018-06-14T16:31:28Z</time>
      </trkpt>
      <trkpt lat="45.95617" lon="6.25965">
        <ele>1641.9932331627</ele>
        <time>2018-06-14T16:31:35Z</time>
      </trkpt>
      <trkpt lat="45.95613" lon="6.25955">
        <ele>1642.9932990437</ele>
        <time>2018-06-14T16:31:40Z</time>
      </trkpt>
      <trkpt lat="45.95616" lon="6.25942">
        <ele>1639.9933908189</ele>
        <time>2018-06-14T16:31:45Z</time>
      </trkpt>
      <trkpt lat="45.95619" lon="6.25932">
        <ele>1639.993467154</ele>
        <time>2018-06-14T16:31:52Z</time>
      </trkpt>
      <trkpt lat="45.95617" lon="6.25919">
        <ele>1640.9935531628</ele>
        <time>2018-06-14T16:32:00Z</time>
      </trkpt>
      <trkpt lat="45.95612" lon="6.25909">
        <ele>1647.9936155576</ele>
        <time>2018-06-14T16:32:10Z</time>
      </trkpt>
      <trkpt lat="45.95606" lon="6.259">
        <ele>1648.9936759377</ele>
        <time>2018-06-14T16:32:16Z</time>
      </trkpt>
      <trkpt lat="45.95605" lon="6.25887">
        <ele>1647.9937615817</ele>
        <time>2018-06-14T16:32:21Z</time>
      </trkpt>
      <trkpt lat="45.95609" lon="6.25875">
        <ele>1647.9938496821</ele>
        <time>2018-06-14T16:32:26Z</time>
      </trkpt>
      <trkpt lat="45.95613" lon="6.25866">
        <ele>1646.9939243246</ele>
        <time>2018-06-14T16:32:30Z</time>
      </trkpt>
      <trkpt lat="45.95618" lon="6.25857">
        <ele>1647.9939915205</ele>
        <time>2018-06-14T16:32:34Z</time>
      </trkpt>
      <trkpt lat="45.95621" lon="6.25846">
        <ele>1647.9940744462</ele>
        <time>2018-06-14T16:32:40Z</time>
      </trkpt>
      <trkpt lat="45.95628" lon="6.25835">
        <ele>1646.994158209</ele>
        <time>2018-06-14T16:32:45Z</time>
      </trkpt>
      <trkpt lat="45.95632" lon="6.25825">
        <ele>1645.994233926</ele>
        <time>2018-06-14T16:32:49Z</time>
      </trkpt>
      <trkpt lat="45.95636" lon="6.25815">
        <ele>1647.9943128778</ele>
        <time>2018-06-14T16:32:56Z</time>
      </trkpt>
      <trkpt lat="45.95634" lon="6.25803">
        <ele>1651.9943936732</ele>
        <time>2018-06-14T16:33:03Z</time>
      </trkpt>
      <trkpt lat="45.95635" lon="6.25792">
        <ele>1651.9944671378</ele>
        <time>2018-06-14T16:33:08Z</time>
      </trkpt>
      <trkpt lat="45.95636" lon="6.2578">
        <ele>1652.9945509423</ele>
        <time>2018-06-14T16:33:14Z</time>
      </trkpt>
      <trkpt lat="45.95635" lon="6.25768">
        <ele>1653.9946365789</ele>
        <time>2018-06-14T16:33:20Z</time>
      </trkpt>
      <trkpt lat="45.9564" lon="6.25758">
        <ele>1652.9947099124</ele>
        <time>2018-06-14T16:33:25Z</time>
      </trkpt>
      <trkpt lat="45.95642" lon="6.25746">
        <ele>1655.994798696</ele>
        <time>2018-06-14T16:33:31Z</time>
      </trkpt>
      <trkpt lat="45.95643" lon="6.25735">
        <ele>1655.9948760722</ele>
        <time>2018-06-14T16:33:36Z</time>
      </trkpt>
      <trkpt lat="45.95642" lon="6.25722">
        <ele>1656.9949694053</ele>
        <time>2018-06-14T16:33:41Z</time>
      </trkpt>
      <trkpt lat="45.9564" lon="6.2571">
        <ele>1656.9950436433</ele>
        <time>2018-06-14T16:33:46Z</time>
      </trkpt>
      <trkpt lat="45.95636" lon="6.25699">
        <ele>1656.9951171886</ele>
        <time>2018-06-14T16:33:52Z</time>
      </trkpt>
      <trkpt lat="45.9563" lon="6.25692">
        <ele>1655.9951638116</ele>
        <time>2018-06-14T16:33:57Z</time>
      </trkpt>
      <trkpt lat="45.95622" lon="6.25686">
        <ele>1656.995194424</ele>
        <time>2018-06-14T16:34:02Z</time>
      </trkpt>
      <trkpt lat="45.95615" lon="6.25678">
        <ele>1660.9952436091</ele>
        <time>2018-06-14T16:34:09Z</time>
      </trkpt>
      <trkpt lat="45.95609" lon="6.25669">
        <ele>1663.9952974898</ele>
        <time>2018-06-14T16:34:15Z</time>
      </trkpt>
      <trkpt lat="45.95609" lon="6.25655">
        <ele>1660.9953956986</ele>
        <time>2018-06-14T16:34:20Z</time>
      </trkpt>
      <trkpt lat="45.956" lon="6.25655">
        <ele>1662.9953923414</ele>
        <time>2018-06-14T16:34:25Z</time>
      </trkpt>
      <trkpt lat="45.95592" lon="6.25649">
        <ele>1662.9954219966</ele>
        <time>2018-06-14T16:34:30Z</time>
      </trkpt>
      <trkpt lat="45.95586" lon="6.25645">
        <ele>1663.9954471752</ele>
        <time>2018-06-14T16:34:34Z</time>
      </trkpt>
      <trkpt lat="45.95578" lon="6.25635">
        <ele>1661.9955089362</ele>
        <time>2018-06-14T16:34:39Z</time>
      </trkpt>
      <trkpt lat="45.95575" lon="6.25623">
        <ele>1661.9955913951</ele>
        <time>2018-06-14T16:34:45Z</time>
      </trkpt>
      <trkpt lat="45.95567" lon="6.25619">
        <ele>1663.9956069495</ele>
        <time>2018-06-14T16:34:50Z</time>
      </trkpt>
      <trkpt lat="45.9556" lon="6.25616">
        <ele>1665.9956273718</ele>
        <time>2018-06-14T16:34:55Z</time>
      </trkpt>
      <trkpt lat="45.95554" lon="6.25606">
        <ele>1663.9956864515</ele>
        <time>2018-06-14T16:35:00Z</time>
      </trkpt>
      <trkpt lat="45.95547" lon="6.256">
        <ele>1666.995724412</ele>
        <time>2018-06-14T16:35:07Z</time>
      </trkpt>
      <trkpt lat="45.95544" lon="6.2559">
        <ele>1669.9957947209</ele>
        <time>2018-06-14T16:35:14Z</time>
      </trkpt>
      <trkpt lat="45.95538" lon="6.25581">
        <ele>1668.995855836</ele>
        <time>2018-06-14T16:35:20Z</time>
      </trkpt>
      <trkpt lat="45.95533" lon="6.25571">
        <ele>1669.9959211377</ele>
        <time>2018-06-14T16:35:27Z</time>
      </trkpt>
      <trkpt lat="45.95528" lon="6.25561">
        <ele>1671.9959877547</ele>
        <time>2018-06-14T16:35:34Z</time>
      </trkpt>
      <trkpt lat="45.95524" lon="6.25551">
        <ele>1673.9960556257</ele>
        <time>2018-06-14T16:35:40Z</time>
      </trkpt>
      <trkpt lat="45.95521" lon="6.25539">
        <ele>1672.9961363183</ele>
        <time>2018-06-14T16:35:47Z</time>
      </trkpt>
      <trkpt lat="45.95515" lon="6.2553">
        <ele>1676.9961939893</ele>
        <time>2018-06-14T16:35:56Z</time>
      </trkpt>
      <trkpt lat="45.95509" lon="6.25521">
        <ele>1673.9962546911</ele>
        <time>2018-06-14T16:36:03Z</time>
      </trkpt>
      <trkpt lat="45.95504" lon="6.25511">
        <ele>1675.9963209097</ele>
        <time>2018-06-14T16:36:12Z</time>
      </trkpt>
      <trkpt lat="45.95497" lon="6.25503">
        <ele>1678.9963766397</ele>
        <time>2018-06-14T16:36:22Z</time>
      </trkpt>
      <trkpt lat="45.95493" lon="6.25492">
        <ele>1677.9964500408</ele>
        <time>2018-06-14T16:36:30Z</time>
      </trkpt>
      <trkpt lat="45.95487" lon="6.25483">
        <ele>1680.9965115253</ele>
        <time>2018-06-14T16:36:37Z</time>
      </trkpt>
      <trkpt lat="45.95482" lon="6.25474">
        <ele>1680.9965768276</ele>
        <time>2018-06-14T16:36:44Z</time>
      </trkpt>
      <trkpt lat="45.95474" lon="6.25467">
        <ele>1681.9966148764</ele>
        <time>2018-06-14T16:36:52Z</time>
      </trkpt>
      <trkpt lat="45.95469" lon="6.25457">
        <ele>1681.9966866877</ele>
        <time>2018-06-14T16:37:03Z</time>
      </trkpt>
      <trkpt lat="45.95461" lon="6.25453">
        <ele>1682.9967084669</ele>
        <time>2018-06-14T16:37:13Z</time>
      </trkpt>
      <trkpt lat="45.95456" lon="6.25443">
        <ele>1685.996780879</ele>
        <time>2018-06-14T16:37:23Z</time>
      </trkpt>
      <trkpt lat="45.95449" lon="6.25436">
        <ele>1690.9968238804</ele>
        <time>2018-06-14T16:37:32Z</time>
      </trkpt>
      <trkpt lat="45.95442" lon="6.25429">
        <ele>1690.996868367</ele>
        <time>2018-06-14T16:37:40Z</time>
      </trkpt>
      <trkpt lat="45.95433" lon="6.25432">
        <ele>1691.9968452153</ele>
        <time>2018-06-14T16:37:51Z</time>
      </trkpt>
      <trkpt lat="45.95426" lon="6.25436">
        <ele>1692.9968055557</ele>
        <time>2018-06-14T16:38:01Z</time>
      </trkpt>
      <trkpt lat="45.95418" lon="6.2544">
        <ele>1691.9967758615</ele>
        <time>2018-06-14T16:38:07Z</time>
      </trkpt>
      <trkpt lat="45.95411" lon="6.25447">
        <ele>1691.9967181223</ele>
        <time>2018-06-14T16:38:13Z</time>
      </trkpt>
      <trkpt lat="45.95406" lon="6.25453">
        <ele>1690.9966727207</ele>
        <time>2018-06-14T16:38:18Z</time>
      </trkpt>
      <trkpt lat="45.95397" lon="6.25461">
        <ele>1688.9966024942</ele>
        <time>2018-06-14T16:38:23Z</time>
      </trkpt>
      <trkpt lat="45.95391" lon="6.25469">
        <ele>1690.9965430184</ele>
        <time>2018-06-14T16:38:28Z</time>
      </trkpt>
      <trkpt lat="45.95383" lon="6.25473">
        <ele>1686.9965028382</ele>
        <time>2018-06-14T16:38:34Z</time>
      </trkpt>
      <trkpt lat="45.95377" lon="6.25483">
        <ele>1687.9964269002</ele>
        <time>2018-06-14T16:38:40Z</time>
      </trkpt>
      <trkpt lat="45.9537" lon="6.25489">
        <ele>1687.9963807308</ele>
        <time>2018-06-14T16:38:45Z</time>
      </trkpt>
      <trkpt lat="45.95362" lon="6.2549">
        <ele>1687.996360701</ele>
        <time>2018-06-14T16:38:52Z</time>
      </trkpt>
      <trkpt lat="45.95354" lon="6.25491">
        <ele>1684.9963470472</ele>
        <time>2018-06-14T16:38:59Z</time>
      </trkpt>
      <trkpt lat="45.95345" lon="6.25497">
        <ele>1682.9963008532</ele>
        <time>2018-06-14T16:39:05Z</time>
      </trkpt>
      <trkpt lat="45.95338" lon="6.25503">
        <ele>1681.9962454722</ele>
        <time>2018-06-14T16:39:11Z</time>
      </trkpt>
      <trkpt lat="45.9533" lon="6.25508">
        <ele>1679.9962049875</ele>
        <time>2018-06-14T16:39:16Z</time>
      </trkpt>
      <trkpt lat="45.95323" lon="6.25515">
        <ele>1678.9961484017</ele>
        <time>2018-06-14T16:39:20Z</time>
      </trkpt>
      <trkpt lat="45.95312" lon="6.25518">
        <ele>1678.9961148698</ele>
        <time>2018-06-14T16:39:24Z</time>
      </trkpt>
      <trkpt lat="45.95304" lon="6.25516">
        <ele>1681.9961266689</ele>
        <time>2018-06-14T16:39:30Z</time>
      </trkpt>
      <trkpt lat="45.95296" lon="6.2552">
        <ele>1680.9960845993</ele>
        <time>2018-06-14T16:39:36Z</time>
      </trkpt>
      <trkpt lat="45.9529" lon="6.25512">
        <ele>1682.9961389443</ele>
        <time>2018-06-14T16:39:42Z</time>
      </trkpt>
      <trkpt lat="45.95285" lon="6.25503">
        <ele>1685.9962074013</ele>
        <time>2018-06-14T16:39:48Z</time>
      </trkpt>
      <trkpt lat="45.9528" lon="6.25494">
        <ele>1689.9962698261</ele>
        <time>2018-06-14T16:39:55Z</time>
      </trkpt>
      <trkpt lat="45.95274" lon="6.25486">
        <ele>1691.9963265956</ele>
        <time>2018-06-14T16:40:01Z</time>
      </trkpt>
      <trkpt lat="45.95267" lon="6.2548">
        <ele>1690.9963684524</ele>
        <time>2018-06-14T16:40:06Z</time>
      </trkpt>
      <trkpt lat="45.95262" lon="6.2547">
        <ele>1689.9964357277</ele>
        <time>2018-06-14T16:40:11Z</time>
      </trkpt>
      <trkpt lat="45.95256" lon="6.25464">
        <ele>1690.9964770621</ele>
        <time>2018-06-14T16:40:15Z</time>
      </trkpt>
      <trkpt lat="45.9525" lon="6.25457">
        <ele>1691.9965270679</ele>
        <time>2018-06-14T16:40:19Z</time>
      </trkpt>
      <trkpt lat="45.95244" lon="6.2545">
        <ele>1691.9965778305</ele>
        <time>2018-06-14T16:40:25Z</time>
      </trkpt>
      <trkpt lat="45.95239" lon="6.2544">
        <ele>1692.9966502205</ele>
        <time>2018-06-14T16:40:30Z</time>
      </trkpt>
      <trkpt lat="45.95234" lon="6.25429">
        <ele>1694.9967273661</ele>
        <time>2018-06-14T16:40:35Z</time>
      </trkpt>
      <trkpt lat="45.95231" lon="6.2542">
        <ele>1695.9967960769</ele>
        <time>2018-06-14T16:40:40Z</time>
      </trkpt>
      <trkpt lat="45.95228" lon="6.2541">
        <ele>1696.9968664283</ele>
        <time>2018-06-14T16:40:44Z</time>
      </trkpt>
      <trkpt lat="45.95224" lon="6.254">
        <ele>1697.9969419383</ele>
        <time>2018-06-14T16:40:48Z</time>
      </trkpt>
      <trkpt lat="45.95219" lon="6.25391">
        <ele>1697.9970060288</ele>
        <time>2018-06-14T16:40:52Z</time>
      </trkpt>
      <trkpt lat="45.95214" lon="6.25383">
        <ele>1695.9970695109</ele>
        <time>2018-06-14T16:40:57Z</time>
      </trkpt>
      <trkpt lat="45.95206" lon="6.25373">
        <ele>1695.9971364603</ele>
        <time>2018-06-14T16:41:02Z</time>
      </trkpt>
      <trkpt lat="45.95199" lon="6.25371">
        <ele>1694.9971484915</ele>
        <time>2018-06-14T16:41:07Z</time>
      </trkpt>
      <trkpt lat="45.9519" lon="6.2537">
        <ele>1693.9971528914</ele>
        <time>2018-06-14T16:41:12Z</time>
      </trkpt>
      <trkpt lat="45.95182" lon="6.25365">
        <ele>1693.9971904968</ele>
        <time>2018-06-14T16:41:17Z</time>
      </trkpt>
      <trkpt lat="45.95176" lon="6.25356">
        <ele>1691.9972508097</ele>
        <time>2018-06-14T16:41:59Z</time>
      </trkpt>
      <trkpt lat="45.95169" lon="6.25351">
        <ele>1692.9972887956</ele>
        <time>2018-06-14T16:42:04Z</time>
      </trkpt>
      <trkpt lat="45.95162" lon="6.25342">
        <ele>1692.997351178</ele>
        <time>2018-06-14T16:42:09Z</time>
      </trkpt>
      <trkpt lat="45.95154" lon="6.25334">
        <ele>1694.9974142118</ele>
        <time>2018-06-14T16:42:14Z</time>
      </trkpt>
      <trkpt lat="45.95149" lon="6.25325">
        <ele>1695.9974804718</ele>
        <time>2018-06-14T16:42:19Z</time>
      </trkpt>
      <trkpt lat="45.95139" lon="6.25321">
        <ele>1696.9975007635</ele>
        <time>2018-06-14T16:42:24Z</time>
      </trkpt>
      <trkpt lat="45.9513" lon="6.25321">
        <ele>1697.9974992946</ele>
        <time>2018-06-14T16:42:29Z</time>
      </trkpt>
      <trkpt lat="45.95122" lon="6.25319">
        <ele>1697.9975100353</ele>
        <time>2018-06-14T16:42:34Z</time>
      </trkpt>
      <trkpt lat="45.95115" lon="6.25313">
        <ele>1698.9975523232</ele>
        <time>2018-06-14T16:42:38Z</time>
      </trkpt>
      <trkpt lat="45.95108" lon="6.25305">
        <ele>1696.9976168366</ele>
        <time>2018-06-14T16:42:45Z</time>
      </trkpt>
      <trkpt lat="45.95101" lon="6.253">
        <ele>1695.9976500553</ele>
        <time>2018-06-14T16:42:55Z</time>
      </trkpt>
      <trkpt lat="45.95095" lon="6.25292">
        <ele>1696.9977086704</ele>
        <time>2018-06-14T16:43:01Z</time>
      </trkpt>
      <trkpt lat="45.95087" lon="6.2529">
        <ele>1697.9977214063</ele>
        <time>2018-06-14T16:43:06Z</time>
      </trkpt>
      <trkpt lat="45.9508" lon="6.25285">
        <ele>1698.9977560969</ele>
        <time>2018-06-14T16:43:11Z</time>
      </trkpt>
      <trkpt lat="45.95072" lon="6.25283">
        <ele>1699.9977708703</ele>
        <time>2018-06-14T16:43:18Z</time>
      </trkpt>
      <trkpt lat="45.95064" lon="6.2528">
        <ele>1699.9977878366</ele>
        <time>2018-06-14T16:43:24Z</time>
      </trkpt>
      <trkpt lat="45.95057" lon="6.25283">
        <ele>1700.9977584093</ele>
        <time>2018-06-14T16:43:29Z</time>
      </trkpt>
      <trkpt lat="45.95049" lon="6.2528">
        <ele>1697.9977829079</ele>
        <time>2018-06-14T16:43:39Z</time>
      </trkpt>
      <trkpt lat="45.95044" lon="6.25271">
        <ele>1696.9978530735</ele>
        <time>2018-06-14T16:43:48Z</time>
      </trkpt>
      <trkpt lat="45.95042" lon="6.25259">
        <ele>1696.997946128</ele>
        <time>2018-06-14T16:43:55Z</time>
      </trkpt>
      <trkpt lat="45.95036" lon="6.25253">
        <ele>1694.997987704</ele>
        <time>2018-06-14T16:44:04Z</time>
      </trkpt>
      <trkpt lat="45.95028" lon="6.25252">
        <ele>1693.9979977988</ele>
        <time>2018-06-14T16:44:09Z</time>
      </trkpt>
      <trkpt lat="45.9502" lon="6.25255">
        <ele>1694.9979726191</ele>
        <time>2018-06-14T16:44:17Z</time>
      </trkpt>
      <trkpt lat="45.95012" lon="6.25254">
        <ele>1694.9979718226</ele>
        <time>2018-06-14T16:44:22Z</time>
      </trkpt>
      <trkpt lat="45.95004" lon="6.25255">
        <ele>1695.9979646712</ele>
        <time>2018-06-14T16:44:28Z</time>
      </trkpt>
      <trkpt lat="45.94996" lon="6.25256">
        <ele>1695.9979518652</ele>
        <time>2018-06-14T16:44:35Z</time>
      </trkpt>
      <trkpt lat="45.94988" lon="6.25253">
        <ele>1697.9979674542</ele>
        <time>2018-06-14T16:44:44Z</time>
      </trkpt>
      <trkpt lat="45.9498" lon="6.25255">
        <ele>1699.9979559599</ele>
        <time>2018-06-14T16:44:52Z</time>
      </trkpt>
      <trkpt lat="45.94972" lon="6.25251">
        <ele>1700.9979779705</ele>
        <time>2018-06-14T16:44:59Z</time>
      </trkpt>
      <trkpt lat="45.94968" lon="6.2524">
        <ele>1701.9980650668</ele>
        <time>2018-06-14T16:45:05Z</time>
      </trkpt>
      <trkpt lat="45.94963" lon="6.2523">
        <ele>1702.9981506308</ele>
        <time>2018-06-14T16:45:12Z</time>
      </trkpt>
      <trkpt lat="45.94961" lon="6.25219">
        <ele>1703.9982368253</ele>
        <time>2018-06-14T16:45:19Z</time>
      </trkpt>
      <trkpt lat="45.94958" lon="6.25207">
        <ele>1704.9983278982</ele>
        <time>2018-06-14T16:45:26Z</time>
      </trkpt>
      <trkpt lat="45.94953" lon="6.25197">
        <ele>1704.998408308</ele>
        <time>2018-06-14T16:45:32Z</time>
      </trkpt>
      <trkpt lat="45.94946" lon="6.25194">
        <ele>1705.9984343611</ele>
        <time>2018-06-14T16:45:37Z</time>
      </trkpt>
      <trkpt lat="45.9494" lon="6.25185">
        <ele>1705.9985004053</ele>
        <time>2018-06-14T16:45:41Z</time>
      </trkpt>
      <trkpt lat="45.94932" lon="6.25178">
        <ele>1702.9985589895</ele>
        <time>2018-06-14T16:45:51Z</time>
      </trkpt>
      <trkpt lat="45.94925" lon="6.25172">
        <ele>1706.9986062433</ele>
        <time>2018-06-14T16:46:01Z</time>
      </trkpt>
      <trkpt lat="45.94924" lon="6.25161">
        <ele>1707.9986945519</ele>
        <time>2018-06-14T16:46:07Z</time>
      </trkpt>
      <trkpt lat="45.94918" lon="6.25153">
        <ele>1710.998759047</ele>
        <time>2018-06-14T16:46:21Z</time>
      </trkpt>
      <trkpt lat="45.94922" lon="6.25142">
        <ele>1709.9988471228</ele>
        <time>2018-06-14T16:46:28Z</time>
      </trkpt>
      <trkpt lat="45.94925" lon="6.2513">
        <ele>1710.9989419452</ele>
        <time>2018-06-14T16:46:35Z</time>
      </trkpt>
      <trkpt lat="45.94924" lon="6.25119">
        <ele>1711.999035264</ele>
        <time>2018-06-14T16:46:41Z</time>
      </trkpt>
      <trkpt lat="45.94924" lon="6.25107">
        <ele>1714.9991306849</ele>
        <time>2018-06-14T16:46:48Z</time>
      </trkpt>
      <trkpt lat="45.94923" lon="6.25096">
        <ele>1715.9992242468</ele>
        <time>2018-06-14T16:46:55Z</time>
      </trkpt>
      <trkpt lat="45.94923" lon="6.25085">
        <ele>1715.9993127077</ele>
        <time>2018-06-14T16:47:00Z</time>
      </trkpt>
      <trkpt lat="45.94924" lon="6.25074">
        <ele>1718.9994019329</ele>
        <time>2018-06-14T16:47:08Z</time>
      </trkpt>
      <trkpt lat="45.94928" lon="6.25064">
        <ele>1719.9994811775</ele>
        <time>2018-06-14T16:47:15Z</time>
      </trkpt>
      <trkpt lat="45.94933" lon="6.25054">
        <ele>1720.9995608667</ele>
        <time>2018-06-14T16:47:21Z</time>
      </trkpt>
      <trkpt lat="45.94937" lon="6.25044">
        <ele>1719.9996425247</ele>
        <time>2018-06-14T16:47:27Z</time>
      </trkpt>
      <trkpt lat="45.94937" lon="6.25033">
        <ele>1719.9997345523</ele>
        <time>2018-06-14T16:47:33Z</time>
      </trkpt>
      <trkpt lat="45.94943" lon="6.25024">
        <ele>1721.999803511</ele>
        <time>2018-06-14T16:47:40Z</time>
      </trkpt>
      <trkpt lat="45.94943" lon="6.25012">
        <ele>1716.9999018804</ele>
        <time>2018-06-14T16:47:55Z</time>
      </trkpt>
      <trkpt lat="45.94934" lon="6.25011">
        <ele>1718.9999115387</ele>
        <time>2018-06-14T16:48:03Z</time>
      </trkpt>
      <trkpt lat="45.94935" lon="6.24999">
        <ele>1720.00005216</ele>
        <time>2018-06-14T16:48:15Z</time>
      </trkpt>
      <trkpt lat="45.94928" lon="6.24992">
        <ele>1718.00031424</ele>
        <time>2018-06-14T16:48:20Z</time>
      </trkpt>
      <trkpt lat="45.94923" lon="6.24983">
        <ele>1717.000682</ele>
        <time>2018-06-14T16:48:25Z</time>
      </trkpt>
      <trkpt lat="45.94916" lon="6.24976">
        <ele>1718.000958</ele>
        <time>2018-06-14T16:48:32Z</time>
      </trkpt>
      <trkpt lat="45.94912" lon="6.24966">
        <ele>1715.0013532</ele>
        <time>2018-06-14T16:48:41Z</time>
      </trkpt>
      <trkpt lat="45.94905" lon="6.24958">
        <ele>1715.001664</ele>
        <time>2018-06-14T16:48:46Z</time>
      </trkpt>
      <trkpt lat="45.94898" lon="6.24953">
        <ele>1716.00188052</ele>
        <time>2018-06-14T16:48:52Z</time>
      </trkpt>
      <trkpt lat="45.9489" lon="6.24947">
        <ele>1718.00211372</ele>
        <time>2018-06-14T16:49:01Z</time>
      </trkpt>
      <trkpt lat="45.94887" lon="6.24935">
        <ele>1723.00258272</ele>
        <time>2018-06-14T16:49:10Z</time>
      </trkpt>
      <trkpt lat="45.94887" lon="6.24923">
        <ele>1724.00308928</ele>
        <time>2018-06-14T16:49:17Z</time>
      </trkpt>
      <trkpt lat="45.94886" lon="6.2491">
        <ele>1725.00358216</ele>
        <time>2018-06-14T16:49:23Z</time>
      </trkpt>
      <trkpt lat="45.94879" lon="6.24903">
        <ele>1725.0038668</ele>
        <time>2018-06-14T16:49:30Z</time>
      </trkpt>
      <trkpt lat="45.94874" lon="6.24895">
        <ele>1721.00419092</ele>
        <time>2018-06-14T16:49:36Z</time>
      </trkpt>
      <trkpt lat="45.94871" lon="6.24883">
        <ele>1723.00467472</ele>
        <time>2018-06-14T16:49:44Z</time>
      </trkpt>
      <trkpt lat="45.94863" lon="6.24879">
        <ele>1724.00485296</ele>
        <time>2018-06-14T16:49:50Z</time>
      </trkpt>
      <trkpt lat="45.94856" lon="6.24871">
        <ele>1726.00516824</ele>
        <time>2018-06-14T16:49:58Z</time>
      </trkpt>
      <trkpt lat="45.94848" lon="6.24876">
        <ele>1725.00498036</ele>
        <time>2018-06-14T16:50:06Z</time>
      </trkpt>
      <trkpt lat="45.94842" lon="6.24883">
        <ele>1723.00468472</ele>
        <time>2018-06-14T16:50:15Z</time>
      </trkpt>
      <trkpt lat="45.94834" lon="6.24883">
        <ele>1726.00467596</ele>
        <time>2018-06-14T16:50:22Z</time>
      </trkpt>
      <trkpt lat="45.94827" lon="6.24875">
        <ele>1726.0049926</ele>
        <time>2018-06-14T16:50:32Z</time>
      </trkpt>
      <trkpt lat="45.94818" lon="6.24876">
        <ele>1724.00497876</ele>
        <time>2018-06-14T16:50:39Z</time>
      </trkpt>
      <trkpt lat="45.94811" lon="6.24882">
        <ele>1723.00473476</ele>
        <time>2018-06-14T16:50:44Z</time>
      </trkpt>
      <trkpt lat="45.94807" lon="6.2487">
        <ele>1725.00519384</ele>
        <time>2018-06-14T16:50:53Z</time>
      </trkpt>
      <trkpt lat="45.94806" lon="6.24857">
        <ele>1727.00570432</ele>
        <time>2018-06-14T16:51:04Z</time>
      </trkpt>
      <trkpt lat="45.94802" lon="6.24847">
        <ele>1729.00613568</ele>
        <time>2018-06-14T16:51:13Z</time>
      </trkpt>
      <trkpt lat="45.94795" lon="6.24838">
        <ele>1735.00646248</ele>
        <time>2018-06-14T16:51:30Z</time>
      </trkpt>
      <trkpt lat="45.94787" lon="6.24839">
        <ele>1735.00645684</ele>
        <time>2018-06-14T16:51:41Z</time>
      </trkpt>
      <trkpt lat="45.94785" lon="6.24827">
        <ele>1740.00691016</ele>
        <time>2018-06-14T16:51:57Z</time>
      </trkpt>
      <trkpt lat="45.94788" lon="6.24816">
        <ele>1743.00735956</ele>
        <time>2018-06-14T16:52:07Z</time>
      </trkpt>
      <trkpt lat="45.94783" lon="6.24806">
        <ele>1746.00776608</ele>
        <time>2018-06-14T16:52:19Z</time>
      </trkpt>
      <trkpt lat="45.94777" lon="6.24798">
        <ele>1747.00808724</ele>
        <time>2018-06-14T16:52:27Z</time>
      </trkpt>
      <trkpt lat="45.94769" lon="6.24793">
        <ele>1749.00828292</ele>
        <time>2018-06-14T16:52:38Z</time>
      </trkpt>
      <trkpt lat="45.94761" lon="6.24789">
        <ele>1750.00844024</ele>
        <time>2018-06-14T16:52:48Z</time>
      </trkpt>
      <trkpt lat="45.94759" lon="6.24778">
        <ele>1754.00890028</ele>
        <time>2018-06-14T16:52:57Z</time>
      </trkpt>
      <trkpt lat="45.94759" lon="6.24765">
        <ele>1756.00940744</ele>
        <time>2018-06-14T16:53:03Z</time>
      </trkpt>
      <trkpt lat="45.94757" lon="6.24753">
        <ele>1757.0098886</ele>
        <time>2018-06-14T16:53:10Z</time>
      </trkpt>
      <trkpt lat="45.94754" lon="6.2474">
        <ele>1760.01038276</ele>
        <time>2018-06-14T16:53:18Z</time>
      </trkpt>
      <trkpt lat="45.94753" lon="6.24728">
        <ele>1763.01088044</ele>
        <time>2018-06-14T16:53:25Z</time>
      </trkpt>
      <trkpt lat="45.9475" lon="6.24717">
        <ele>1766.01133112</ele>
        <time>2018-06-14T16:53:32Z</time>
      </trkpt>
      <trkpt lat="45.94748" lon="6.24706">
        <ele>1767.01174684</ele>
        <time>2018-06-14T16:53:38Z</time>
      </trkpt>
      <trkpt lat="45.94744" lon="6.24696">
        <ele>1766.01214668</ele>
        <time>2018-06-14T16:53:43Z</time>
      </trkpt>
      <trkpt lat="45.94735" lon="6.24695">
        <ele>1766.01220372</ele>
        <time>2018-06-14T16:53:52Z</time>
      </trkpt>
      <trkpt lat="45.94727" lon="6.24696">
        <ele>1766.01216016</ele>
        <time>2018-06-14T16:54:01Z</time>
      </trkpt>
      <trkpt lat="45.94718" lon="6.24697">
        <ele>1765.01210864</ele>
        <time>2018-06-14T16:54:13Z</time>
      </trkpt>
      <trkpt lat="45.9471" lon="6.24699">
        <ele>1764.01205056</ele>
        <time>2018-06-14T16:54:20Z</time>
      </trkpt>
      <trkpt lat="45.94704" lon="6.24707">
        <ele>1763.01174048</ele>
        <time>2018-06-14T16:54:25Z</time>
      </trkpt>
      <trkpt lat="45.94698" lon="6.24716">
        <ele>1763.01137508</ele>
        <time>2018-06-14T16:54:31Z</time>
      </trkpt>
      <trkpt lat="45.94691" lon="6.2472">
        <ele>1762.01121572</ele>
        <time>2018-06-14T16:54:37Z</time>
      </trkpt>
      <trkpt lat="45.94683" lon="6.24715">
        <ele>1763.01138848</ele>
        <time>2018-06-14T16:54:43Z</time>
      </trkpt>
      <trkpt lat="45.94682" lon="6.24703">
        <ele>1764.01186316</ele>
        <time>2018-06-14T16:54:49Z</time>
      </trkpt>
      <trkpt lat="45.94681" lon="6.24692">
        <ele>1769.01232768</ele>
        <time>2018-06-14T16:54:58Z</time>
      </trkpt>
      <trkpt lat="45.94681" lon="6.24681">
        <ele>1770.0127512</ele>
        <time>2018-06-14T16:55:04Z</time>
      </trkpt>
      <trkpt lat="45.9468" lon="6.24671">
        <ele>1770.01317</ele>
        <time>2018-06-14T16:55:09Z</time>
      </trkpt>
      <trkpt lat="45.94676" lon="6.24661">
        <ele>1771.01357036</ele>
        <time>2018-06-14T16:55:14Z</time>
      </trkpt>
      <trkpt lat="45.94674" lon="6.2465">
        <ele>1771.01402012</ele>
        <time>2018-06-14T16:55:20Z</time>
      </trkpt>
      <trkpt lat="45.94672" lon="6.24638">
        <ele>1772.0144926</ele>
        <time>2018-06-14T16:55:27Z</time>
      </trkpt>
      <trkpt lat="45.94664" lon="6.24636">
        <ele>1770.01457152</ele>
        <time>2018-06-14T16:55:35Z</time>
      </trkpt>
      <trkpt lat="45.94661" lon="6.24625">
        <ele>1770.01500964</ele>
        <time>2018-06-14T16:55:42Z</time>
      </trkpt>
      <trkpt lat="45.94654" lon="6.24619">
        <ele>1769.0152324</ele>
        <time>2018-06-14T16:55:49Z</time>
      </trkpt>
      <trkpt lat="45.94646" lon="6.2462">
        <ele>1769.015221</ele>
        <time>2018-06-14T16:55:55Z</time>
      </trkpt>
      <trkpt lat="45.94639" lon="6.24614">
        <ele>1770.01545816</ele>
        <time>2018-06-14T16:56:02Z</time>
      </trkpt>
      <trkpt lat="45.94631" lon="6.24608">
        <ele>1772.0156762</ele>
        <time>2018-06-14T16:56:09Z</time>
      </trkpt>
      <trkpt lat="45.94623" lon="6.24608">
        <ele>1772.01567356</ele>
        <time>2018-06-14T16:56:15Z</time>
      </trkpt>
      <trkpt lat="45.94617" lon="6.24601">
        <ele>1777.01597292</ele>
        <time>2018-06-14T16:56:23Z</time>
      </trkpt>
      <trkpt lat="45.94612" lon="6.24591">
        <ele>1777.01637484</ele>
        <time>2018-06-14T16:56:32Z</time>
      </trkpt>
      <trkpt lat="45.94606" lon="6.24582">
        <ele>1777.01671044</ele>
        <time>2018-06-14T16:56:40Z</time>
      </trkpt>
      <trkpt lat="45.94598" lon="6.24578">
        <ele>1778.01689924</ele>
        <time>2018-06-14T16:56:48Z</time>
      </trkpt>
      <trkpt lat="45.94591" lon="6.24573">
        <ele>1779.017099</ele>
        <time>2018-06-14T16:56:56Z</time>
      </trkpt>
      <trkpt lat="45.94582" lon="6.2457">
        <ele>1780.017182</ele>
        <time>2018-06-14T16:57:04Z</time>
      </trkpt>
      <trkpt lat="45.94576" lon="6.24563">
        <ele>1781.01750116</ele>
        <time>2018-06-14T16:57:09Z</time>
      </trkpt>
      <trkpt lat="45.94569" lon="6.24555">
        <ele>1782.01782088</ele>
        <time>2018-06-14T16:57:16Z</time>
      </trkpt>
      <trkpt lat="45.94561" lon="6.24551">
        <ele>1783.0179724</ele>
        <time>2018-06-14T16:57:22Z</time>
      </trkpt>
      <trkpt lat="45.94553" lon="6.2455">
        <ele>1783.01801932</ele>
        <time>2018-06-14T16:57:29Z</time>
      </trkpt>
      <trkpt lat="45.94548" lon="6.24539">
        <ele>1785.01843376</ele>
        <time>2018-06-14T16:57:37Z</time>
      </trkpt>
      <trkpt lat="45.94543" lon="6.24529">
        <ele>1784.01884328</ele>
        <time>2018-06-14T16:57:45Z</time>
      </trkpt>
      <trkpt lat="45.94537" lon="6.2452">
        <ele>1786.01918252</ele>
        <time>2018-06-14T16:57:55Z</time>
      </trkpt>
      <trkpt lat="45.94529" lon="6.24515">
        <ele>1785.01941252</ele>
        <time>2018-06-14T16:58:02Z</time>
      </trkpt>
      <trkpt lat="45.94526" lon="6.24503">
        <ele>1788.01987204</ele>
        <time>2018-06-14T16:58:10Z</time>
      </trkpt>
      <trkpt lat="45.94526" lon="6.24491">
        <ele>1792.02037436</ele>
        <time>2018-06-14T16:58:18Z</time>
      </trkpt>
      <trkpt lat="45.94526" lon="6.24478">
        <ele>1795.0208804</ele>
        <time>2018-06-14T16:58:26Z</time>
      </trkpt>
      <trkpt lat="45.94522" lon="6.24468">
        <ele>1796.02129156</ele>
        <time>2018-06-14T16:58:33Z</time>
      </trkpt>
      <trkpt lat="45.94519" lon="6.24457">
        <ele>1798.02173416</ele>
        <time>2018-06-14T16:58:40Z</time>
      </trkpt>
      <trkpt lat="45.94517" lon="6.24445">
        <ele>1798.02218944</ele>
        <time>2018-06-14T16:58:46Z</time>
      </trkpt>
      <trkpt lat="45.94516" lon="6.24434">
        <ele>1800.0226358</ele>
        <time>2018-06-14T16:58:52Z</time>
      </trkpt>
      <trkpt lat="45.94517" lon="6.24423">
        <ele>1801.023095</ele>
        <time>2018-06-14T16:58:58Z</time>
      </trkpt>
      <trkpt lat="45.94515" lon="6.24411">
        <ele>1801.0235794</ele>
        <time>2018-06-14T16:59:03Z</time>
      </trkpt>
      <trkpt lat="45.94513" lon="6.24399">
        <ele>1797.02404132</ele>
        <time>2018-06-14T16:59:09Z</time>
      </trkpt>
      <trkpt lat="45.9451" lon="6.24387">
        <ele>1794.02452776</ele>
        <time>2018-06-14T16:59:17Z</time>
      </trkpt>
      <trkpt lat="45.94513" lon="6.24375">
        <ele>1793.02501648</ele>
        <time>2018-06-14T16:59:22Z</time>
      </trkpt>
      <trkpt lat="45.94515" lon="6.24362">
        <ele>1794.0255044</ele>
        <time>2018-06-14T16:59:28Z</time>
      </trkpt>
      <trkpt lat="45.9451" lon="6.24353">
        <ele>1791.02587152</ele>
        <time>2018-06-14T16:59:35Z</time>
      </trkpt>
      <trkpt lat="45.94505" lon="6.24343">
        <ele>1791.02626804</ele>
        <time>2018-06-14T16:59:41Z</time>
      </trkpt>
      <trkpt lat="45.94501" lon="6.24332">
        <ele>1791.02672292</ele>
        <time>2018-06-14T16:59:47Z</time>
      </trkpt>
      <trkpt lat="45.94497" lon="6.2432">
        <ele>1792.02722088</ele>
        <time>2018-06-14T16:59:52Z</time>
      </trkpt>
      <trkpt lat="45.94494" lon="6.2431">
        <ele>1793.02762052</ele>
        <time>2018-06-14T16:59:56Z</time>
      </trkpt>
      <trkpt lat="45.94489" lon="6.243">
        <ele>1794.02800608</ele>
        <time>2018-06-14T17:00:01Z</time>
      </trkpt>
      <trkpt lat="45.94484" lon="6.24291">
        <ele>1790.0283808</ele>
        <time>2018-06-14T17:00:06Z</time>
      </trkpt>
      <trkpt lat="45.94482" lon="6.24279">
        <ele>1790.02882236</ele>
        <time>2018-06-14T17:00:10Z</time>
      </trkpt>
      <trkpt lat="45.94479" lon="6.24269">
        <ele>1792.0292278</ele>
        <time>2018-06-14T17:00:14Z</time>
      </trkpt>
      <trkpt lat="45.94477" lon="6.24257">
        <ele>1793.0297218</ele>
        <time>2018-06-14T17:00:19Z</time>
      </trkpt>
      <trkpt lat="45.94478" lon="6.24248">
        <ele>1792.03009804</ele>
        <time>2018-06-14T17:00:23Z</time>
      </trkpt>
      <trkpt lat="45.94485" lon="6.24236">
        <ele>1791.03054792</ele>
        <time>2018-06-14T17:00:27Z</time>
      </trkpt>
      <trkpt lat="45.94492" lon="6.24231">
        <ele>1791.0307754</ele>
        <time>2018-06-14T17:00:33Z</time>
      </trkpt>
      <trkpt lat="45.94499" lon="6.24225">
        <ele>1792.0310154</ele>
        <time>2018-06-14T17:00:39Z</time>
      </trkpt>
      <trkpt lat="45.94506" lon="6.2422">
        <ele>1795.0312048</ele>
        <time>2018-06-14T17:00:45Z</time>
      </trkpt>
      <trkpt lat="45.94514" lon="6.24217">
        <ele>1796.03134044</ele>
        <time>2018-06-14T17:00:51Z</time>
      </trkpt>
      <trkpt lat="45.94521" lon="6.24214">
        <ele>1797.0314472</ele>
        <time>2018-06-14T17:00:56Z</time>
      </trkpt>
      <trkpt lat="45.94528" lon="6.24206">
        <ele>1797.03176824</ele>
        <time>2018-06-14T17:01:02Z</time>
      </trkpt>
      <trkpt lat="45.94533" lon="6.24198">
        <ele>1798.03206392</ele>
        <time>2018-06-14T17:01:07Z</time>
      </trkpt>
      <trkpt lat="45.94539" lon="6.24188">
        <ele>1797.0324662</ele>
        <time>2018-06-14T17:01:12Z</time>
      </trkpt>
      <trkpt lat="45.94542" lon="6.24177">
        <ele>1795.03292964</ele>
        <time>2018-06-14T17:01:21Z</time>
      </trkpt>
      <trkpt lat="45.94543" lon="6.24165">
        <ele>1794.03340124</ele>
        <time>2018-06-14T17:01:27Z</time>
      </trkpt>
      <trkpt lat="45.94551" lon="6.24154">
        <ele>1792.03382416</ele>
        <time>2018-06-14T17:01:32Z</time>
      </trkpt>
      <trkpt lat="45.94555" lon="6.24143">
        <ele>1795.03427336</ele>
        <time>2018-06-14T17:01:40Z</time>
      </trkpt>
      <trkpt lat="45.94558" lon="6.24132">
        <ele>1795.03470748</ele>
        <time>2018-06-14T17:01:45Z</time>
      </trkpt>
      <trkpt lat="45.94563" lon="6.24123">
        <ele>1796.03508836</ele>
        <time>2018-06-14T17:01:51Z</time>
      </trkpt>
      <trkpt lat="45.94571" lon="6.24115">
        <ele>1800.03538368</ele>
        <time>2018-06-14T17:01:59Z</time>
      </trkpt>
      <trkpt lat="45.94577" lon="6.24107">
        <ele>1804.03573604</ele>
        <time>2018-06-14T17:02:13Z</time>
      </trkpt>
      <trkpt lat="45.94577" lon="6.24094">
        <ele>1806.03623936</ele>
        <time>2018-06-14T17:02:30Z</time>
      </trkpt>
      <trkpt lat="45.94573" lon="6.24082">
        <ele>1809.0367052</ele>
        <time>2018-06-14T17:02:39Z</time>
      </trkpt>
      <trkpt lat="45.9457" lon="6.24071">
        <ele>1808.0371536</ele>
        <time>2018-06-14T17:02:44Z</time>
      </trkpt>
      <trkpt lat="45.94563" lon="6.24065">
        <ele>1810.0374164</ele>
        <time>2018-06-14T17:02:51Z</time>
      </trkpt>
      <trkpt lat="45.94555" lon="6.24063">
        <ele>1812.03747348</ele>
        <time>2018-06-14T17:02:58Z</time>
      </trkpt>
      <trkpt lat="45.94547" lon="6.24058">
        <ele>1812.03770156</ele>
        <time>2018-06-14T17:03:06Z</time>
      </trkpt>
      <trkpt lat="45.94552" lon="6.24048">
        <ele>1816.0380898</ele>
        <time>2018-06-14T17:03:16Z</time>
      </trkpt>
      <trkpt lat="45.9456" lon="6.2404">
        <ele>1819.03840556</ele>
        <time>2018-06-14T17:03:24Z</time>
      </trkpt>
      <trkpt lat="45.94566" lon="6.24033">
        <ele>1821.0386888</ele>
        <time>2018-06-14T17:03:30Z</time>
      </trkpt>
      <trkpt lat="45.94574" lon="6.24028">
        <ele>1823.0388732</ele>
        <time>2018-06-14T17:03:37Z</time>
      </trkpt>
      <trkpt lat="45.94582" lon="6.24022">
        <ele>1825.03911896</ele>
        <time>2018-06-14T17:03:44Z</time>
      </trkpt>
      <trkpt lat="45.9459" lon="6.24023">
        <ele>1826.03907324</ele>
        <time>2018-06-14T17:03:49Z</time>
      </trkpt>
      <trkpt lat="45.94597" lon="6.24021">
        <ele>1827.03914588</ele>
        <time>2018-06-14T17:03:54Z</time>
      </trkpt>
      <trkpt lat="45.94606" lon="6.2402">
        <ele>1827.03921288</ele>
        <time>2018-06-14T17:03:59Z</time>
      </trkpt>
      <trkpt lat="45.94612" lon="6.24011">
        <ele>1829.0395596</ele>
        <time>2018-06-14T17:04:05Z</time>
      </trkpt>
      <trkpt lat="45.94615" lon="6.23999">
        <ele>1831.04005544</ele>
        <time>2018-06-14T17:04:14Z</time>
      </trkpt>
      <trkpt lat="45.94622" lon="6.23993">
        <ele>1831.04026472</ele>
        <time>2018-06-14T17:04:21Z</time>
      </trkpt>
      <trkpt lat="45.9463" lon="6.23989">
        <ele>1829.0404422</ele>
        <time>2018-06-14T17:05:05Z</time>
      </trkpt>
      <trkpt lat="45.94638" lon="6.23988">
        <ele>1829.04048916</ele>
        <time>2018-06-14T17:05:24Z</time>
      </trkpt>
      <trkpt lat="45.94646" lon="6.23988">
        <ele>1828.04047612</ele>
        <time>2018-06-14T17:06:32Z</time>
      </trkpt>
      <trkpt lat="45.94651" lon="6.23998">
        <ele>1829.0400914</ele>
        <time>2018-06-14T17:06:46Z</time>
      </trkpt>
      <trkpt lat="45.94651" lon="6.2401">
        <ele>1828.0396054</ele>
        <time>2018-06-14T17:07:01Z</time>
      </trkpt>
      <trkpt lat="45.94647" lon="6.24021">
        <ele>1829.03917388</ele>
        <time>2018-06-14T17:07:13Z</time>
      </trkpt>
      <trkpt lat="45.94654" lon="6.24027">
        <ele>1826.03894152</ele>
        <time>2018-06-14T17:07:22Z</time>
      </trkpt>
      <trkpt lat="45.94663" lon="6.24026">
        <ele>1825.03895464</ele>
        <time>2018-06-14T17:07:28Z</time>
      </trkpt>
      <trkpt lat="45.94671" lon="6.24021">
        <ele>1823.03914896</ele>
        <time>2018-06-14T17:07:34Z</time>
      </trkpt>
      <trkpt lat="45.94679" lon="6.24019">
        <ele>1820.0392494</ele>
        <time>2018-06-14T17:07:40Z</time>
      </trkpt>
      <trkpt lat="45.94687" lon="6.24019">
        <ele>1818.03926028</ele>
        <time>2018-06-14T17:07:45Z</time>
      </trkpt>
      <trkpt lat="45.94695" lon="6.24015">
        <ele>1815.03939336</ele>
        <time>2018-06-14T17:07:50Z</time>
      </trkpt>
      <trkpt lat="45.94703" lon="6.2401">
        <ele>1814.03959828</ele>
        <time>2018-06-14T17:07:55Z</time>
      </trkpt>
      <trkpt lat="45.94712" lon="6.2401">
        <ele>1812.03961568</ele>
        <time>2018-06-14T17:08:01Z</time>
      </trkpt>
      <trkpt lat="45.9472" lon="6.24007">
        <ele>1809.0397186</ele>
        <time>2018-06-14T17:08:06Z</time>
      </trkpt>
      <trkpt lat="45.94729" lon="6.24004">
        <ele>1807.03984272</ele>
        <time>2018-06-14T17:08:11Z</time>
      </trkpt>
      <trkpt lat="45.94737" lon="6.24">
        <ele>1804.0400142</ele>
        <time>2018-06-14T17:08:16Z</time>
      </trkpt>
      <trkpt lat="45.94744" lon="6.23996">
        <ele>1802.0401694</ele>
        <time>2018-06-14T17:08:20Z</time>
      </trkpt>
      <trkpt lat="45.94753" lon="6.23995">
        <ele>1800.04019228</ele>
        <time>2018-06-14T17:08:25Z</time>
      </trkpt>
      <trkpt lat="45.9476" lon="6.23992">
        <ele>1798.04033556</ele>
        <time>2018-06-14T17:08:30Z</time>
      </trkpt>
      <trkpt lat="45.94769" lon="6.23993">
        <ele>1795.04030172</ele>
        <time>2018-06-14T17:08:35Z</time>
      </trkpt>
      <trkpt lat="45.94777" lon="6.23995">
        <ele>1793.04020972</ele>
        <time>2018-06-14T17:08:41Z</time>
      </trkpt>
      <trkpt lat="45.94785" lon="6.23997">
        <ele>1792.04013532</ele>
        <time>2018-06-14T17:08:46Z</time>
      </trkpt>
      <trkpt lat="45.94791" lon="6.24">
        <ele>1792.04000516</ele>
        <time>2018-06-14T17:08:51Z</time>
      </trkpt>
      <trkpt lat="45.94798" lon="6.24003">
        <ele>1791.0398708</ele>
        <time>2018-06-14T17:08:56Z</time>
      </trkpt>
      <trkpt lat="45.94808" lon="6.24006">
        <ele>1789.03978128</ele>
        <time>2018-06-14T17:09:00Z</time>
      </trkpt>
      <trkpt lat="45.94816" lon="6.24005">
        <ele>1788.03979708</ele>
        <time>2018-06-14T17:09:05Z</time>
      </trkpt>
      <trkpt lat="45.94825" lon="6.24004">
        <ele>1785.0398532</ele>
        <time>2018-06-14T17:09:10Z</time>
      </trkpt>
      <trkpt lat="45.94836" lon="6.24002">
        <ele>1782.03990932</ele>
        <time>2018-06-14T17:09:15Z</time>
      </trkpt>
      <trkpt lat="45.94845" lon="6.24001">
        <ele>1779.0399448</ele>
        <time>2018-06-14T17:09:20Z</time>
      </trkpt>
      <trkpt lat="45.9485" lon="6.24012">
        <ele>1779.0395378</ele>
        <time>2018-06-14T17:09:24Z</time>
      </trkpt>
      <trkpt lat="45.94854" lon="6.2402">
        <ele>1780.03919524</ele>
        <time>2018-06-14T17:09:28Z</time>
      </trkpt>
      <trkpt lat="45.9486" lon="6.24028">
        <ele>1780.0388742</ele>
        <time>2018-06-14T17:09:33Z</time>
      </trkpt>
      <trkpt lat="45.94867" lon="6.24034">
        <ele>1779.03862812</ele>
        <time>2018-06-14T17:09:39Z</time>
      </trkpt>
      <trkpt lat="45.94873" lon="6.24041">
        <ele>1781.03835768</ele>
        <time>2018-06-14T17:09:44Z</time>
      </trkpt>
      <trkpt lat="45.9488" lon="6.24046">
        <ele>1778.03817056</ele>
        <time>2018-06-14T17:09:48Z</time>
      </trkpt>
      <trkpt lat="45.94889" lon="6.24048">
        <ele>1775.0380822</ele>
        <time>2018-06-14T17:09:53Z</time>
      </trkpt>
      <trkpt lat="45.94898" lon="6.24051">
        <ele>1772.0379818</ele>
        <time>2018-06-14T17:09:57Z</time>
      </trkpt>
      <trkpt lat="45.94908" lon="6.24054">
        <ele>1772.03782356</ele>
        <time>2018-06-14T17:10:02Z</time>
      </trkpt>
      <trkpt lat="45.94918" lon="6.24057">
        <ele>1770.03773444</ele>
        <time>2018-06-14T17:10:07Z</time>
      </trkpt>
      <trkpt lat="45.94927" lon="6.24057">
        <ele>1767.03772212</ele>
        <time>2018-06-14T17:10:11Z</time>
      </trkpt>
      <trkpt lat="45.94936" lon="6.24056">
        <ele>1765.0377452</ele>
        <time>2018-06-14T17:10:15Z</time>
      </trkpt>
      <trkpt lat="45.94943" lon="6.24056">
        <ele>1765.03778108</ele>
        <time>2018-06-14T17:10:20Z</time>
      </trkpt>
      <trkpt lat="45.94951" lon="6.24053">
        <ele>1761.03786748</ele>
        <time>2018-06-14T17:10:26Z</time>
      </trkpt>
      <trkpt lat="45.94959" lon="6.24052">
        <ele>1760.03790728</ele>
        <time>2018-06-14T17:10:30Z</time>
      </trkpt>
      <trkpt lat="45.94967" lon="6.2405">
        <ele>1758.03800668</ele>
        <time>2018-06-14T17:10:35Z</time>
      </trkpt>
      <trkpt lat="45.94975" lon="6.24046">
        <ele>1756.0381492</ele>
        <time>2018-06-14T17:10:40Z</time>
      </trkpt>
      <trkpt lat="45.94981" lon="6.2404">
        <ele>1752.03841356</ele>
        <time>2018-06-14T17:10:47Z</time>
      </trkpt>
      <trkpt lat="45.9499" lon="6.24037">
        <ele>1751.03851636</ele>
        <time>2018-06-14T17:10:52Z</time>
      </trkpt>
      <trkpt lat="45.94998" lon="6.24035">
        <ele>1750.03861048</ele>
        <time>2018-06-14T17:10:58Z</time>
      </trkpt>
      <trkpt lat="45.95006" lon="6.24036">
        <ele>1748.03856648</ele>
        <time>2018-06-14T17:11:03Z</time>
      </trkpt>
      <trkpt lat="45.95023" lon="6.24024">
        <ele>1742.03904596</ele>
        <time>2018-06-14T17:11:08Z</time>
      </trkpt>
      <trkpt lat="45.95029" lon="6.24033">
        <ele>1739.03868796</ele>
        <time>2018-06-14T17:11:14Z</time>
      </trkpt>
      <trkpt lat="45.95037" lon="6.24038">
        <ele>1739.03850044</ele>
        <time>2018-06-14T17:11:19Z</time>
      </trkpt>
      <trkpt lat="45.95041" lon="6.24048">
        <ele>1739.03809308</ele>
        <time>2018-06-14T17:11:24Z</time>
      </trkpt>
      <trkpt lat="45.95048" lon="6.24055">
        <ele>1736.03782048</ele>
        <time>2018-06-14T17:11:29Z</time>
      </trkpt>
      <trkpt lat="45.95055" lon="6.24049">
        <ele>1734.038037</ele>
        <time>2018-06-14T17:11:34Z</time>
      </trkpt>
      <trkpt lat="45.95065" lon="6.24047">
        <ele>1733.03811016</ele>
        <time>2018-06-14T17:11:38Z</time>
      </trkpt>
      <trkpt lat="45.95073" lon="6.24053">
        <ele>1737.03788536</ele>
        <time>2018-06-14T17:11:54Z</time>
      </trkpt>
      <trkpt lat="45.95081" lon="6.24055">
        <ele>1735.03780872</ele>
        <time>2018-06-14T17:12:12Z</time>
      </trkpt>
      <trkpt lat="45.9508" lon="6.24067">
        <ele>1738.03733932</ele>
        <time>2018-06-14T17:12:19Z</time>
      </trkpt>
      <trkpt lat="45.95084" lon="6.24076">
        <ele>1737.03694644</ele>
        <time>2018-06-14T17:12:24Z</time>
      </trkpt>
      <trkpt lat="45.95088" lon="6.24087">
        <ele>1734.03650956</ele>
        <time>2018-06-14T17:12:31Z</time>
      </trkpt>
      <trkpt lat="45.95097" lon="6.24091">
        <ele>1731.03635148</ele>
        <time>2018-06-14T17:12:41Z</time>
      </trkpt>
      <trkpt lat="45.95104" lon="6.24097">
        <ele>1729.036141</ele>
        <time>2018-06-14T17:12:47Z</time>
      </trkpt>
      <trkpt lat="45.95113" lon="6.24099">
        <ele>1726.03605832</ele>
        <time>2018-06-14T17:12:52Z</time>
      </trkpt>
      <trkpt lat="45.95119" lon="6.24106">
        <ele>1724.03575732</ele>
        <time>2018-06-14T17:12:58Z</time>
      </trkpt>
      <trkpt lat="45.95125" lon="6.24111">
        <ele>1723.03556568</ele>
        <time>2018-06-14T17:13:04Z</time>
      </trkpt>
      <trkpt lat="45.95134" lon="6.24114">
        <ele>1720.0354266</ele>
        <time>2018-06-14T17:13:09Z</time>
      </trkpt>
      <trkpt lat="45.95145" lon="6.24118">
        <ele>1718.0352908</ele>
        <time>2018-06-14T17:13:14Z</time>
      </trkpt>
      <trkpt lat="45.95155" lon="6.24119">
        <ele>1713.03524308</ele>
        <time>2018-06-14T17:13:19Z</time>
      </trkpt>
      <trkpt lat="45.95163" lon="6.24119">
        <ele>1711.03524832</ele>
        <time>2018-06-14T17:13:24Z</time>
      </trkpt>
      <trkpt lat="45.95173" lon="6.2412">
        <ele>1709.03521316</ele>
        <time>2018-06-14T17:13:28Z</time>
      </trkpt>
      <trkpt lat="45.95182" lon="6.24117">
        <ele>1704.03533588</ele>
        <time>2018-06-14T17:13:33Z</time>
      </trkpt>
      <trkpt lat="45.9519" lon="6.24114">
        <ele>1698.03544764</ele>
        <time>2018-06-14T17:13:38Z</time>
      </trkpt>
      <trkpt lat="45.95199" lon="6.24113">
        <ele>1696.03548884</ele>
        <time>2018-06-14T17:13:44Z</time>
      </trkpt>
      <trkpt lat="45.95202" lon="6.24124">
        <ele>1695.03503712</ele>
        <time>2018-06-14T17:13:51Z</time>
      </trkpt>
      <trkpt lat="45.95196" lon="6.24132">
        <ele>1694.034711</ele>
        <time>2018-06-14T17:13:56Z</time>
      </trkpt>
      <trkpt lat="45.95191" lon="6.24139">
        <ele>1693.03445332</ele>
        <time>2018-06-14T17:14:00Z</time>
      </trkpt>
      <trkpt lat="45.95182" lon="6.24145">
        <ele>1691.034213</ele>
        <time>2018-06-14T17:14:04Z</time>
      </trkpt>
      <trkpt lat="45.95174" lon="6.24151">
        <ele>1691.03395864</ele>
        <time>2018-06-14T17:14:08Z</time>
      </trkpt>
      <trkpt lat="45.95167" lon="6.24156">
        <ele>1689.03376672</ele>
        <time>2018-06-14T17:14:12Z</time>
      </trkpt>
      <trkpt lat="45.95162" lon="6.24166">
        <ele>1691.03335904</ele>
        <time>2018-06-14T17:14:18Z</time>
      </trkpt>
      <trkpt lat="45.95164" lon="6.24178">
        <ele>1689.03288184</ele>
        <time>2018-06-14T17:14:25Z</time>
      </trkpt>
      <trkpt lat="45.95172" lon="6.24178">
        <ele>1686.03288356</ele>
        <time>2018-06-14T17:14:30Z</time>
      </trkpt>
      <trkpt lat="45.95179" lon="6.24171">
        <ele>1683.03315308</ele>
        <time>2018-06-14T17:14:34Z</time>
      </trkpt>
      <trkpt lat="45.95187" lon="6.2417">
        <ele>1682.03319816</ele>
        <time>2018-06-14T17:14:38Z</time>
      </trkpt>
      <trkpt lat="45.95196" lon="6.24171">
        <ele>1680.033172</ele>
        <time>2018-06-14T17:14:42Z</time>
      </trkpt>
      <trkpt lat="45.95203" lon="6.24173">
        <ele>1679.03306384</ele>
        <time>2018-06-14T17:14:46Z</time>
      </trkpt>
      <trkpt lat="45.95212" lon="6.2418">
        <ele>1680.03281212</ele>
        <time>2018-06-14T17:14:51Z</time>
      </trkpt>
      <trkpt lat="45.95219" lon="6.24193">
        <ele>1680.03228796</ele>
        <time>2018-06-14T17:14:55Z</time>
      </trkpt>
      <trkpt lat="45.95226" lon="6.242">
        <ele>1677.03201904</ele>
        <time>2018-06-14T17:14:59Z</time>
      </trkpt>
      <trkpt lat="45.95232" lon="6.24203">
        <ele>1677.0318702</ele>
        <time>2018-06-14T17:15:04Z</time>
      </trkpt>
      <trkpt lat="45.95241" lon="6.24211">
        <ele>1675.03156152</ele>
        <time>2018-06-14T17:15:09Z</time>
      </trkpt>
      <trkpt lat="45.95244" lon="6.24224">
        <ele>1672.03102372</ele>
        <time>2018-06-14T17:15:13Z</time>
      </trkpt>
      <trkpt lat="45.95241" lon="6.24236">
        <ele>1672.0305724</ele>
        <time>2018-06-14T17:15:17Z</time>
      </trkpt>
      <trkpt lat="45.95239" lon="6.24249">
        <ele>1674.03003688</ele>
        <time>2018-06-14T17:15:22Z</time>
      </trkpt>
      <trkpt lat="45.95237" lon="6.2426">
        <ele>1674.0295886</ele>
        <time>2018-06-14T17:15:27Z</time>
      </trkpt>
      <trkpt lat="45.95233" lon="6.2427">
        <ele>1676.0291884</ele>
        <time>2018-06-14T17:15:32Z</time>
      </trkpt>
      <trkpt lat="45.95231" lon="6.24282">
        <ele>1679.02873096</ele>
        <time>2018-06-14T17:15:39Z</time>
      </trkpt>
      <trkpt lat="45.95229" lon="6.24296">
        <ele>1678.02815112</ele>
        <time>2018-06-14T17:15:43Z</time>
      </trkpt>
      <trkpt lat="45.95225" lon="6.24308">
        <ele>1681.02768264</ele>
        <time>2018-06-14T17:15:48Z</time>
      </trkpt>
      <trkpt lat="45.9522" lon="6.24317">
        <ele>1682.02732212</ele>
        <time>2018-06-14T17:15:53Z</time>
      </trkpt>
      <trkpt lat="45.95217" lon="6.24327">
        <ele>1683.02693292</ele>
        <time>2018-06-14T17:16:00Z</time>
      </trkpt>
      <trkpt lat="45.95212" lon="6.24339">
        <ele>1683.02643884</ele>
        <time>2018-06-14T17:16:04Z</time>
      </trkpt>
      <trkpt lat="45.95206" lon="6.24348">
        <ele>1681.02606696</ele>
        <time>2018-06-14T17:16:09Z</time>
      </trkpt>
      <trkpt lat="45.95204" lon="6.24359">
        <ele>1678.02563944</ele>
        <time>2018-06-14T17:16:16Z</time>
      </trkpt>
      <trkpt lat="45.95203" lon="6.2437">
        <ele>1678.02519672</ele>
        <time>2018-06-14T17:16:21Z</time>
      </trkpt>
      <trkpt lat="45.952" lon="6.24384">
        <ele>1679.02465732</ele>
        <time>2018-06-14T17:16:26Z</time>
      </trkpt>
      <trkpt lat="45.95201" lon="6.24395">
        <ele>1677.02421148</ele>
        <time>2018-06-14T17:16:31Z</time>
      </trkpt>
      <trkpt lat="45.95205" lon="6.24405">
        <ele>1677.02381344</ele>
        <time>2018-06-14T17:16:36Z</time>
      </trkpt>
      <trkpt lat="45.95212" lon="6.24411">
        <ele>1677.02355348</ele>
        <time>2018-06-14T17:16:41Z</time>
      </trkpt>
      <trkpt lat="45.95219" lon="6.24416">
        <ele>1676.02334768</ele>
        <time>2018-06-14T17:16:46Z</time>
      </trkpt>
      <trkpt lat="45.95225" lon="6.24425">
        <ele>1671.02299588</ele>
        <time>2018-06-14T17:16:52Z</time>
      </trkpt>
      <trkpt lat="45.95232" lon="6.24432">
        <ele>1668.02270308</ele>
        <time>2018-06-14T17:16:59Z</time>
      </trkpt>
      <trkpt lat="45.9524" lon="6.24436">
        <ele>1665.02258168</ele>
        <time>2018-06-14T17:17:04Z</time>
      </trkpt>
      <trkpt lat="45.95246" lon="6.24443">
        <ele>1663.022267</ele>
        <time>2018-06-14T17:17:10Z</time>
      </trkpt>
      <trkpt lat="45.95249" lon="6.24455">
        <ele>1662.02180988</ele>
        <time>2018-06-14T17:17:15Z</time>
      </trkpt>
      <trkpt lat="45.95258" lon="6.24459">
        <ele>1661.0216346</ele>
        <time>2018-06-14T17:17:20Z</time>
      </trkpt>
      <trkpt lat="45.95268" lon="6.24467">
        <ele>1660.02134128</ele>
        <time>2018-06-14T17:17:25Z</time>
      </trkpt>
      <trkpt lat="45.95274" lon="6.24473">
        <ele>1658.02109888</ele>
        <time>2018-06-14T17:17:29Z</time>
      </trkpt>
      <trkpt lat="45.95282" lon="6.24479">
        <ele>1659.02084764</ele>
        <time>2018-06-14T17:17:34Z</time>
      </trkpt>
      <trkpt lat="45.9529" lon="6.24493">
        <ele>1659.0202862</ele>
        <time>2018-06-14T17:17:39Z</time>
      </trkpt>
      <trkpt lat="45.95297" lon="6.24502">
        <ele>1658.01991252</ele>
        <time>2018-06-14T17:17:43Z</time>
      </trkpt>
      <trkpt lat="45.95308" lon="6.24509">
        <ele>1658.01963208</ele>
        <time>2018-06-14T17:17:48Z</time>
      </trkpt>
      <trkpt lat="45.95314" lon="6.24517">
        <ele>1656.01930244</ele>
        <time>2018-06-14T17:17:52Z</time>
      </trkpt>
      <trkpt lat="45.95324" lon="6.24529">
        <ele>1654.0188544</ele>
        <time>2018-06-14T17:17:57Z</time>
      </trkpt>
      <trkpt lat="45.95331" lon="6.24534">
        <ele>1653.01862904</ele>
        <time>2018-06-14T17:18:01Z</time>
      </trkpt>
      <trkpt lat="45.95339" lon="6.24537">
        <ele>1652.0185088</ele>
        <time>2018-06-14T17:18:06Z</time>
      </trkpt>
      <trkpt lat="45.95348" lon="6.2454">
        <ele>1649.01839272</ele>
        <time>2018-06-14T17:18:12Z</time>
      </trkpt>
      <trkpt lat="45.95355" lon="6.24533">
        <ele>1647.01869744</ele>
        <time>2018-06-14T17:18:20Z</time>
      </trkpt>
      <trkpt lat="45.95366" lon="6.24534">
        <ele>1646.01865552</ele>
        <time>2018-06-14T17:18:25Z</time>
      </trkpt>
      <trkpt lat="45.95375" lon="6.24537">
        <ele>1644.01852472</ele>
        <time>2018-06-14T17:18:30Z</time>
      </trkpt>
      <trkpt lat="45.95383" lon="6.24538">
        <ele>1642.01848964</ele>
        <time>2018-06-14T17:18:34Z</time>
      </trkpt>
      <trkpt lat="45.95393" lon="6.2453">
        <ele>1642.01878868</ele>
        <time>2018-06-14T17:18:39Z</time>
      </trkpt>
      <trkpt lat="45.95398" lon="6.24523">
        <ele>1641.01906688</ele>
        <time>2018-06-14T17:18:43Z</time>
      </trkpt>
      <trkpt lat="45.95407" lon="6.24523">
        <ele>1639.01908376</ele>
        <time>2018-06-14T17:18:48Z</time>
      </trkpt>
      <trkpt lat="45.95414" lon="6.24528">
        <ele>1638.01888396</ele>
        <time>2018-06-14T17:18:52Z</time>
      </trkpt>
      <trkpt lat="45.9542" lon="6.24533">
        <ele>1636.01868296</ele>
        <time>2018-06-14T17:18:56Z</time>
      </trkpt>
      <trkpt lat="45.95428" lon="6.2454">
        <ele>1635.01838248</ele>
        <time>2018-06-14T17:19:00Z</time>
      </trkpt>
      <trkpt lat="45.95438" lon="6.24544">
        <ele>1638.0182274</ele>
        <time>2018-06-14T17:19:05Z</time>
      </trkpt>
      <trkpt lat="45.95444" lon="6.24551">
        <ele>1639.01795744</ele>
        <time>2018-06-14T17:19:09Z</time>
      </trkpt>
      <trkpt lat="45.9545" lon="6.24557">
        <ele>1639.0177084</ele>
        <time>2018-06-14T17:19:13Z</time>
      </trkpt>
      <trkpt lat="45.95458" lon="6.24569">
        <ele>1639.01725976</ele>
        <time>2018-06-14T17:19:18Z</time>
      </trkpt>
      <trkpt lat="45.95462" lon="6.2458">
        <ele>1639.01679216</ele>
        <time>2018-06-14T17:19:22Z</time>
      </trkpt>
      <trkpt lat="45.95466" lon="6.24591">
        <ele>1639.01637428</ele>
        <time>2018-06-14T17:19:29Z</time>
      </trkpt>
      <trkpt lat="45.95471" lon="6.24599">
        <ele>1637.01603524</ele>
        <time>2018-06-14T17:19:34Z</time>
      </trkpt>
      <trkpt lat="45.95477" lon="6.24606">
        <ele>1635.01577116</ele>
        <time>2018-06-14T17:19:39Z</time>
      </trkpt>
      <trkpt lat="45.95485" lon="6.24611">
        <ele>1633.01558188</ele>
        <time>2018-06-14T17:19:43Z</time>
      </trkpt>
      <trkpt lat="45.95491" lon="6.24618">
        <ele>1633.01526396</ele>
        <time>2018-06-14T17:19:48Z</time>
      </trkpt>
      <trkpt lat="45.95494" lon="6.2463">
        <ele>1633.01478628</ele>
        <time>2018-06-14T17:19:52Z</time>
      </trkpt>
      <trkpt lat="45.955" lon="6.2464">
        <ele>1633.01441872</ele>
        <time>2018-06-14T17:19:57Z</time>
      </trkpt>
      <trkpt lat="45.95509" lon="6.24638">
        <ele>1631.01446444</ele>
        <time>2018-06-14T17:20:03Z</time>
      </trkpt>
      <trkpt lat="45.95518" lon="6.24637">
        <ele>1626.01452356</ele>
        <time>2018-06-14T17:20:09Z</time>
      </trkpt>
      <trkpt lat="45.95524" lon="6.24638">
        <ele>1623.01446232</ele>
        <time>2018-06-14T17:20:13Z</time>
      </trkpt>
      <trkpt lat="45.95538" lon="6.2464">
        <ele>1622.01439056</ele>
        <time>2018-06-14T17:20:18Z</time>
      </trkpt>
      <trkpt lat="45.95548" lon="6.24638">
        <ele>1621.01448056</ele>
        <time>2018-06-14T17:20:22Z</time>
      </trkpt>
      <trkpt lat="45.95555" lon="6.24631">
        <ele>1621.01475448</ele>
        <time>2018-06-14T17:20:26Z</time>
      </trkpt>
      <trkpt lat="45.95562" lon="6.24624">
        <ele>1620.01502224</ele>
        <time>2018-06-14T17:20:30Z</time>
      </trkpt>
      <trkpt lat="45.95569" lon="6.24617">
        <ele>1619.01532412</ele>
        <time>2018-06-14T17:20:35Z</time>
      </trkpt>
      <trkpt lat="45.95573" lon="6.24609">
        <ele>1618.01565664</ele>
        <time>2018-06-14T17:20:39Z</time>
      </trkpt>
      <trkpt lat="45.95579" lon="6.24598">
        <ele>1616.01608504</ele>
        <time>2018-06-14T17:20:44Z</time>
      </trkpt>
      <trkpt lat="45.95581" lon="6.24586">
        <ele>1614.01654284</ele>
        <time>2018-06-14T17:20:49Z</time>
      </trkpt>
      <trkpt lat="45.95587" lon="6.24576">
        <ele>1612.01694624</ele>
        <time>2018-06-14T17:20:53Z</time>
      </trkpt>
      <trkpt lat="45.95596" lon="6.24564">
        <ele>1608.01742736</ele>
        <time>2018-06-14T17:20:58Z</time>
      </trkpt>
      <trkpt lat="45.95602" lon="6.24555">
        <ele>1606.01781476</ele>
        <time>2018-06-14T17:21:02Z</time>
      </trkpt>
      <trkpt lat="45.95609" lon="6.24546">
        <ele>1603.0181714</ele>
        <time>2018-06-14T17:21:06Z</time>
      </trkpt>
      <trkpt lat="45.95617" lon="6.24534">
        <ele>1600.01864184</ele>
        <time>2018-06-14T17:21:11Z</time>
      </trkpt>
      <trkpt lat="45.95619" lon="6.24522">
        <ele>1600.01914092</ele>
        <time>2018-06-14T17:21:16Z</time>
      </trkpt>
      <trkpt lat="45.95623" lon="6.24511">
        <ele>1600.01958124</ele>
        <time>2018-06-14T17:21:22Z</time>
      </trkpt>
      <trkpt lat="45.95627" lon="6.24501">
        <ele>1598.01996428</ele>
        <time>2018-06-14T17:21:26Z</time>
      </trkpt>
      <trkpt lat="45.95634" lon="6.24492">
        <ele>1597.02032152</ele>
        <time>2018-06-14T17:21:30Z</time>
      </trkpt>
      <trkpt lat="45.9564" lon="6.24484">
        <ele>1594.02064396</ele>
        <time>2018-06-14T17:21:35Z</time>
      </trkpt>
      <trkpt lat="45.95649" lon="6.24481">
        <ele>1591.0207456</ele>
        <time>2018-06-14T17:21:41Z</time>
      </trkpt>
      <trkpt lat="45.95658" lon="6.24482">
        <ele>1590.02073688</ele>
        <time>2018-06-14T17:21:48Z</time>
      </trkpt>
      <trkpt lat="45.95666" lon="6.24481">
        <ele>1588.02075708</ele>
        <time>2018-06-14T17:21:55Z</time>
      </trkpt>
      <trkpt lat="45.95674" lon="6.24487">
        <ele>1588.0205386</ele>
        <time>2018-06-14T17:22:00Z</time>
      </trkpt>
      <trkpt lat="45.95682" lon="6.24489">
        <ele>1588.02045852</ele>
        <time>2018-06-14T17:22:06Z</time>
      </trkpt>
      <trkpt lat="45.9569" lon="6.24491">
        <ele>1588.02038048</ele>
        <time>2018-06-14T17:22:11Z</time>
      </trkpt>
      <trkpt lat="45.95698" lon="6.24491">
        <ele>1587.02037812</ele>
        <time>2018-06-14T17:22:16Z</time>
      </trkpt>
      <trkpt lat="45.95706" lon="6.24495">
        <ele>1586.02019436</ele>
        <time>2018-06-14T17:22:21Z</time>
      </trkpt>
      <trkpt lat="45.95713" lon="6.24502">
        <ele>1585.019918</ele>
        <time>2018-06-14T17:22:25Z</time>
      </trkpt>
      <trkpt lat="45.95722" lon="6.24509">
        <ele>1584.01963096</ele>
        <time>2018-06-14T17:22:30Z</time>
      </trkpt>
      <trkpt lat="45.95729" lon="6.24512">
        <ele>1583.01951276</ele>
        <time>2018-06-14T17:22:34Z</time>
      </trkpt>
      <trkpt lat="45.95738" lon="6.24516">
        <ele>1582.01937048</ele>
        <time>2018-06-14T17:22:38Z</time>
      </trkpt>
      <trkpt lat="45.95748" lon="6.24521">
        <ele>1581.01915796</ele>
        <time>2018-06-14T17:22:43Z</time>
      </trkpt>
      <trkpt lat="45.95756" lon="6.24531">
        <ele>1582.0187692</ele>
        <time>2018-06-14T17:22:48Z</time>
      </trkpt>
      <trkpt lat="45.95763" lon="6.24536">
        <ele>1583.01856444</ele>
        <time>2018-06-14T17:22:54Z</time>
      </trkpt>
      <trkpt lat="45.9577" lon="6.24542">
        <ele>1583.01833444</ele>
        <time>2018-06-14T17:22:59Z</time>
      </trkpt>
      <trkpt lat="45.95779" lon="6.24544">
        <ele>1581.01823608</ele>
        <time>2018-06-14T17:23:04Z</time>
      </trkpt>
      <trkpt lat="45.95787" lon="6.24544">
        <ele>1580.01825064</ele>
        <time>2018-06-14T17:23:09Z</time>
      </trkpt>
      <trkpt lat="45.95794" lon="6.24538">
        <ele>1581.01848596</ele>
        <time>2018-06-14T17:23:14Z</time>
      </trkpt>
      <trkpt lat="45.95802" lon="6.24536">
        <ele>1582.01855492</ele>
        <time>2018-06-14T17:23:18Z</time>
      </trkpt>
      <trkpt lat="45.9581" lon="6.24535">
        <ele>1584.01858232</ele>
        <time>2018-06-14T17:23:23Z</time>
      </trkpt>
      <trkpt lat="45.95817" lon="6.24536">
        <ele>1585.01855456</ele>
        <time>2018-06-14T17:23:29Z</time>
      </trkpt>
      <trkpt lat="45.95826" lon="6.24532">
        <ele>1588.0187026</ele>
        <time>2018-06-14T17:23:36Z</time>
      </trkpt>
      <trkpt lat="45.95834" lon="6.24528">
        <ele>1589.01889576</ele>
        <time>2018-06-14T17:23:44Z</time>
      </trkpt>
      <trkpt lat="45.95842" lon="6.24525">
        <ele>1588.018999</ele>
        <time>2018-06-14T17:23:50Z</time>
      </trkpt>
      <trkpt lat="45.9585" lon="6.2452">
        <ele>1591.0192194</ele>
        <time>2018-06-14T17:23:56Z</time>
      </trkpt>
      <trkpt lat="45.95857" lon="6.24515">
        <ele>1591.0194062</ele>
        <time>2018-06-14T17:24:02Z</time>
      </trkpt>
      <trkpt lat="45.95865" lon="6.24511">
        <ele>1592.01957024</ele>
        <time>2018-06-14T17:24:11Z</time>
      </trkpt>
      <trkpt lat="45.95873" lon="6.24511">
        <ele>1593.019568</ele>
        <time>2018-06-14T17:24:16Z</time>
      </trkpt>
      <trkpt lat="45.95879" lon="6.24502">
        <ele>1597.0199414</ele>
        <time>2018-06-14T17:24:24Z</time>
      </trkpt>
      <trkpt lat="45.95886" lon="6.24495">
        <ele>1597.02021376</ele>
        <time>2018-06-14T17:24:35Z</time>
      </trkpt>
      <trkpt lat="45.95892" lon="6.24487">
        <ele>1601.02052448</ele>
        <time>2018-06-14T17:24:50Z</time>
      </trkpt>
      <trkpt lat="45.95899" lon="6.2448">
        <ele>1601.02079284</ele>
        <time>2018-06-14T17:24:57Z</time>
      </trkpt>
      <trkpt lat="45.95905" lon="6.24472">
        <ele>1602.0211098</ele>
        <time>2018-06-14T17:25:05Z</time>
      </trkpt>
      <trkpt lat="45.95913" lon="6.24467">
        <ele>1603.02130352</ele>
        <time>2018-06-14T17:25:12Z</time>
      </trkpt>
      <trkpt lat="45.95921" lon="6.24466">
        <ele>1605.02136644</ele>
        <time>2018-06-14T17:25:19Z</time>
      </trkpt>
      <trkpt lat="45.95929" lon="6.24462">
        <ele>1606.02153424</ele>
        <time>2018-06-14T17:25:26Z</time>
      </trkpt>
      <trkpt lat="45.95937" lon="6.24459">
        <ele>1607.02165196</ele>
        <time>2018-06-14T17:25:33Z</time>
      </trkpt>
      <trkpt lat="45.95945" lon="6.24463">
        <ele>1611.02150088</ele>
        <time>2018-06-14T17:25:40Z</time>
      </trkpt>
      <trkpt lat="45.95952" lon="6.24469">
        <ele>1612.0212504</ele>
        <time>2018-06-14T17:25:48Z</time>
      </trkpt>
      <trkpt lat="45.9596" lon="6.24475">
        <ele>1614.0210202</ele>
        <time>2018-06-14T17:25:57Z</time>
      </trkpt>
      <trkpt lat="45.95967" lon="6.24479">
        <ele>1616.02086068</ele>
        <time>2018-06-14T17:26:09Z</time>
      </trkpt>
      <trkpt lat="45.95975" lon="6.24481">
        <ele>1622.0207714</ele>
        <time>2018-06-14T17:26:17Z</time>
      </trkpt>
      <trkpt lat="45.95983" lon="6.24485">
        <ele>1621.02061572</ele>
        <time>2018-06-14T17:26:25Z</time>
      </trkpt>
      <trkpt lat="45.95991" lon="6.2448">
        <ele>1624.02080316</ele>
        <time>2018-06-14T17:26:32Z</time>
      </trkpt>
      <trkpt lat="45.95996" lon="6.24469">
        <ele>1628.02123932</ele>
        <time>2018-06-14T17:26:41Z</time>
      </trkpt>
      <trkpt lat="45.96001" lon="6.24459">
        <ele>1627.02164392</ele>
        <time>2018-06-14T17:26:50Z</time>
      </trkpt>
      <trkpt lat="45.96001" lon="6.24447">
        <ele>1626.0221418</ele>
        <time>2018-06-14T17:27:02Z</time>
      </trkpt>
      <trkpt lat="45.96007" lon="6.24437">
        <ele>1617.02250328</ele>
        <time>2018-06-14T17:27:29Z</time>
      </trkpt>
      <trkpt lat="45.96009" lon="6.24425">
        <ele>1617.02299808</ele>
        <time>2018-06-14T17:27:41Z</time>
      </trkpt>
      <trkpt lat="45.9601" lon="6.24414">
        <ele>1616.02346064</ele>
        <time>2018-06-14T17:27:52Z</time>
      </trkpt>
      <trkpt lat="45.96014" lon="6.24403">
        <ele>1619.02388732</ele>
        <time>2018-06-14T17:28:01Z</time>
      </trkpt>
      <trkpt lat="45.96021" lon="6.24395">
        <ele>1618.0241936</ele>
        <time>2018-06-14T17:28:09Z</time>
      </trkpt>
      <trkpt lat="45.96027" lon="6.24386">
        <ele>1612.02455684</ele>
        <time>2018-06-14T17:28:14Z</time>
      </trkpt>
      <trkpt lat="45.96035" lon="6.24381">
        <ele>1604.02475084</ele>
        <time>2018-06-14T17:28:21Z</time>
      </trkpt>
      <trkpt lat="45.96042" lon="6.24374">
        <ele>1599.02502264</ele>
        <time>2018-06-14T17:28:28Z</time>
      </trkpt>
      <trkpt lat="45.96049" lon="6.24367">
        <ele>1596.02530284</ele>
        <time>2018-06-14T17:28:35Z</time>
      </trkpt>
      <trkpt lat="45.96055" lon="6.24361">
        <ele>1595.02555784</ele>
        <time>2018-06-14T17:28:41Z</time>
      </trkpt>
      <trkpt lat="45.9606" lon="6.24352">
        <ele>1594.02590624</ele>
        <time>2018-06-14T17:28:47Z</time>
      </trkpt>
      <trkpt lat="45.96066" lon="6.24345">
        <ele>1591.0262098</ele>
        <time>2018-06-14T17:28:52Z</time>
      </trkpt>
      <trkpt lat="45.96073" lon="6.24338">
        <ele>1587.02647508</ele>
        <time>2018-06-14T17:28:57Z</time>
      </trkpt>
      <trkpt lat="45.96081" lon="6.24332">
        <ele>1585.02671636</ele>
        <time>2018-06-14T17:29:02Z</time>
      </trkpt>
      <trkpt lat="45.96089" lon="6.24333">
        <ele>1583.026692</ele>
        <time>2018-06-14T17:29:08Z</time>
      </trkpt>
      <trkpt lat="45.96098" lon="6.24329">
        <ele>1581.02683964</ele>
        <time>2018-06-14T17:29:15Z</time>
      </trkpt>
      <trkpt lat="45.96106" lon="6.24327">
        <ele>1579.02692668</ele>
        <time>2018-06-14T17:29:22Z</time>
      </trkpt>
      <trkpt lat="45.96115" lon="6.24325">
        <ele>1577.02699972</ele>
        <time>2018-06-14T17:29:28Z</time>
      </trkpt>
      <trkpt lat="45.96122" lon="6.24319">
        <ele>1576.02725612</ele>
        <time>2018-06-14T17:29:35Z</time>
      </trkpt>
      <trkpt lat="45.96128" lon="6.24313">
        <ele>1575.02748356</ele>
        <time>2018-06-14T17:29:40Z</time>
      </trkpt>
      <trkpt lat="45.96137" lon="6.24309">
        <ele>1569.02763484</ele>
        <time>2018-06-14T17:29:46Z</time>
      </trkpt>
      <trkpt lat="45.96145" lon="6.2431">
        <ele>1566.02761444</ele>
        <time>2018-06-14T17:29:54Z</time>
      </trkpt>
      <trkpt lat="45.96153" lon="6.24314">
        <ele>1563.0274366</ele>
        <time>2018-06-14T17:30:01Z</time>
      </trkpt>
      <trkpt lat="45.9616" lon="6.2432">
        <ele>1559.02718844</ele>
        <time>2018-06-14T17:30:09Z</time>
      </trkpt>
      <trkpt lat="45.96169" lon="6.2432">
        <ele>1556.02718508</ele>
        <time>2018-06-14T17:30:17Z</time>
      </trkpt>
      <trkpt lat="45.96176" lon="6.24321">
        <ele>1553.02714688</ele>
        <time>2018-06-14T17:30:25Z</time>
      </trkpt>
      <trkpt lat="45.96185" lon="6.24319">
        <ele>1551.02723216</ele>
        <time>2018-06-14T17:30:32Z</time>
      </trkpt>
      <trkpt lat="45.96192" lon="6.24315">
        <ele>1548.02739788</ele>
        <time>2018-06-14T17:30:39Z</time>
      </trkpt>
      <trkpt lat="45.962" lon="6.24309">
        <ele>1542.02766056</ele>
        <time>2018-06-14T17:30:46Z</time>
      </trkpt>
      <trkpt lat="45.96208" lon="6.24305">
        <ele>1539.02778296</ele>
        <time>2018-06-14T17:30:53Z</time>
      </trkpt>
      <trkpt lat="45.96217" lon="6.24304">
        <ele>1535.02784736</ele>
        <time>2018-06-14T17:30:59Z</time>
      </trkpt>
      <trkpt lat="45.96225" lon="6.24302">
        <ele>1533.0279358</ele>
        <time>2018-06-14T17:31:05Z</time>
      </trkpt>
      <trkpt lat="45.96233" lon="6.24303">
        <ele>1532.02788176</ele>
        <time>2018-06-14T17:31:10Z</time>
      </trkpt>
      <trkpt lat="45.96242" lon="6.24304">
        <ele>1531.02782576</ele>
        <time>2018-06-14T17:31:15Z</time>
      </trkpt>
      <trkpt lat="45.9625" lon="6.24305">
        <ele>1530.02781776</ele>
        <time>2018-06-14T17:31:20Z</time>
      </trkpt>
      <trkpt lat="45.96258" lon="6.24309">
        <ele>1531.02765672</ele>
        <time>2018-06-14T17:31:26Z</time>
      </trkpt>
      <trkpt lat="45.96266" lon="6.24311">
        <ele>1529.027546</ele>
        <time>2018-06-14T17:31:32Z</time>
      </trkpt>
      <trkpt lat="45.96274" lon="6.24311">
        <ele>1526.02755928</ele>
        <time>2018-06-14T17:31:39Z</time>
      </trkpt>
      <trkpt lat="45.96282" lon="6.24313">
        <ele>1521.02749664</ele>
        <time>2018-06-14T17:31:44Z</time>
      </trkpt>
      <trkpt lat="45.9629" lon="6.24315">
        <ele>1520.02741568</ele>
        <time>2018-06-14T17:31:49Z</time>
      </trkpt>
      <trkpt lat="45.96299" lon="6.24316">
        <ele>1518.02734612</ele>
        <time>2018-06-14T17:31:54Z</time>
      </trkpt>
      <trkpt lat="45.96307" lon="6.24322">
        <ele>1515.0271364</ele>
        <time>2018-06-14T17:31:59Z</time>
      </trkpt>
      <trkpt lat="45.96316" lon="6.24322">
        <ele>1514.02710212</ele>
        <time>2018-06-14T17:32:04Z</time>
      </trkpt>
      <trkpt lat="45.96326" lon="6.24323">
        <ele>1511.02707</ele>
        <time>2018-06-14T17:32:09Z</time>
      </trkpt>
      <trkpt lat="45.96335" lon="6.24325">
        <ele>1509.02700848</ele>
        <time>2018-06-14T17:32:14Z</time>
      </trkpt>
      <trkpt lat="45.96343" lon="6.24327">
        <ele>1507.02691296</ele>
        <time>2018-06-14T17:32:22Z</time>
      </trkpt>
      <trkpt lat="45.96351" lon="6.24327">
        <ele>1505.02691888</ele>
        <time>2018-06-14T17:32:28Z</time>
      </trkpt>
      <trkpt lat="45.96359" lon="6.2433">
        <ele>1504.02680776</ele>
        <time>2018-06-14T17:32:36Z</time>
      </trkpt>
      <trkpt lat="45.96362" lon="6.24342">
        <ele>1503.02633824</ele>
        <time>2018-06-14T17:32:53Z</time>
      </trkpt>
      <trkpt lat="45.96368" lon="6.2435">
        <ele>1502.0259926</ele>
        <time>2018-06-14T17:33:02Z</time>
      </trkpt>
      <trkpt lat="45.96376" lon="6.24356">
        <ele>1502.02576364</ele>
        <time>2018-06-14T17:33:08Z</time>
      </trkpt>
      <trkpt lat="45.96383" lon="6.2436">
        <ele>1500.02560164</ele>
        <time>2018-06-14T17:33:14Z</time>
      </trkpt>
      <trkpt lat="45.96392" lon="6.24364">
        <ele>1500.02545956</ele>
        <time>2018-06-14T17:33:19Z</time>
      </trkpt>
      <trkpt lat="45.964" lon="6.24365">
        <ele>1499.0253976</ele>
        <time>2018-06-14T17:33:23Z</time>
      </trkpt>
      <trkpt lat="45.96409" lon="6.24365">
        <ele>1497.02539196</ele>
        <time>2018-06-14T17:33:27Z</time>
      </trkpt>
      <trkpt lat="45.96418" lon="6.24357">
        <ele>1495.02572844</ele>
        <time>2018-06-14T17:33:32Z</time>
      </trkpt>
      <trkpt lat="45.96421" lon="6.24347">
        <ele>1493.02612116</ele>
        <time>2018-06-14T17:33:36Z</time>
      </trkpt>
      <trkpt lat="45.96423" lon="6.24337">
        <ele>1492.02652536</ele>
        <time>2018-06-14T17:33:40Z</time>
      </trkpt>
      <trkpt lat="45.96426" lon="6.24323">
        <ele>1490.02706784</ele>
        <time>2018-06-14T17:33:45Z</time>
      </trkpt>
      <trkpt lat="45.96428" lon="6.24313">
        <ele>1489.02749412</ele>
        <time>2018-06-14T17:33:49Z</time>
      </trkpt>
      <trkpt lat="45.9643" lon="6.24302">
        <ele>1488.02792204</ele>
        <time>2018-06-14T17:33:54Z</time>
      </trkpt>
      <trkpt lat="45.96433" lon="6.24289">
        <ele>1489.02845064</ele>
        <time>2018-06-14T17:33:59Z</time>
      </trkpt>
      <trkpt lat="45.96437" lon="6.24278">
        <ele>1489.02889908</ele>
        <time>2018-06-14T17:34:03Z</time>
      </trkpt>
      <trkpt lat="45.96443" lon="6.24266">
        <ele>1488.0293488</ele>
        <time>2018-06-14T17:34:07Z</time>
      </trkpt>
      <trkpt lat="45.96449" lon="6.24256">
        <ele>1487.02976064</ele>
        <time>2018-06-14T17:34:11Z</time>
      </trkpt>
      <trkpt lat="45.96456" lon="6.24246">
        <ele>1487.03016624</ele>
        <time>2018-06-14T17:34:15Z</time>
      </trkpt>
      <trkpt lat="45.96465" lon="6.24237">
        <ele>1485.03051344</ele>
        <time>2018-06-14T17:34:19Z</time>
      </trkpt>
      <trkpt lat="45.96477" lon="6.24231">
        <ele>1486.03078072</ele>
        <time>2018-06-14T17:34:24Z</time>
      </trkpt>
      <trkpt lat="45.96485" lon="6.2422">
        <ele>1486.03120416</ele>
        <time>2018-06-14T17:34:28Z</time>
      </trkpt>
      <trkpt lat="45.96482" lon="6.2421">
        <ele>1489.0316116</ele>
        <time>2018-06-14T17:34:33Z</time>
      </trkpt>
      <trkpt lat="45.96475" lon="6.24197">
        <ele>1488.03213124</ele>
        <time>2018-06-14T17:34:38Z</time>
      </trkpt>
      <trkpt lat="45.9647" lon="6.24186">
        <ele>1489.0325798</ele>
        <time>2018-06-14T17:34:42Z</time>
      </trkpt>
      <trkpt lat="45.96463" lon="6.24175">
        <ele>1488.03300172</ele>
        <time>2018-06-14T17:34:46Z</time>
      </trkpt>
      <trkpt lat="45.96457" lon="6.24163">
        <ele>1487.03348468</ele>
        <time>2018-06-14T17:34:50Z</time>
      </trkpt>
      <trkpt lat="45.9645" lon="6.24151">
        <ele>1486.03395592</ele>
        <time>2018-06-14T17:34:55Z</time>
      </trkpt>
      <trkpt lat="45.96446" lon="6.24135">
        <ele>1486.03458312</ele>
        <time>2018-06-14T17:35:00Z</time>
      </trkpt>
      <trkpt lat="45.96443" lon="6.2412">
        <ele>1484.03519136</ele>
        <time>2018-06-14T17:35:04Z</time>
      </trkpt>
      <trkpt lat="45.96437" lon="6.24105">
        <ele>1486.03578712</ele>
        <time>2018-06-14T17:35:09Z</time>
      </trkpt>
      <trkpt lat="45.96434" lon="6.2409">
        <ele>1483.03641168</ele>
        <time>2018-06-14T17:35:13Z</time>
      </trkpt>
      <trkpt lat="45.96434" lon="6.24077">
        <ele>1487.03692684</ele>
        <time>2018-06-14T17:35:18Z</time>
      </trkpt>
      <trkpt lat="45.96442" lon="6.24074">
        <ele>1484.03702424</ele>
        <time>2018-06-14T17:35:24Z</time>
      </trkpt>
      <trkpt lat="45.96451" lon="6.24083">
        <ele>1485.03668848</ele>
        <time>2018-06-14T17:35:29Z</time>
      </trkpt>
      <trkpt lat="45.96463" lon="6.2409">
        <ele>1480.03639128</ele>
        <time>2018-06-14T17:35:34Z</time>
      </trkpt>
      <trkpt lat="45.96471" lon="6.241">
        <ele>1478.03599556</ele>
        <time>2018-06-14T17:35:38Z</time>
      </trkpt>
      <trkpt lat="45.96476" lon="6.2411">
        <ele>1473.03560504</ele>
        <time>2018-06-14T17:35:42Z</time>
      </trkpt>
      <trkpt lat="45.96483" lon="6.24126">
        <ele>1471.03495736</ele>
        <time>2018-06-14T17:35:47Z</time>
      </trkpt>
      <trkpt lat="45.96491" lon="6.24141">
        <ele>1468.03436816</ele>
        <time>2018-06-14T17:35:51Z</time>
      </trkpt>
      <trkpt lat="45.96497" lon="6.24152">
        <ele>1467.03391576</ele>
        <time>2018-06-14T17:35:55Z</time>
      </trkpt>
      <trkpt lat="45.96502" lon="6.2416">
        <ele>1467.03361236</ele>
        <time>2018-06-14T17:35:59Z</time>
      </trkpt>
      <trkpt lat="45.96515" lon="6.2416">
        <ele>1464.0335904</ele>
        <time>2018-06-14T17:36:04Z</time>
      </trkpt>
      <trkpt lat="45.96513" lon="6.24149">
        <ele>1464.03404908</ele>
        <time>2018-06-14T17:36:09Z</time>
      </trkpt>
      <trkpt lat="45.96514" lon="6.24138">
        <ele>1472.03446964</ele>
        <time>2018-06-14T17:36:20Z</time>
      </trkpt>
      <trkpt lat="45.96513" lon="6.24125">
        <ele>1462.0349822</ele>
        <time>2018-06-14T17:36:24Z</time>
      </trkpt>
      <trkpt lat="45.96516" lon="6.24113">
        <ele>1455.03549968</ele>
        <time>2018-06-14T17:36:29Z</time>
      </trkpt>
      <trkpt lat="45.96517" lon="6.24101">
        <ele>1450.03595576</ele>
        <time>2018-06-14T17:36:35Z</time>
      </trkpt>
      <trkpt lat="45.96521" lon="6.24091">
        <ele>1449.03637812</ele>
        <time>2018-06-14T17:36:42Z</time>
      </trkpt>
      <trkpt lat="45.96525" lon="6.2408">
        <ele>1453.03678812</ele>
        <time>2018-06-14T17:36:47Z</time>
      </trkpt>
      <trkpt lat="45.96525" lon="6.2407">
        <ele>1454.03721408</ele>
        <time>2018-06-14T17:36:51Z</time>
      </trkpt>
      <trkpt lat="45.96526" lon="6.24057">
        <ele>1458.0377286</ele>
        <time>2018-06-14T17:36:57Z</time>
      </trkpt>
      <trkpt lat="45.96534" lon="6.24051">
        <ele>1452.03794588</ele>
        <time>2018-06-14T17:37:09Z</time>
      </trkpt>
      <trkpt lat="45.9654" lon="6.24041">
        <ele>1448.038347</ele>
        <time>2018-06-14T17:37:16Z</time>
      </trkpt>
      <trkpt lat="45.96545" lon="6.24032">
        <ele>1448.03872948</ele>
        <time>2018-06-14T17:37:22Z</time>
      </trkpt>
      <trkpt lat="45.96549" lon="6.24022">
        <ele>1448.03912432</ele>
        <time>2018-06-14T17:37:28Z</time>
      </trkpt>
      <trkpt lat="45.96553" lon="6.24011">
        <ele>1445.039573</ele>
        <time>2018-06-14T17:37:33Z</time>
      </trkpt>
      <trkpt lat="45.96557" lon="6.24">
        <ele>1444.04000052</ele>
        <time>2018-06-14T17:37:38Z</time>
      </trkpt>
      <trkpt lat="45.96559" lon="6.2399">
        <ele>1445.04041736</ele>
        <time>2018-06-14T17:37:43Z</time>
      </trkpt>
      <trkpt lat="45.96564" lon="6.23974">
        <ele>1444.04103628</ele>
        <time>2018-06-14T17:37:48Z</time>
      </trkpt>
      <trkpt lat="45.96565" lon="6.23961">
        <ele>1444.04157504</ele>
        <time>2018-06-14T17:37:53Z</time>
      </trkpt>
      <trkpt lat="45.96567" lon="6.2395">
        <ele>1441.04199484</ele>
        <time>2018-06-14T17:37:57Z</time>
      </trkpt>
      <trkpt lat="45.96572" lon="6.23941">
        <ele>1427.04236616</ele>
        <time>2018-06-14T17:38:07Z</time>
      </trkpt>
      <trkpt lat="45.96576" lon="6.23932">
        <ele>1425.04273808</ele>
        <time>2018-06-14T17:38:14Z</time>
      </trkpt>
      <trkpt lat="45.9658" lon="6.23922">
        <ele>1428.04310356</ele>
        <time>2018-06-14T17:38:20Z</time>
      </trkpt>
      <trkpt lat="45.96584" lon="6.23913">
        <ele>1423.04349688</ele>
        <time>2018-06-14T17:38:24Z</time>
      </trkpt>
      <trkpt lat="45.96588" lon="6.23906">
        <ele>1427.0437682</ele>
        <time>2018-06-14T17:38:29Z</time>
      </trkpt>
      <trkpt lat="45.96599" lon="6.23894">
        <ele>1418.04423832</ele>
        <time>2018-06-14T17:38:34Z</time>
      </trkpt>
      <trkpt lat="45.96604" lon="6.23886">
        <ele>1419.04454956</ele>
        <time>2018-06-14T17:38:38Z</time>
      </trkpt>
      <trkpt lat="45.96611" lon="6.23879">
        <ele>1419.04485188</ele>
        <time>2018-06-14T17:38:43Z</time>
      </trkpt>
      <trkpt lat="45.96619" lon="6.23873">
        <ele>1423.04507236</ele>
        <time>2018-06-14T17:38:49Z</time>
      </trkpt>
      <trkpt lat="45.96622" lon="6.23862">
        <ele>1413.04550952</ele>
        <time>2018-06-14T17:38:54Z</time>
      </trkpt>
      <trkpt lat="45.96627" lon="6.2385">
        <ele>1402.04600184</ele>
        <time>2018-06-14T17:38:59Z</time>
      </trkpt>
      <trkpt lat="45.96632" lon="6.23842">
        <ele>1395.04632808</ele>
        <time>2018-06-14T17:39:04Z</time>
      </trkpt>
      <trkpt lat="45.96639" lon="6.23834">
        <ele>1393.04663196</ele>
        <time>2018-06-14T17:39:10Z</time>
      </trkpt>
      <trkpt lat="45.96644" lon="6.23824">
        <ele>1392.04706</ele>
        <time>2018-06-14T17:39:20Z</time>
      </trkpt>
      <trkpt lat="45.96645" lon="6.23812">
        <ele>1388.04751416</ele>
        <time>2018-06-14T17:39:28Z</time>
      </trkpt>
      <trkpt lat="45.96642" lon="6.238">
        <ele>1386.04799736</ele>
        <time>2018-06-14T17:39:35Z</time>
      </trkpt>
      <trkpt lat="45.96639" lon="6.23789">
        <ele>1385.04844704</ele>
        <time>2018-06-14T17:39:41Z</time>
      </trkpt>
      <trkpt lat="45.96636" lon="6.23777">
        <ele>1386.04893352</ele>
        <time>2018-06-14T17:39:48Z</time>
      </trkpt>
      <trkpt lat="45.9663" lon="6.23768">
        <ele>1380.04928768</ele>
        <time>2018-06-14T17:39:53Z</time>
      </trkpt>
      <trkpt lat="45.96629" lon="6.23756">
        <ele>1378.04975312</ele>
        <time>2018-06-14T17:39:58Z</time>
      </trkpt>
      <trkpt lat="45.96621" lon="6.23748">
        <ele>1373.05007104</ele>
        <time>2018-06-14T17:40:03Z</time>
      </trkpt>
      <trkpt lat="45.96619" lon="6.23738">
        <ele>1371.05049336</ele>
        <time>2018-06-14T17:40:08Z</time>
      </trkpt>
      <trkpt lat="45.96617" lon="6.23727">
        <ele>1367.05090524</ele>
        <time>2018-06-14T17:40:12Z</time>
      </trkpt>
      <trkpt lat="45.96614" lon="6.23715">
        <ele>1359.05140296</ele>
        <time>2018-06-14T17:40:17Z</time>
      </trkpt>
      <trkpt lat="45.96607" lon="6.23708">
        <ele>1356.05167248</ele>
        <time>2018-06-14T17:40:21Z</time>
      </trkpt>
      <trkpt lat="45.96602" lon="6.237">
        <ele>1356.05198992</ele>
        <time>2018-06-14T17:40:25Z</time>
      </trkpt>
      <trkpt lat="45.96599" lon="6.23688">
        <ele>1352.052482</ele>
        <time>2018-06-14T17:40:32Z</time>
      </trkpt>
      <trkpt lat="45.96595" lon="6.2368">
        <ele>1346.05281436</ele>
        <time>2018-06-14T17:40:39Z</time>
      </trkpt>
      <trkpt lat="45.9659" lon="6.2367">
        <ele>1342.05321664</ele>
        <time>2018-06-14T17:40:49Z</time>
      </trkpt>
      <trkpt lat="45.96584" lon="6.23657">
        <ele>1342.05373656</ele>
        <time>2018-06-14T17:40:54Z</time>
      </trkpt>
      <trkpt lat="45.96579" lon="6.23647">
        <ele>1342.0541166</ele>
        <time>2018-06-14T17:40:59Z</time>
      </trkpt>
      <trkpt lat="45.96575" lon="6.23637">
        <ele>1344.05452192</ele>
        <time>2018-06-14T17:41:05Z</time>
      </trkpt>
      <trkpt lat="45.96568" lon="6.23632">
        <ele>1336.05471988</ele>
        <time>2018-06-14T17:41:09Z</time>
      </trkpt>
      <trkpt lat="45.96568" lon="6.23621">
        <ele>1336.05514824</ele>
        <time>2018-06-14T17:41:13Z</time>
      </trkpt>
      <trkpt lat="45.96562" lon="6.23612">
        <ele>1330.0555194</ele>
        <time>2018-06-14T17:41:19Z</time>
      </trkpt>
      <trkpt lat="45.96558" lon="6.23603">
        <ele>1326.0558864</ele>
        <time>2018-06-14T17:41:25Z</time>
      </trkpt>
      <trkpt lat="45.96553" lon="6.23593">
        <ele>1322.05626572</ele>
        <time>2018-06-14T17:41:33Z</time>
      </trkpt>
      <trkpt lat="45.9655" lon="6.23582">
        <ele>1321.05672292</ele>
        <time>2018-06-14T17:41:38Z</time>
      </trkpt>
      <trkpt lat="45.96547" lon="6.23571">
        <ele>1320.05714796</ele>
        <time>2018-06-14T17:41:45Z</time>
      </trkpt>
      <trkpt lat="45.96542" lon="6.23562">
        <ele>1319.0575312</ele>
        <time>2018-06-14T17:41:50Z</time>
      </trkpt>
      <trkpt lat="45.96538" lon="6.2355">
        <ele>1316.0579826</ele>
        <time>2018-06-14T17:41:57Z</time>
      </trkpt>
      <trkpt lat="45.96532" lon="6.23541">
        <ele>1312.05834328</ele>
        <time>2018-06-14T17:42:05Z</time>
      </trkpt>
      <trkpt lat="45.96526" lon="6.23535">
        <ele>1309.05860652</ele>
        <time>2018-06-14T17:42:13Z</time>
      </trkpt>
      <trkpt lat="45.96524" lon="6.23523">
        <ele>1307.05907956</ele>
        <time>2018-06-14T17:42:19Z</time>
      </trkpt>
      <trkpt lat="45.9652" lon="6.23512">
        <ele>1307.05953376</ele>
        <time>2018-06-14T17:42:26Z</time>
      </trkpt>
      <trkpt lat="45.96522" lon="6.235">
        <ele>1294.05999552</ele>
        <time>2018-06-14T17:42:38Z</time>
      </trkpt>
      <trkpt lat="45.96523" lon="6.23487">
        <ele>1291.06050992</ele>
        <time>2018-06-14T17:42:51Z</time>
      </trkpt>
      <trkpt lat="45.9652" lon="6.23475">
        <ele>1292.06098868</ele>
        <time>2018-06-14T17:42:58Z</time>
      </trkpt>
      <trkpt lat="45.9652" lon="6.23464">
        <ele>1288.0614234</ele>
        <time>2018-06-14T17:43:04Z</time>
      </trkpt>
      <trkpt lat="45.96518" lon="6.23452">
        <ele>1289.06192356</ele>
        <time>2018-06-14T17:43:11Z</time>
      </trkpt>
      <trkpt lat="45.96516" lon="6.23439">
        <ele>1286.062424</ele>
        <time>2018-06-14T17:43:18Z</time>
      </trkpt>
      <trkpt lat="45.96515" lon="6.23428">
        <ele>1277.062899</ele>
        <time>2018-06-14T17:43:26Z</time>
      </trkpt>
      <trkpt lat="45.96522" lon="6.2342">
        <ele>1263.06320444</ele>
        <time>2018-06-14T17:43:47Z</time>
      </trkpt>
      <trkpt lat="45.9653" lon="6.23423">
        <ele>1261.0630838</ele>
        <time>2018-06-14T17:43:55Z</time>
      </trkpt>
      <trkpt lat="45.96537" lon="6.2343">
        <ele>1259.06280056</ele>
        <time>2018-06-14T17:44:01Z</time>
      </trkpt>
      <trkpt lat="45.96543" lon="6.23439">
        <ele>1257.06245028</ele>
        <time>2018-06-14T17:44:07Z</time>
      </trkpt>
      <trkpt lat="45.96548" lon="6.23448">
        <ele>1255.06207436</ele>
        <time>2018-06-14T17:44:13Z</time>
      </trkpt>
      <trkpt lat="45.9655" lon="6.23461">
        <ele>1252.06157204</ele>
        <time>2018-06-14T17:44:20Z</time>
      </trkpt>
      <trkpt lat="45.96557" lon="6.23468">
        <ele>1253.06130012</ele>
        <time>2018-06-14T17:44:26Z</time>
      </trkpt>
      <trkpt lat="45.96566" lon="6.23476">
        <ele>1253.06098164</ele>
        <time>2018-06-14T17:44:30Z</time>
      </trkpt>
      <trkpt lat="45.96577" lon="6.23483">
        <ele>1251.06067388</ele>
        <time>2018-06-14T17:44:35Z</time>
      </trkpt>
      <trkpt lat="45.96586" lon="6.23487">
        <ele>1253.06053748</ele>
        <time>2018-06-14T17:44:39Z</time>
      </trkpt>
      <trkpt lat="45.96596" lon="6.23494">
        <ele>1252.06025736</ele>
        <time>2018-06-14T17:44:44Z</time>
      </trkpt>
      <trkpt lat="45.96605" lon="6.23501">
        <ele>1250.05995244</ele>
        <time>2018-06-14T17:44:48Z</time>
      </trkpt>
      <trkpt lat="45.96613" lon="6.23507">
        <ele>1248.059727</ele>
        <time>2018-06-14T17:44:52Z</time>
      </trkpt>
      <trkpt lat="45.96624" lon="6.23515">
        <ele>1248.05941516</ele>
        <time>2018-06-14T17:44:57Z</time>
      </trkpt>
      <trkpt lat="45.96635" lon="6.23523">
        <ele>1246.05908236</ele>
        <time>2018-06-14T17:45:02Z</time>
      </trkpt>
      <trkpt lat="45.96642" lon="6.23528">
        <ele>1246.05887432</ele>
        <time>2018-06-14T17:45:08Z</time>
      </trkpt>
      <trkpt lat="45.96651" lon="6.23533">
        <ele>1246.05868876</ele>
        <time>2018-06-14T17:45:13Z</time>
      </trkpt>
      <trkpt lat="45.9666" lon="6.23537">
        <ele>1245.05853992</ele>
        <time>2018-06-14T17:45:17Z</time>
      </trkpt>
      <trkpt lat="45.96671" lon="6.23546">
        <ele>1242.0581622</ele>
        <time>2018-06-14T17:45:22Z</time>
      </trkpt>
      <trkpt lat="45.96682" lon="6.23554">
        <ele>1240.05782336</ele>
        <time>2018-06-14T17:45:27Z</time>
      </trkpt>
      <trkpt lat="45.96692" lon="6.23563">
        <ele>1239.05746936</ele>
        <time>2018-06-14T17:45:32Z</time>
      </trkpt>
      <trkpt lat="45.96701" lon="6.23572">
        <ele>1237.05712592</ele>
        <time>2018-06-14T17:45:36Z</time>
      </trkpt>
      <trkpt lat="45.96712" lon="6.2358">
        <ele>1235.05681168</ele>
        <time>2018-06-14T17:45:41Z</time>
      </trkpt>
      <trkpt lat="45.96722" lon="6.23588">
        <ele>1233.0564646</ele>
        <time>2018-06-14T17:45:45Z</time>
      </trkpt>
      <trkpt lat="45.96733" lon="6.23601">
        <ele>1229.05595184</ele>
        <time>2018-06-14T17:45:50Z</time>
      </trkpt>
      <trkpt lat="45.96744" lon="6.23611">
        <ele>1228.05556776</ele>
        <time>2018-06-14T17:45:55Z</time>
      </trkpt>
      <trkpt lat="45.96754" lon="6.2362">
        <ele>1228.05521444</ele>
        <time>2018-06-14T17:46:00Z</time>
      </trkpt>
      <trkpt lat="45.96763" lon="6.23628">
        <ele>1227.05489776</ele>
        <time>2018-06-14T17:46:04Z</time>
      </trkpt>
      <trkpt lat="45.96773" lon="6.23637">
        <ele>1225.05452904</ele>
        <time>2018-06-14T17:46:09Z</time>
      </trkpt>
      <trkpt lat="45.96785" lon="6.23645">
        <ele>1224.05418728</ele>
        <time>2018-06-14T17:46:14Z</time>
      </trkpt>
      <trkpt lat="45.96794" lon="6.23654">
        <ele>1223.05385388</ele>
        <time>2018-06-14T17:46:18Z</time>
      </trkpt>
      <trkpt lat="45.96804" lon="6.23665">
        <ele>1220.0534042</ele>
        <time>2018-06-14T17:46:22Z</time>
      </trkpt>
      <trkpt lat="45.96811" lon="6.23677">
        <ele>1220.05290376</ele>
        <time>2018-06-14T17:46:26Z</time>
      </trkpt>
      <trkpt lat="45.96816" lon="6.23696">
        <ele>1218.05217908</ele>
        <time>2018-06-14T17:46:31Z</time>
      </trkpt>
      <trkpt lat="45.96818" lon="6.23714">
        <ele>1217.05145056</ele>
        <time>2018-06-14T17:46:36Z</time>
      </trkpt>
      <trkpt lat="45.96822" lon="6.23728">
        <ele>1217.05088284</ele>
        <time>2018-06-14T17:46:40Z</time>
      </trkpt>
      <trkpt lat="45.96825" lon="6.23747">
        <ele>1216.05013552</ele>
        <time>2018-06-14T17:46:45Z</time>
      </trkpt>
      <trkpt lat="45.96823" lon="6.23763">
        <ele>1214.04949512</ele>
        <time>2018-06-14T17:46:49Z</time>
      </trkpt>
      <trkpt lat="45.96822" lon="6.23781">
        <ele>1213.04874892</ele>
        <time>2018-06-14T17:46:54Z</time>
      </trkpt>
      <trkpt lat="45.96825" lon="6.23799">
        <ele>1211.04805448</ele>
        <time>2018-06-14T17:46:59Z</time>
      </trkpt>
      <trkpt lat="45.96829" lon="6.23817">
        <ele>1209.04731736</ele>
        <time>2018-06-14T17:47:04Z</time>
      </trkpt>
      <trkpt lat="45.9683" lon="6.23829">
        <ele>1210.04682284</ele>
        <time>2018-06-14T17:47:08Z</time>
      </trkpt>
      <trkpt lat="45.96832" lon="6.23846">
        <ele>1211.04615568</ele>
        <time>2018-06-14T17:47:13Z</time>
      </trkpt>
      <trkpt lat="45.96838" lon="6.2386">
        <ele>1209.0456102</ele>
        <time>2018-06-14T17:47:17Z</time>
      </trkpt>
      <trkpt lat="45.96848" lon="6.23868">
        <ele>1211.04529012</ele>
        <time>2018-06-14T17:47:22Z</time>
      </trkpt>
      <trkpt lat="45.96861" lon="6.23873">
        <ele>1210.04508096</ele>
        <time>2018-06-14T17:47:26Z</time>
      </trkpt>
      <trkpt lat="45.96871" lon="6.23868">
        <ele>1209.04528172</ele>
        <time>2018-06-14T17:47:31Z</time>
      </trkpt>
      <trkpt lat="45.96883" lon="6.23868">
        <ele>1205.04527856</ele>
        <time>2018-06-14T17:47:35Z</time>
      </trkpt>
      <trkpt lat="45.96894" lon="6.23869">
        <ele>1203.04525392</ele>
        <time>2018-06-14T17:47:39Z</time>
      </trkpt>
      <trkpt lat="45.96906" lon="6.23871">
        <ele>1203.04516828</ele>
        <time>2018-06-14T17:47:44Z</time>
      </trkpt>
      <trkpt lat="45.96917" lon="6.23872">
        <ele>1202.04511892</ele>
        <time>2018-06-14T17:47:48Z</time>
      </trkpt>
      <trkpt lat="45.96929" lon="6.23874">
        <ele>1203.04505432</ele>
        <time>2018-06-14T17:47:53Z</time>
      </trkpt>
      <trkpt lat="45.96937" lon="6.23875">
        <ele>1205.04501272</ele>
        <time>2018-06-14T17:47:57Z</time>
      </trkpt>
      <trkpt lat="45.9695" lon="6.23877">
        <ele>1200.04492892</ele>
        <time>2018-06-14T17:48:01Z</time>
      </trkpt>
      <trkpt lat="45.96964" lon="6.23879">
        <ele>1199.04486084</ele>
        <time>2018-06-14T17:48:06Z</time>
      </trkpt>
      <trkpt lat="45.96975" lon="6.23882">
        <ele>1197.04473156</ele>
        <time>2018-06-14T17:48:10Z</time>
      </trkpt>
      <trkpt lat="45.96986" lon="6.23882">
        <ele>1197.04473616</ele>
        <time>2018-06-14T17:48:14Z</time>
      </trkpt>
      <trkpt lat="45.96998" lon="6.23871">
        <ele>1196.04515176</ele>
        <time>2018-06-14T17:48:19Z</time>
      </trkpt>
      <trkpt lat="45.9701" lon="6.2386">
        <ele>1196.0455874</ele>
        <time>2018-06-14T17:48:24Z</time>
      </trkpt>
      <trkpt lat="45.97022" lon="6.2385">
        <ele>1194.04601988</ele>
        <time>2018-06-14T17:48:29Z</time>
      </trkpt>
      <trkpt lat="45.97034" lon="6.23845">
        <ele>1192.04620944</ele>
        <time>2018-06-14T17:48:33Z</time>
      </trkpt>
      <trkpt lat="45.97046" lon="6.23843">
        <ele>1191.04627588</ele>
        <time>2018-06-14T17:48:37Z</time>
      </trkpt>
      <trkpt lat="45.97059" lon="6.23846">
        <ele>1190.04616952</ele>
        <time>2018-06-14T17:48:42Z</time>
      </trkpt>
      <trkpt lat="45.97073" lon="6.2385">
        <ele>1189.04599448</ele>
        <time>2018-06-14T17:48:47Z</time>
      </trkpt>
      <trkpt lat="45.97085" lon="6.2385">
        <ele>1192.04602072</ele>
        <time>2018-06-14T17:48:52Z</time>
      </trkpt>
      <trkpt lat="45.97097" lon="6.23857">
        <ele>1191.04570552</ele>
        <time>2018-06-14T17:48:57Z</time>
      </trkpt>
      <trkpt lat="45.97109" lon="6.23864">
        <ele>1188.04546176</ele>
        <time>2018-06-14T17:49:01Z</time>
      </trkpt>
      <trkpt lat="45.9712" lon="6.23867">
        <ele>1188.04533768</ele>
        <time>2018-06-14T17:49:06Z</time>
      </trkpt>
      <trkpt lat="45.97132" lon="6.23871">
        <ele>1184.04517236</ele>
        <time>2018-06-14T17:49:10Z</time>
      </trkpt>
      <trkpt lat="45.97144" lon="6.23875">
        <ele>1185.04499704</ele>
        <time>2018-06-14T17:49:15Z</time>
      </trkpt>
      <trkpt lat="45.97155" lon="6.23882">
        <ele>1184.0447156</ele>
        <time>2018-06-14T17:49:19Z</time>
      </trkpt>
      <trkpt lat="45.97165" lon="6.23887">
        <ele>1185.04450568</ele>
        <time>2018-06-14T17:49:23Z</time>
      </trkpt>
      <trkpt lat="45.97176" lon="6.23895">
        <ele>1184.04420692</ele>
        <time>2018-06-14T17:49:28Z</time>
      </trkpt>
      <trkpt lat="45.97187" lon="6.23904">
        <ele>1180.04384508</ele>
        <time>2018-06-14T17:49:32Z</time>
      </trkpt>
      <trkpt lat="45.97197" lon="6.23912">
        <ele>1178.04351944</ele>
        <time>2018-06-14T17:49:36Z</time>
      </trkpt>
      <trkpt lat="45.9721" lon="6.23917">
        <ele>1178.0433364</ele>
        <time>2018-06-14T17:49:41Z</time>
      </trkpt>
      <trkpt lat="45.97221" lon="6.23923">
        <ele>1177.04309296</ele>
        <time>2018-06-14T17:49:45Z</time>
      </trkpt>
      <trkpt lat="45.97236" lon="6.23934">
        <ele>1172.042659</ele>
        <time>2018-06-14T17:49:50Z</time>
      </trkpt>
      <trkpt lat="45.97246" lon="6.23939">
        <ele>1170.0424424</ele>
        <time>2018-06-14T17:49:54Z</time>
      </trkpt>
      <trkpt lat="45.97258" lon="6.23947">
        <ele>1167.04213644</ele>
        <time>2018-06-14T17:49:58Z</time>
      </trkpt>
      <trkpt lat="45.97268" lon="6.23954">
        <ele>1167.04184444</ele>
        <time>2018-06-14T17:50:02Z</time>
      </trkpt>
      <trkpt lat="45.97279" lon="6.23958">
        <ele>1169.04168032</ele>
        <time>2018-06-14T17:50:06Z</time>
      </trkpt>
      <trkpt lat="45.97291" lon="6.23968">
        <ele>1168.04126276</ele>
        <time>2018-06-14T17:50:11Z</time>
      </trkpt>
      <trkpt lat="45.97301" lon="6.23979">
        <ele>1167.040845</ele>
        <time>2018-06-14T17:50:16Z</time>
      </trkpt>
      <trkpt lat="45.97312" lon="6.23983">
        <ele>1168.04067224</ele>
        <time>2018-06-14T17:50:20Z</time>
      </trkpt>
      <trkpt lat="45.97324" lon="6.23998">
        <ele>1164.04007044</ele>
        <time>2018-06-14T17:50:25Z</time>
      </trkpt>
      <trkpt lat="45.97337" lon="6.24008">
        <ele>1161.03968976</ele>
        <time>2018-06-14T17:50:30Z</time>
      </trkpt>
      <trkpt lat="45.97345" lon="6.2402">
        <ele>1157.03920208</ele>
        <time>2018-06-14T17:50:34Z</time>
      </trkpt>
      <trkpt lat="45.97356" lon="6.24033">
        <ele>1154.03866464</ele>
        <time>2018-06-14T17:50:39Z</time>
      </trkpt>
      <trkpt lat="45.97368" lon="6.24042">
        <ele>1152.03830572</ele>
        <time>2018-06-14T17:50:44Z</time>
      </trkpt>
      <trkpt lat="45.97376" lon="6.24047">
        <ele>1152.03810776</ele>
        <time>2018-06-14T17:50:49Z</time>
      </trkpt>
      <trkpt lat="45.97384" lon="6.24056">
        <ele>1152.03777988</ele>
        <time>2018-06-14T17:50:54Z</time>
      </trkpt>
      <trkpt lat="45.97389" lon="6.24062">
        <ele>1149.03753008</ele>
        <time>2018-06-14T17:50:58Z</time>
      </trkpt>
      <trkpt lat="45.97397" lon="6.24068">
        <ele>1146.03729656</ele>
        <time>2018-06-14T17:51:03Z</time>
      </trkpt>
      <trkpt lat="45.97406" lon="6.24072">
        <ele>1144.03712436</ele>
        <time>2018-06-14T17:51:13Z</time>
      </trkpt>
      <trkpt lat="45.97414" lon="6.24073">
        <ele>1142.03708204</ele>
        <time>2018-06-14T17:51:22Z</time>
      </trkpt>
      <trkpt lat="45.97414" lon="6.24073">
        <ele>1142.03708204</ele>
        <time>2018-06-14T17:51:23Z</time>
      </trkpt>
      <trkpt lat="45.97428" lon="6.24073">
        <ele>1135.03709416</ele>
        <time>2018-06-14T17:54:10Z</time>
      </trkpt>
      <trkpt lat="45.97429" lon="6.24075">
        <ele>1141.0369906</ele>
        <time>2018-06-14T17:54:30Z</time>
      </trkpt>
      <trkpt lat="45.97429" lon="6.24075">
        <ele>1141.0369906</ele>
        <time>2018-06-14T17:54:30Z</time>
      </trkpt>
    </trkseg>
  </trk>
</gpx>